Darstellungsparameter: Aktuell verwendete Einstellungen:
Skalierung der Graphiken ... ?
xyx+y,   Skalierungsfaktor:      Skalierung: Modus: x, Faktor: 1
Darstellungszeitraum ... ?
Vom - - bis: - -   Zeitraum: 06.03.2014 - 12.03.2014
Min/Max/Avg-Anzeige ... ?
Zeige MMA aktuell
Zeige MMA Monat
Zeige MMA alles
Zeige --A aktuell
Zeige --A Monat
Zeige --A alles
Keine MMA-Anzeige
MMA:
Average (ber die Originaldaten)
MMA-Basis: 06.03.2014 - 12.03.2014
Quicknavigation für Darstellung... ?
Tage:      1T, 2T, 3T, 5T -1T -2T -3T -5T +1T +2T +3T +5T
Wochen: 1W, 2W, 3W -1W -2W -3W +1W +2W +3W
Monate: 1M, 3M, 6M -1M -3M -6M +1M +3M +6M
Jahre:    1J, 3J, 5J, 10J -1J -3J -5J -10J +1J +3J +5J +10J
Nutze für die Darstellung ... ?
Originaldaten oder Mittelwerte auf ...
Stundenbasis Tagesbasis Wochenbasis
Monatsbasis Jahresbasis      Datenbasis: Original-Daten
Darstellen als:
Statistik (Auto) Statistik J:M      Darstellung:
Zur Graphik,    zurück zur Übersicht aller Sensoren.
 
Tabellarische Datenbersicht: ?
 
Sensor: Nr:Datum:Temp:Abs-Feuchte:Windchill:Wind:
Aussen-T/F 1 06-03-2014 00:00:00 1.9 C 5.19 g/m*3 1.9 C 0 km/h
2 06-03-2014 00:05:00 1.8 C 5.15 g/m*3 1.8 C 0 km/h
3 06-03-2014 00:10:00 1.9 C 5.24 g/m*3 1.9 C 0 km/h
4 06-03-2014 00:15:00 1.9 C 5.24 g/m*3 1.9 C 0 km/h
5 06-03-2014 00:20:00 1.8 C 5.21 g/m*3 1.8 C 0 km/h
6 06-03-2014 00:25:00 1.8 C 5.21 g/m*3 1.8 C 0 km/h
7 06-03-2014 00:30:00 1.7 C 5.17 g/m*3 1.7 C 0 km/h
8 06-03-2014 00:35:00 1.7 C 5.17 g/m*3 1.7 C 1.6 km/h
9 06-03-2014 00:40:00 1.7 C 5.17 g/m*3 1.7 C 1.6 km/h
10 06-03-2014 00:45:00 1.7 C 5.17 g/m*3 1.7 C 0 km/h
11 06-03-2014 00:50:00 1.4 C 5.07 g/m*3 1.4 C 0 km/h
12 06-03-2014 00:55:00 1.3 C 5.03 g/m*3 1.3 C 0 km/h
13 06-03-2014 01:00:00 1.3 C 5.03 g/m*3 1.3 C 0 km/h
14 06-03-2014 01:05:00 1.4 C 5.07 g/m*3 1.4 C 0 km/h
15 06-03-2014 01:10:00 1.4 C 5.07 g/m*3 1.4 C 0 km/h
16 06-03-2014 01:15:00 1.5 C 5.1 g/m*3 1.5 C 0 km/h
17 06-03-2014 01:20:00 1.4 C 5.07 g/m*3 1.4 C 0 km/h
18 06-03-2014 01:25:00 1.4 C 5.07 g/m*3 1.4 C 0 km/h
19 06-03-2014 01:30:00 1.3 C 5.03 g/m*3 1.3 C 0 km/h
20 06-03-2014 01:35:00 1.2 C 5 g/m*3 1.2 C 0 km/h
21 06-03-2014 01:40:00 1.2 C 5 g/m*3 1.2 C 0 km/h
22 06-03-2014 01:45:00 1.1 C 4.96 g/m*3 1.1 C 0 km/h
23 06-03-2014 01:50:00 1 C 4.93 g/m*3 1 C 0 km/h
24 06-03-2014 01:55:00 0.9 C 4.9 g/m*3 0.9 C 0 km/h
25 06-03-2014 02:00:00 0.9 C 4.9 g/m*3 0.9 C 1.6 km/h
Sensor: Nr:Datum:Temp:Abs-Feuchte:Windchill:Wind:
Aussen-T/F 26 06-03-2014 02:05:00 0.9 C 4.95 g/m*3 0.9 C 0 km/h
27 06-03-2014 02:10:00 0.8 C 4.86 g/m*3 0.8 C 0 km/h
28 06-03-2014 02:15:00 0.7 C 4.83 g/m*3 0.7 C 0 km/h
29 06-03-2014 02:20:00 0.7 C 4.83 g/m*3 0.7 C 0 km/h
30 06-03-2014 02:25:00 0.7 C 4.88 g/m*3 0.7 C 0 km/h
31 06-03-2014 02:30:00 0.7 C 4.88 g/m*3 0.7 C 0 km/h
32 06-03-2014 02:35:00 0.7 C 4.88 g/m*3 0.7 C 0 km/h
33 06-03-2014 02:40:00 0.7 C 4.88 g/m*3 0.7 C 0 km/h
34 06-03-2014 02:45:00 0.6 C 4.85 g/m*3 0.6 C 0 km/h
35 06-03-2014 02:50:00 0.4 C 4.73 g/m*3 0.4 C 0 km/h
36 06-03-2014 02:55:00 0.3 C 4.75 g/m*3 0.3 C 0 km/h
37 06-03-2014 03:00:00 0.3 C 4.75 g/m*3 0.3 C 0 km/h
38 06-03-2014 03:05:00 0.3 C 4.75 g/m*3 0.3 C 0 km/h
39 06-03-2014 03:10:00 0.3 C 4.75 g/m*3 0.3 C 0 km/h
40 06-03-2014 03:15:00 0.2 C 4.72 g/m*3 0.2 C 0 km/h
41 06-03-2014 03:20:00 0.2 C 4.72 g/m*3 0.2 C 0 km/h
42 06-03-2014 03:25:00 0.2 C 4.72 g/m*3 0.2 C 0 km/h
43 06-03-2014 03:30:00 0.2 C 4.72 g/m*3 0.2 C 0 km/h
44 06-03-2014 03:35:00 0.1 C 4.68 g/m*3 0.1 C 0 km/h
45 06-03-2014 03:40:00 0.1 C 4.68 g/m*3 0.1 C 1.6 km/h
46 06-03-2014 03:45:00 0.1 C 4.68 g/m*3 0.1 C 0 km/h
47 06-03-2014 03:50:00 0 C 4.65 g/m*3 0 C 0 km/h
48 06-03-2014 03:55:00 0 C 4.65 g/m*3 0 C 0 km/h
49 06-03-2014 04:00:00 0 C 4.65 g/m*3 0 C 0 km/h
50 06-03-2014 04:05:00 0 C 4.65 g/m*3 0 C 0 km/h
Sensor: Nr:Datum:Temp:Abs-Feuchte:Windchill:Wind:
Aussen-T/F 51 06-03-2014 04:10:00 0 C 4.65 g/m*3 0 C 0 km/h
52 06-03-2014 04:15:00 0 C 4.65 g/m*3 0 C 0 km/h
53 06-03-2014 04:20:00 -0.1 C 4.62 g/m*3 -0.1 C 0 km/h
54 06-03-2014 04:25:00 -0.2 C 4.59 g/m*3 -0.2 C 0 km/h
55 06-03-2014 04:30:00 -0.3 C 4.56 g/m*3 -0.3 C 0 km/h
56 06-03-2014 04:35:00 -0.3 C 4.56 g/m*3 -0.3 C 0 km/h
57 06-03-2014 04:40:00 -0.3 C 4.56 g/m*3 -0.3 C 0 km/h
58 06-03-2014 04:45:00 -0.4 C 4.52 g/m*3 -0.4 C 0 km/h
59 06-03-2014 04:50:00 -0.4 C 4.52 g/m*3 -0.4 C 0 km/h
60 06-03-2014 04:55:00 -0.4 C 4.52 g/m*3 -0.4 C 0 km/h
61 06-03-2014 05:00:00 -0.5 C 4.49 g/m*3 -0.5 C 0 km/h
62 06-03-2014 05:05:00 -0.5 C 4.49 g/m*3 -0.5 C 0 km/h
63 06-03-2014 05:10:00 -0.6 C 4.46 g/m*3 -0.6 C 0 km/h
64 06-03-2014 05:15:00 -0.6 C 4.46 g/m*3 -0.6 C 0 km/h
65 06-03-2014 05:20:00 -0.6 C 4.46 g/m*3 -0.6 C 0 km/h
66 06-03-2014 05:25:00 -0.7 C 4.43 g/m*3 -0.7 C 0 km/h
67 06-03-2014 05:30:00 -0.7 C 4.43 g/m*3 -0.7 C 0 km/h
68 06-03-2014 05:35:00 -0.7 C 4.43 g/m*3 -0.7 C 0 km/h
69 06-03-2014 05:40:00 -0.7 C 4.43 g/m*3 -0.7 C 0 km/h
70 06-03-2014 05:45:00 -0.7 C 4.43 g/m*3 -0.7 C 0 km/h
71 06-03-2014 05:50:00 -0.6 C 4.46 g/m*3 -0.6 C 0 km/h
72 06-03-2014 05:55:00 -0.5 C 4.49 g/m*3 -0.5 C 0 km/h
73 06-03-2014 06:00:00 -0.5 C 4.49 g/m*3 -0.5 C 0 km/h
74 06-03-2014 06:05:00 -0.4 C 4.57 g/m*3 -0.4 C 0 km/h
75 06-03-2014 06:10:00 -0.3 C 4.6 g/m*3 -0.3 C 0 km/h
Sensor: Nr:Datum:Temp:Abs-Feuchte:Windchill:Wind:
Aussen-T/F 76 06-03-2014 06:15:00 -0.3 C 4.6 g/m*3 -0.3 C 0 km/h
77 06-03-2014 06:20:00 -0.3 C 4.6 g/m*3 -0.3 C 1.6 km/h
78 06-03-2014 06:25:00 -0.2 C 4.64 g/m*3 -0.2 C 1.6 km/h
79 06-03-2014 06:30:00 -0.2 C 4.64 g/m*3 -0.2 C 1.6 km/h
80 06-03-2014 06:35:00 -0.1 C 4.67 g/m*3 -0.1 C 1.6 km/h
81 06-03-2014 06:40:00 -0.1 C 4.67 g/m*3 -0.1 C 3.2 km/h
82 06-03-2014 06:45:00 -0.1 C 4.67 g/m*3 -0.1 C 3.2 km/h
83 06-03-2014 06:50:00 -0.2 C 4.64 g/m*3 -0.2 C 3.2 km/h
84 06-03-2014 06:55:00 -0.2 C 4.64 g/m*3 -0.2 C 3.2 km/h
85 06-03-2014 07:00:00 -0.2 C 4.64 g/m*3 -0.2 C 3.2 km/h
86 06-03-2014 07:05:00 -0.2 C 4.64 g/m*3 -0.2 C 3.2 km/h
87 06-03-2014 07:10:00 -0.2 C 4.64 g/m*3 -0.2 C 1.6 km/h
88 06-03-2014 07:15:00 -0.2 C 4.64 g/m*3 -0.2 C 1.6 km/h
89 06-03-2014 07:20:00 -0.2 C 4.64 g/m*3 -0.2 C 0 km/h
90 06-03-2014 07:25:00 -0.1 C 4.67 g/m*3 -0.1 C 0 km/h
91 06-03-2014 07:30:00 -0.1 C 4.67 g/m*3 -0.1 C 1.6 km/h
92 06-03-2014 07:35:00 -0.1 C 4.67 g/m*3 -0.1 C 1.6 km/h
93 06-03-2014 07:40:00 -0.1 C 4.67 g/m*3 -0.1 C 0 km/h
94 06-03-2014 07:45:00 0 C 4.7 g/m*3 0 C 0 km/h
95 06-03-2014 07:50:00 0 C 4.7 g/m*3 0 C 0 km/h
96 06-03-2014 07:55:00 0.1 C 4.73 g/m*3 0.1 C 0 km/h
97 06-03-2014 08:00:00 0.1 C 4.73 g/m*3 0.1 C 0 km/h
98 06-03-2014 08:05:00 0.1 C 4.73 g/m*3 0.1 C 0 km/h
99 06-03-2014 08:10:00 0.2 C 4.77 g/m*3 0.2 C 0 km/h
100 06-03-2014 08:15:00 0.2 C 4.77 g/m*3 0.2 C 0 km/h
Sensor: Nr:Datum:Temp:Abs-Feuchte:Windchill:Wind:
Aussen-T/F 101 06-03-2014 08:20:00 0.3 C 4.8 g/m*3 0.3 C 0 km/h
102 06-03-2014 08:25:00 0.3 C 4.8 g/m*3 0.3 C 0 km/h
103 06-03-2014 08:30:00 0.3 C 4.8 g/m*3 0.3 C 0 km/h
104 06-03-2014 08:35:00 0.3 C 4.8 g/m*3 0.3 C 0 km/h
105 06-03-2014 08:40:00 0.4 C 4.83 g/m*3 0.4 C 1.6 km/h
106 06-03-2014 08:45:00 0.4 C 4.83 g/m*3 0.4 C 3.2 km/h
107 06-03-2014 08:50:00 0.4 C 4.83 g/m*3 0.4 C 4.8 km/h
108 06-03-2014 08:55:00 0.5 C 4.86 g/m*3 0.5 C 3.2 km/h
109 06-03-2014 09:00:00 0.5 C 4.86 g/m*3 0.5 C 3.2 km/h
110 06-03-2014 09:05:00 0.6 C 4.9 g/m*3 0.6 C 1.6 km/h
111 06-03-2014 09:10:00 0.5 C 4.86 g/m*3 0.5 C 0 km/h
112 06-03-2014 09:15:00 0.6 C 4.9 g/m*3 0.6 C 1.6 km/h
113 06-03-2014 09:20:00 0.6 C 4.9 g/m*3 0.6 C 0 km/h
114 06-03-2014 09:25:00 0.7 C 4.93 g/m*3 0.7 C 0 km/h
115 06-03-2014 09:30:00 0.8 C 4.97 g/m*3 0.8 C 3.2 km/h
116 06-03-2014 09:35:00 0.8 C 4.97 g/m*3 0.8 C 1.6 km/h
117 06-03-2014 09:40:00 0.9 C 5 g/m*3 0.9 C 1.6 km/h
118 06-03-2014 09:45:00 0.9 C 5 g/m*3 0.9 C 1.6 km/h
119 06-03-2014 09:50:00 1.1 C 5.07 g/m*3 1.1 C 0 km/h
120 06-03-2014 09:55:00 1.1 C 5.07 g/m*3 1.1 C 3.2 km/h
121 06-03-2014 10:00:00 1.1 C 5.07 g/m*3 1.1 C 1.6 km/h
122 06-03-2014 10:05:00 1.1 C 5.07 g/m*3 1.1 C 1.6 km/h
123 06-03-2014 10:10:00 1.2 C 5.1 g/m*3 1.2 C 0 km/h
124 06-03-2014 10:15:00 1.2 C 5.16 g/m*3 1.2 C 1.6 km/h
125 06-03-2014 10:20:00 1.4 C 5.17 g/m*3 1.4 C 3.2 km/h
Sensor: Nr:Datum:Temp:Abs-Feuchte:Windchill:Wind:
Aussen-T/F 126 06-03-2014 10:25:00 1.4 C 5.17 g/m*3 1.4 C 3.2 km/h
127 06-03-2014 10:30:00 1.5 C 5.21 g/m*3 1.5 C 1.6 km/h
128 06-03-2014 10:35:00 1.6 C 5.3 g/m*3 1.6 C 3.2 km/h
129 06-03-2014 10:40:00 1.7 C 5.34 g/m*3 1.7 C 1.6 km/h
130 06-03-2014 10:45:00 1.8 C 5.32 g/m*3 1.8 C 1.6 km/h
131 06-03-2014 10:50:00 1.8 C 5.32 g/m*3 1.8 C 1.6 km/h
132 06-03-2014 10:55:00 1.9 C 5.41 g/m*3 1.9 C 1.6 km/h
133 06-03-2014 11:00:00 1.9 C 5.41 g/m*3 1.9 C 1.6 km/h
134 06-03-2014 11:05:00 2 C 5.45 g/m*3 2 C 3.2 km/h
135 06-03-2014 11:10:00 2.1 C 5.48 g/m*3 2.1 C 3.2 km/h
136 06-03-2014 11:15:00 2.2 C 5.52 g/m*3 2.2 C 3.2 km/h
137 06-03-2014 11:20:00 2.2 C 5.52 g/m*3 2.2 C 0 km/h
138 06-03-2014 11:25:00 2.3 C 5.56 g/m*3 2.3 C 1.6 km/h
139 06-03-2014 11:30:00 2.5 C 5.63 g/m*3 2.5 C 3.2 km/h
140 06-03-2014 11:35:00 2.6 C 5.67 g/m*3 2.6 C 3.2 km/h
141 06-03-2014 11:40:00 2.6 C 5.67 g/m*3 2.6 C 3.2 km/h
142 06-03-2014 11:45:00 2.7 C 5.71 g/m*3 2.7 C 1.6 km/h
143 06-03-2014 11:50:00 2.8 C 5.75 g/m*3 2.8 C 3.2 km/h
144 06-03-2014 11:55:00 3.1 C 5.87 g/m*3 3.1 C 1.6 km/h
145 06-03-2014 12:00:00 3.2 C 5.91 g/m*3 3.2 C 3.2 km/h
146 06-03-2014 12:05:00 3.3 C 5.95 g/m*3 3.3 C 3.2 km/h
147 06-03-2014 12:10:00 3.5 C 6.03 g/m*3 3.5 C 1.6 km/h
148 06-03-2014 12:15:00 3.7 C 6.11 g/m*3 3.7 C 3.2 km/h
149 06-03-2014 12:20:00 3.8 C 6.15 g/m*3 3.8 C 3.2 km/h
150 06-03-2014 12:25:00 4 C 6.23 g/m*3 4 C 3.2 km/h
Sensor: Nr:Datum:Temp:Abs-Feuchte:Windchill:Wind:
Aussen-T/F 151 06-03-2014 12:30:00 4.2 C 6.31 g/m*3 4.2 C 0 km/h
152 06-03-2014 12:35:00 4.3 C 6.36 g/m*3 4.3 C 0 km/h
153 06-03-2014 12:40:00 4.6 C 6.48 g/m*3 4.6 C 1.6 km/h
154 06-03-2014 12:45:00 5.1 C 6.7 g/m*3 5.1 C 3.2 km/h
155 06-03-2014 12:50:00 5.5 C 6.88 g/m*3 5.5 C 1.6 km/h
156 06-03-2014 12:55:00 5.8 C 7.02 g/m*3 5.8 C 3.2 km/h
157 06-03-2014 13:00:00 6 C 7.11 g/m*3 6 C 4.8 km/h
158 06-03-2014 13:05:00 6.3 C 7.25 g/m*3 6.3 C 3.2 km/h
159 06-03-2014 13:10:00 6.7 C 7.37 g/m*3 6.7 C 3.2 km/h
160 06-03-2014 13:15:00 7.1 C 7.33 g/m*3 7.1 C 1.6 km/h
161 06-03-2014 13:20:00 7.5 C 7.36 g/m*3 7.5 C 4.8 km/h
162 06-03-2014 13:25:00 7.8 C 7.26 g/m*3 7.8 C 4.8 km/h
163 06-03-2014 13:30:00 8.1 C 7.24 g/m*3 8.1 C 4.8 km/h
164 06-03-2014 13:35:00 8.3 C 7.16 g/m*3 8.3 C 4.8 km/h
165 06-03-2014 13:40:00 8.5 C 7.17 g/m*3 8.5 C 4.8 km/h
166 06-03-2014 13:45:00 8.7 C 7.35 g/m*3 8.7 C 4.8 km/h
167 06-03-2014 13:50:00 8.9 C 7.27 g/m*3 8.9 C 4.8 km/h
168 06-03-2014 13:55:00 9.1 C 7.28 g/m*3 9.1 C 4.8 km/h
169 06-03-2014 14:00:00 9.2 C 7.23 g/m*3 9.2 C 3.2 km/h
170 06-03-2014 14:05:00 9.4 C 7.24 g/m*3 9.4 C 3.2 km/h
171 06-03-2014 14:10:00 9.6 C 7.33 g/m*3 9.6 C 4.8 km/h
172 06-03-2014 14:15:00 9.7 C 7.28 g/m*3 9.7 C 3.2 km/h
173 06-03-2014 14:20:00 9.9 C 7.38 g/m*3 9.9 C 4.8 km/h
174 06-03-2014 14:25:00 10.1 C 7.28 g/m*3 10.1 C 3.2 km/h
175 06-03-2014 14:30:00 10.3 C 7.57 g/m*3 10.3 C 3.2 km/h
Sensor: Nr:Datum:Temp:Abs-Feuchte:Windchill:Wind:
Aussen-T/F 176 06-03-2014 14:35:00 10.5 C 7.47 g/m*3 10.5 C 4.8 km/h
177 06-03-2014 14:40:00 10.7 C 7.56 g/m*3 10.7 C 4.8 km/h
178 06-03-2014 14:45:00 11 C 7.61 g/m*3 10.16 C 8.1 km/h
179 06-03-2014 14:50:00 11.3 C 7.65 g/m*3 11.3 C 4.8 km/h
180 06-03-2014 14:55:00 11.5 C 7.64 g/m*3 11.5 C 6.4 km/h
181 06-03-2014 15:00:00 11.8 C 7.58 g/m*3 11.8 C 3.2 km/h
182 06-03-2014 15:05:00 11.9 C 7.41 g/m*3 11.9 C 6.4 km/h
183 06-03-2014 15:10:00 12.1 C 7.61 g/m*3 12.1 C 3.2 km/h
184 06-03-2014 15:15:00 12.3 C 7.49 g/m*3 12.3 C 6.4 km/h
185 06-03-2014 15:20:00 12.5 C 7.59 g/m*3 12.5 C 6.4 km/h
186 06-03-2014 15:25:00 12.6 C 7.19 g/m*3 12.6 C 9.7 km/h
187 06-03-2014 15:30:00 12.8 C 7.5 g/m*3 12.8 C 6.4 km/h
188 06-03-2014 15:35:00 12.9 C 7.1 g/m*3 12.9 C 6.4 km/h
189 06-03-2014 15:40:00 13 C 7.14 g/m*3 13 C 6.4 km/h
190 06-03-2014 15:45:00 13.1 C 7.07 g/m*3 13.1 C 4.8 km/h
191 06-03-2014 15:50:00 13.1 C 7.07 g/m*3 13.1 C 6.4 km/h
192 06-03-2014 15:55:00 12.9 C 6.76 g/m*3 12.9 C 11.3 km/h
193 06-03-2014 16:00:00 12.8 C 6.83 g/m*3 12.8 C 6.4 km/h
194 06-03-2014 16:05:00 12.6 C 6.86 g/m*3 12.6 C 9.7 km/h
195 06-03-2014 16:10:00 12.5 C 6.93 g/m*3 12.5 C 6.4 km/h
196 06-03-2014 16:15:00 12.4 C 6.77 g/m*3 12.4 C 8.1 km/h
197 06-03-2014 16:20:00 12.4 C 6.77 g/m*3 12.4 C 6.4 km/h
198 06-03-2014 16:25:00 12.3 C 6.73 g/m*3 12.3 C 6.4 km/h
199 06-03-2014 16:30:00 12.3 C 6.84 g/m*3 12.3 C 4.8 km/h
200 06-03-2014 16:35:00 12.3 C 6.73 g/m*3 12.3 C 8.1 km/h
Sensor: Nr:Datum:Temp:Abs-Feuchte:Windchill:Wind:
Aussen-T/F 201 06-03-2014 16:40:00 12.2 C 7.23 g/m*3 12.2 C 3.2 km/h
202 06-03-2014 16:45:00 12.1 C 6.76 g/m*3 12.1 C 4.8 km/h
203 06-03-2014 16:50:00 12 C 7.14 g/m*3 12 C 3.2 km/h
204 06-03-2014 16:55:00 11.7 C 7.11 g/m*3 11.7 C 1.6 km/h
205 06-03-2014 17:00:00 11.5 C 6.82 g/m*3 11.5 C 8.1 km/h
206 06-03-2014 17:05:00 11.6 C 6.76 g/m*3 11.6 C 3.2 km/h
207 06-03-2014 17:10:00 11.4 C 7.19 g/m*3 11.4 C 4.8 km/h
208 06-03-2014 17:15:00 10.9 C 7.16 g/m*3 10.9 C 4.8 km/h
209 06-03-2014 17:20:00 10.6 C 7.12 g/m*3 10.6 C 3.2 km/h
210 06-03-2014 17:25:00 10.2 C 7.14 g/m*3 10.2 C 3.2 km/h
211 06-03-2014 17:30:00 9.9 C 7.1 g/m*3 9.9 C 3.2 km/h
212 06-03-2014 17:35:00 9.6 C 7.05 g/m*3 9.6 C 4.8 km/h
213 06-03-2014 17:40:00 9.4 C 6.96 g/m*3 9.4 C 4.8 km/h
214 06-03-2014 17:45:00 9.2 C 6.88 g/m*3 8.45 C 6.4 km/h
215 06-03-2014 17:50:00 9 C 6.88 g/m*3 9 C 4.8 km/h
216 06-03-2014 17:55:00 8.8 C 6.88 g/m*3 7.98 C 6.4 km/h
217 06-03-2014 18:00:00 8.6 C 6.79 g/m*3 8.6 C 4.8 km/h
218 06-03-2014 18:05:00 8.3 C 6.74 g/m*3 7.41 C 6.4 km/h
219 06-03-2014 18:10:00 8.1 C 6.66 g/m*3 7.17 C 6.4 km/h
220 06-03-2014 18:15:00 7.8 C 6.53 g/m*3 6.83 C 6.4 km/h
221 06-03-2014 18:20:00 7.6 C 6.53 g/m*3 6.6 C 6.4 km/h
222 06-03-2014 18:25:00 7.4 C 6.44 g/m*3 6.37 C 6.4 km/h
223 06-03-2014 18:30:00 7.3 C 6.4 g/m*3 6.25 C 6.4 km/h
224 06-03-2014 18:35:00 7.2 C 6.36 g/m*3 6.13 C 6.4 km/h
225 06-03-2014 18:40:00 7.1 C 6.32 g/m*3 6.02 C 6.4 km/h
Sensor: Nr:Datum:Temp:Abs-Feuchte:Windchill:Wind:
Aussen-T/F 226 06-03-2014 18:45:00 6.9 C 6.31 g/m*3 5.79 C 6.4 km/h
227 06-03-2014 18:50:00 6.8 C 6.27 g/m*3 5.67 C 6.4 km/h
228 06-03-2014 18:55:00 6.7 C 6.31 g/m*3 5.56 C 6.4 km/h
229 06-03-2014 19:00:00 6.6 C 6.27 g/m*3 5.44 C 6.4 km/h
230 06-03-2014 19:05:00 6.5 C 6.22 g/m*3 5.33 C 6.4 km/h
231 06-03-2014 19:10:00 6.4 C 6.26 g/m*3 5.21 C 6.4 km/h
232 06-03-2014 19:15:00 6.4 C 6.26 g/m*3 6.4 C 4.8 km/h
233 06-03-2014 19:20:00 6.4 C 6.26 g/m*3 5.21 C 6.4 km/h
234 06-03-2014 19:25:00 6.3 C 6.22 g/m*3 6.3 C 4.8 km/h
235 06-03-2014 19:30:00 6.2 C 6.25 g/m*3 6.2 C 4.8 km/h
236 06-03-2014 19:35:00 6.2 C 6.25 g/m*3 6.2 C 4.8 km/h
237 06-03-2014 19:40:00 6.1 C 6.28 g/m*3 4.86 C 6.4 km/h
238 06-03-2014 19:45:00 6.1 C 6.28 g/m*3 4.86 C 6.4 km/h
239 06-03-2014 19:50:00 6.1 C 6.28 g/m*3 6.1 C 4.8 km/h
240 06-03-2014 19:55:00 6 C 6.24 g/m*3 6 C 4.8 km/h
241 06-03-2014 20:00:00 5.9 C 6.2 g/m*3 5.9 C 4.8 km/h
242 06-03-2014 20:05:00 5.8 C 6.16 g/m*3 5.8 C 4.8 km/h
243 06-03-2014 20:10:00 5.7 C 6.12 g/m*3 5.7 C 4.8 km/h
244 06-03-2014 20:15:00 5.5 C 6.04 g/m*3 5.5 C 4.8 km/h
245 06-03-2014 20:20:00 5.3 C 5.96 g/m*3 5.3 C 4.8 km/h
246 06-03-2014 20:25:00 5.3 C 5.96 g/m*3 5.3 C 4.8 km/h
247 06-03-2014 20:30:00 5.2 C 5.99 g/m*3 3.82 C 6.4 km/h
248 06-03-2014 20:35:00 5.1 C 5.95 g/m*3 5.1 C 4.8 km/h
249 06-03-2014 20:40:00 4.9 C 5.87 g/m*3 3.48 C 6.4 km/h
250 06-03-2014 20:45:00 4.9 C 5.81 g/m*3 4.9 C 4.8 km/h
Sensor: Nr:Datum:Temp:Abs-Feuchte:Windchill:Wind:
Aussen-T/F 251 06-03-2014 20:50:00 4.9 C 5.81 g/m*3 4.9 C 1.6 km/h
252 06-03-2014 20:55:00 4.8 C 5.83 g/m*3 4.8 C 3.2 km/h
253 06-03-2014 21:00:00 4.7 C 5.86 g/m*3 4.7 C 1.6 km/h
254 06-03-2014 21:05:00 4.6 C 5.76 g/m*3 4.6 C 1.6 km/h
255 06-03-2014 21:10:00 4.4 C 5.75 g/m*3 4.4 C 3.2 km/h
256 06-03-2014 21:15:00 4.3 C 5.71 g/m*3 4.3 C 1.6 km/h
257 06-03-2014 21:20:00 4.1 C 5.63 g/m*3 4.1 C 1.6 km/h
258 06-03-2014 21:25:00 4 C 5.66 g/m*3 4 C 1.6 km/h
259 06-03-2014 21:30:00 3.9 C 5.62 g/m*3 3.9 C 3.2 km/h
260 06-03-2014 21:35:00 3.8 C 5.58 g/m*3 3.8 C 0 km/h
261 06-03-2014 21:40:00 3.8 C 5.58 g/m*3 3.8 C 0 km/h
262 06-03-2014 21:45:00 3.7 C 5.55 g/m*3 3.7 C 1.6 km/h
263 06-03-2014 21:50:00 3.7 C 5.55 g/m*3 3.7 C 0 km/h
264 06-03-2014 21:55:00 3.7 C 5.55 g/m*3 3.7 C 1.6 km/h
265 06-03-2014 22:00:00 3.6 C 5.51 g/m*3 3.6 C 0 km/h
266 06-03-2014 22:05:00 3.5 C 5.47 g/m*3 3.5 C 1.6 km/h
267 06-03-2014 22:10:00 3.4 C 5.44 g/m*3 3.4 C 0 km/h
268 06-03-2014 22:15:00 3.4 C 5.44 g/m*3 3.4 C 0 km/h
269 06-03-2014 22:20:00 3.3 C 5.4 g/m*3 3.3 C 0 km/h
270 06-03-2014 22:25:00 3.2 C 5.36 g/m*3 3.2 C 0 km/h
271 06-03-2014 22:30:00 3.1 C 5.33 g/m*3 3.1 C 0 km/h
272 06-03-2014 22:35:00 2.9 C 5.26 g/m*3 2.9 C 0 km/h
273 06-03-2014 22:40:00 2.8 C 5.22 g/m*3 2.8 C 0 km/h
274 06-03-2014 22:45:00 2.8 C 5.28 g/m*3 2.8 C 0 km/h
275 06-03-2014 22:50:00 2.7 C 5.24 g/m*3 2.7 C 0 km/h
Sensor: Nr:Datum:Temp:Abs-Feuchte:Windchill:Wind:
Aussen-T/F 276 06-03-2014 22:55:00 2.6 C 5.21 g/m*3 2.6 C 0 km/h
277 06-03-2014 23:00:00 2.4 C 5.14 g/m*3 2.4 C 0 km/h
278 06-03-2014 23:05:00 2.3 C 5.16 g/m*3 2.3 C 0 km/h
279 06-03-2014 23:10:00 2.2 C 5.13 g/m*3 2.2 C 0 km/h
280 06-03-2014 23:15:00 2.2 C 5.13 g/m*3 2.2 C 0 km/h
281 06-03-2014 23:20:00 2.2 C 5.13 g/m*3 2.2 C 0 km/h
282 06-03-2014 23:25:00 2 C 5.06 g/m*3 2 C 0 km/h
283 06-03-2014 23:30:00 1.9 C 5.02 g/m*3 1.9 C 0 km/h
284 06-03-2014 23:35:00 1.8 C 4.99 g/m*3 1.8 C 0 km/h
285 06-03-2014 23:40:00 1.8 C 5.04 g/m*3 1.8 C 0 km/h
286 06-03-2014 23:45:00 1.7 C 5.01 g/m*3 1.7 C 0 km/h
287 06-03-2014 23:50:00 1.7 C 5.01 g/m*3 1.7 C 0 km/h
288 06-03-2014 23:55:00 1.7 C 5.06 g/m*3 1.7 C 0 km/h
289 07-03-2014 00:00:00 1.7 C 5.06 g/m*3 1.7 C 0 km/h
290 07-03-2014 00:05:00 1.6 C 5.03 g/m*3 1.6 C 0 km/h
291 07-03-2014 00:10:00 1.4 C 4.91 g/m*3 1.4 C 0 km/h
292 07-03-2014 00:15:00 1.3 C 4.93 g/m*3 1.3 C 0 km/h
293 07-03-2014 00:20:00 1.3 C 4.93 g/m*3 1.3 C 0 km/h
294 07-03-2014 00:25:00 1.2 C 4.89 g/m*3 1.2 C 0 km/h
295 07-03-2014 00:30:00 1.2 C 4.89 g/m*3 1.2 C 0 km/h
296 07-03-2014 00:35:00 1.2 C 4.89 g/m*3 1.2 C 0 km/h
297 07-03-2014 00:40:00 1.1 C 4.91 g/m*3 1.1 C 0 km/h
298 07-03-2014 00:45:00 1.1 C 4.86 g/m*3 1.1 C 0 km/h
299 07-03-2014 00:50:00 1.1 C 4.91 g/m*3 1.1 C 0 km/h
300 07-03-2014 00:55:00 1.1 C 4.91 g/m*3 1.1 C 0 km/h
Sensor: Nr:Datum:Temp:Abs-Feuchte:Windchill:Wind:
Aussen-T/F 301 07-03-2014 01:00:00 1.1 C 4.91 g/m*3 1.1 C 0 km/h
302 07-03-2014 01:05:00 1.1 C 4.91 g/m*3 1.1 C 0 km/h
303 07-03-2014 01:10:00 1.1 C 4.91 g/m*3 1.1 C 0 km/h
304 07-03-2014 01:15:00 0.9 C 4.85 g/m*3 0.9 C 0 km/h
305 07-03-2014 01:20:00 0.8 C 4.81 g/m*3 0.8 C 0 km/h
306 07-03-2014 01:25:00 0.8 C 4.81 g/m*3 0.8 C 0 km/h
307 07-03-2014 01:30:00 0.8 C 4.81 g/m*3 0.8 C 0 km/h
308 07-03-2014 01:35:00 0.7 C 4.78 g/m*3 0.7 C 0 km/h
309 07-03-2014 01:40:00 0.8 C 4.81 g/m*3 0.8 C 0 km/h
310 07-03-2014 01:45:00 0.7 C 4.78 g/m*3 0.7 C 0 km/h
311 07-03-2014 01:50:00 0.5 C 4.71 g/m*3 0.5 C 0 km/h
312 07-03-2014 01:55:00 0.4 C 4.68 g/m*3 0.4 C 0 km/h
313 07-03-2014 02:00:00 0.4 C 4.68 g/m*3 0.4 C 0 km/h
314 07-03-2014 02:05:00 0.4 C 4.73 g/m*3 0.4 C 0 km/h
315 07-03-2014 02:10:00 0.4 C 4.73 g/m*3 0.4 C 0 km/h
316 07-03-2014 02:15:00 0.4 C 4.73 g/m*3 0.4 C 0 km/h
317 07-03-2014 02:20:00 0.3 C 4.7 g/m*3 0.3 C 0 km/h
318 07-03-2014 02:25:00 0.3 C 4.7 g/m*3 0.3 C 0 km/h
319 07-03-2014 02:30:00 0.3 C 4.7 g/m*3 0.3 C 0 km/h
320 07-03-2014 02:35:00 0.2 C 4.67 g/m*3 0.2 C 0 km/h
321 07-03-2014 02:40:00 0.1 C 4.63 g/m*3 0.1 C 0 km/h
322 07-03-2014 02:45:00 -0.1 C 4.57 g/m*3 -0.1 C 0 km/h
323 07-03-2014 02:50:00 -0.1 C 4.57 g/m*3 -0.1 C 0 km/h
324 07-03-2014 02:55:00 -0.1 C 4.57 g/m*3 -0.1 C 0 km/h
325 07-03-2014 03:00:00 -0.1 C 4.57 g/m*3 -0.1 C 0 km/h
Sensor: Nr:Datum:Temp:Abs-Feuchte:Windchill:Wind:
Aussen-T/F 326 07-03-2014 03:05:00 -0.1 C 4.57 g/m*3 -0.1 C 0 km/h
327 07-03-2014 03:10:00 -0.1 C 4.57 g/m*3 -0.1 C 0 km/h
328 07-03-2014 03:15:00 -0.1 C 4.57 g/m*3 -0.1 C 0 km/h
329 07-03-2014 03:20:00 -0.1 C 4.57 g/m*3 -0.1 C 0 km/h
330 07-03-2014 03:25:00 -0.1 C 4.57 g/m*3 -0.1 C 0 km/h
331 07-03-2014 03:30:00 -0.1 C 4.57 g/m*3 -0.1 C 0 km/h
332 07-03-2014 03:35:00 -0.1 C 4.57 g/m*3 -0.1 C 0 km/h
333 07-03-2014 03:40:00 -0.2 C 4.54 g/m*3 -0.2 C 0 km/h
334 07-03-2014 03:45:00 -0.2 C 4.54 g/m*3 -0.2 C 0 km/h
335 07-03-2014 03:50:00 -0.3 C 4.51 g/m*3 -0.3 C 0 km/h
336 07-03-2014 03:55:00 -0.3 C 4.51 g/m*3 -0.3 C 0 km/h
337 07-03-2014 04:00:00 -0.3 C 4.51 g/m*3 -0.3 C 0 km/h
338 07-03-2014 04:05:00 -0.3 C 4.51 g/m*3 -0.3 C 0 km/h
339 07-03-2014 04:20:00 -0.4 C 4.52 g/m*3 -0.4 C 0 km/h
340 07-03-2014 04:25:00 -0.4 C 4.52 g/m*3 -0.4 C 0 km/h
341 07-03-2014 04:30:00 -0.4 C 4.52 g/m*3 -0.4 C 0 km/h
342 07-03-2014 07:55:00 -0.9 C 4.42 g/m*3 -0.9 C 1.6 km/h
343 07-03-2014 08:00:00 -0.9 C 4.42 g/m*3 -0.9 C 0 km/h
344 07-03-2014 08:05:00 -0.9 C 4.42 g/m*3 -0.9 C 0 km/h
345 07-03-2014 08:10:00 -0.9 C 4.42 g/m*3 -0.9 C 1.6 km/h
346 07-03-2014 08:15:00 -0.9 C 4.42 g/m*3 -0.9 C 1.6 km/h
347 07-03-2014 08:20:00 -0.9 C 4.42 g/m*3 -0.9 C 0 km/h
348 07-03-2014 08:25:00 -0.9 C 4.42 g/m*3 -0.9 C 1.6 km/h
349 07-03-2014 08:30:00 -0.8 C 4.45 g/m*3 -0.8 C 0 km/h
350 07-03-2014 08:35:00 -0.7 C 4.48 g/m*3 -0.7 C 0 km/h
Sensor: Nr:Datum:Temp:Abs-Feuchte:Windchill:Wind:
Aussen-T/F 351 07-03-2014 08:40:00 -0.7 C 4.48 g/m*3 -0.7 C 0 km/h
352 07-03-2014 08:45:00 -0.6 C 4.51 g/m*3 -0.6 C 1.6 km/h
353 07-03-2014 08:50:00 -0.6 C 4.51 g/m*3 -0.6 C 0 km/h
354 07-03-2014 08:55:00 -0.6 C 4.51 g/m*3 -0.6 C 0 km/h
355 07-03-2014 09:00:00 -0.5 C 4.54 g/m*3 -0.5 C 0 km/h
356 07-03-2014 09:05:00 -0.5 C 4.54 g/m*3 -0.5 C 0 km/h
357 07-03-2014 09:10:00 -0.4 C 4.57 g/m*3 -0.4 C 0 km/h
358 07-03-2014 09:15:00 -0.4 C 4.57 g/m*3 -0.4 C 1.6 km/h
359 07-03-2014 09:20:00 -0.3 C 4.6 g/m*3 -0.3 C 1.6 km/h
360 07-03-2014 09:25:00 -0.2 C 4.64 g/m*3 -0.2 C 0 km/h
361 07-03-2014 09:30:00 -0.1 C 4.67 g/m*3 -0.1 C 1.6 km/h
362 07-03-2014 09:35:00 -0.1 C 4.67 g/m*3 -0.1 C 1.6 km/h
363 07-03-2014 09:40:00 0.1 C 4.73 g/m*3 0.1 C 1.6 km/h
364 07-03-2014 09:45:00 0.1 C 4.73 g/m*3 0.1 C 1.6 km/h
365 07-03-2014 09:50:00 0.2 C 4.77 g/m*3 0.2 C 0 km/h
366 07-03-2014 09:55:00 0.3 C 4.8 g/m*3 0.3 C 0 km/h
367 07-03-2014 10:00:00 0.4 C 4.83 g/m*3 0.4 C 0 km/h
368 07-03-2014 10:05:00 0.5 C 4.86 g/m*3 0.5 C 0 km/h
369 07-03-2014 10:10:00 0.6 C 4.9 g/m*3 0.6 C 0 km/h
370 07-03-2014 10:15:00 0.8 C 4.97 g/m*3 0.8 C 0 km/h
371 07-03-2014 10:20:00 0.8 C 4.97 g/m*3 0.8 C 0 km/h
372 07-03-2014 10:25:00 0.9 C 5 g/m*3 0.9 C 0 km/h
373 07-03-2014 10:30:00 1.1 C 5.07 g/m*3 1.1 C 0 km/h
374 07-03-2014 10:35:00 1.4 C 5.17 g/m*3 1.4 C 1.6 km/h
375 07-03-2014 10:40:00 1.7 C 5.34 g/m*3 1.7 C 3.2 km/h
Sensor: Nr:Datum:Temp:Abs-Feuchte:Windchill:Wind:
Aussen-T/F 376 07-03-2014 10:45:00 1.7 C 5.34 g/m*3 1.7 C 3.2 km/h
377 07-03-2014 13:15:00 11.6 C 7.38 g/m*3 11.6 C 0 km/h
378 07-03-2014 13:20:00 11.7 C 7.53 g/m*3 11.7 C 3.2 km/h
379 07-03-2014 13:25:00 11.9 C 7.41 g/m*3 11.9 C 3.2 km/h
380 07-03-2014 13:30:00 12.2 C 7.55 g/m*3 12.2 C 4.8 km/h
381 07-03-2014 13:35:00 12.3 C 7.49 g/m*3 12.3 C 4.8 km/h
382 07-03-2014 13:40:00 12.4 C 7.65 g/m*3 12.4 C 4.8 km/h
383 07-03-2014 13:45:00 12.4 C 7.65 g/m*3 12.4 C 3.2 km/h
384 07-03-2014 13:50:00 12.4 C 7.54 g/m*3 12.4 C 4.8 km/h
385 07-03-2014 13:55:00 12.6 C 7.52 g/m*3 12.6 C 4.8 km/h
386 07-03-2014 14:00:00 12.7 C 7.57 g/m*3 12.7 C 1.6 km/h
387 07-03-2014 14:05:00 12.9 C 7.44 g/m*3 12.9 C 3.2 km/h
388 07-03-2014 14:10:00 13.2 C 7.58 g/m*3 13.2 C 3.2 km/h
389 07-03-2014 14:15:00 13.4 C 7.32 g/m*3 13.4 C 3.2 km/h
390 07-03-2014 14:20:00 13.6 C 7.41 g/m*3 13.6 C 3.2 km/h
391 07-03-2014 14:25:00 13.9 C 7.31 g/m*3 13.9 C 3.2 km/h
392 07-03-2014 14:30:00 14.2 C 7.08 g/m*3 14.2 C 3.2 km/h
393 07-03-2014 14:35:00 14.2 C 6.84 g/m*3 14.2 C 3.2 km/h
394 07-03-2014 14:40:00 14.2 C 7.33 g/m*3 14.2 C 6.4 km/h
395 07-03-2014 14:45:00 14.3 C 7 g/m*3 14.3 C 8.1 km/h
396 07-03-2014 14:50:00 14.4 C 6.55 g/m*3 14.4 C 6.4 km/h
397 07-03-2014 14:55:00 14.7 C 6.42 g/m*3 14.7 C 6.4 km/h
398 07-03-2014 15:00:00 14.7 C 6.42 g/m*3 14.7 C 4.8 km/h
399 07-03-2014 15:05:00 15 C 6.41 g/m*3 15 C 4.8 km/h
400 07-03-2014 15:10:00 15.2 C 5.97 g/m*3 15.2 C 6.4 km/h
Sensor: Nr:Datum:Temp:Abs-Feuchte:Windchill:Wind:
Aussen-T/F 401 07-03-2014 15:15:00 15.3 C 6.14 g/m*3 15.3 C 8.1 km/h
402 07-03-2014 15:20:00 15.3 C 6.14 g/m*3 15.3 C 6.4 km/h
403 07-03-2014 15:25:00 15.3 C 5.88 g/m*3 15.3 C 11.3 km/h
404 07-03-2014 15:30:00 15.3 C 5.75 g/m*3 15.3 C 8.1 km/h
405 07-03-2014 15:35:00 15.3 C 5.75 g/m*3 15.3 C 9.7 km/h
406 07-03-2014 15:40:00 15.3 C 5.75 g/m*3 15.3 C 9.7 km/h
407 07-03-2014 15:45:00 15.1 C 5.81 g/m*3 15.1 C 6.4 km/h
408 07-03-2014 15:50:00 15.1 C 5.81 g/m*3 15.1 C 8.1 km/h
409 07-03-2014 15:55:00 15 C 5.77 g/m*3 15 C 9.7 km/h
410 07-03-2014 16:00:00 14.9 C 5.86 g/m*3 14.9 C 11.3 km/h
411 07-03-2014 16:05:00 14.8 C 6.59 g/m*3 14.8 C 8.1 km/h
412 07-03-2014 16:10:00 14.7 C 5.79 g/m*3 14.7 C 8.1 km/h
413 07-03-2014 16:15:00 14.6 C 6.26 g/m*3 14.6 C 4.8 km/h
414 07-03-2014 16:20:00 14.4 C 6.92 g/m*3 14.4 C 3.2 km/h
415 07-03-2014 16:25:00 14.2 C 6.11 g/m*3 14.2 C 6.4 km/h
416 07-03-2014 16:30:00 14.1 C 6.55 g/m*3 14.1 C 4.8 km/h
417 07-03-2014 16:35:00 13.9 C 6.71 g/m*3 13.9 C 3.2 km/h
418 07-03-2014 16:40:00 13.6 C 7.18 g/m*3 13.6 C 3.2 km/h
419 07-03-2014 16:45:00 13.2 C 7.35 g/m*3 13.2 C 3.2 km/h
420 07-03-2014 16:50:00 12.8 C 7.17 g/m*3 12.8 C 3.2 km/h
421 07-03-2014 16:55:00 12.5 C 7.26 g/m*3 12.5 C 3.2 km/h
422 07-03-2014 17:00:00 12.3 C 7.28 g/m*3 12.3 C 3.2 km/h
423 07-03-2014 17:05:00 12.1 C 7.18 g/m*3 12.1 C 3.2 km/h
424 07-03-2014 17:10:00 12 C 7.14 g/m*3 12 C 3.2 km/h
425 07-03-2014 17:15:00 11.9 C 7.1 g/m*3 11.9 C 3.2 km/h
Sensor: Nr:Datum:Temp:Abs-Feuchte:Windchill:Wind:
Aussen-T/F 426 07-03-2014 17:20:00 11.7 C 7.11 g/m*3 11.7 C 3.2 km/h
427 07-03-2014 17:25:00 11.6 C 7.17 g/m*3 11.6 C 4.8 km/h
428 07-03-2014 17:30:00 11.4 C 7.29 g/m*3 11.4 C 6.4 km/h
429 07-03-2014 17:35:00 11.2 C 7.2 g/m*3 11.2 C 4.8 km/h
430 07-03-2014 17:40:00 11 C 7.21 g/m*3 10.52 C 6.4 km/h
431 07-03-2014 17:45:00 10.7 C 7.07 g/m*3 10.7 C 4.8 km/h
432 07-03-2014 17:50:00 10.6 C 7.03 g/m*3 10.6 C 3.2 km/h
433 07-03-2014 17:55:00 10.4 C 7.04 g/m*3 10.4 C 4.8 km/h
434 07-03-2014 18:00:00 10.3 C 6.99 g/m*3 10.3 C 4.8 km/h
435 07-03-2014 18:05:00 10.2 C 6.95 g/m*3 10.2 C 4.8 km/h
436 07-03-2014 18:10:00 10.2 C 7.04 g/m*3 10.2 C 4.8 km/h
437 07-03-2014 18:15:00 10.1 C 7 g/m*3 10.1 C 4.8 km/h
438 07-03-2014 18:20:00 10.1 C 7 g/m*3 10.1 C 4.8 km/h
439 07-03-2014 18:25:00 9.9 C 6.91 g/m*3 9.25 C 6.4 km/h
440 07-03-2014 18:30:00 9.9 C 6.91 g/m*3 9.9 C 4.8 km/h
441 07-03-2014 18:35:00 9.9 C 6.91 g/m*3 9.9 C 3.2 km/h
442 07-03-2014 18:40:00 9.9 C 7 g/m*3 9.9 C 4.8 km/h
443 07-03-2014 18:45:00 9.9 C 6.63 g/m*3 9.9 C 4.8 km/h
444 07-03-2014 18:50:00 10.1 C 6.81 g/m*3 10.1 C 4.8 km/h
445 07-03-2014 18:55:00 9.9 C 6.72 g/m*3 9.25 C 6.4 km/h
446 07-03-2014 19:00:00 9.7 C 6.82 g/m*3 9.7 C 3.2 km/h
447 07-03-2014 19:05:00 9.6 C 6.87 g/m*3 9.6 C 3.2 km/h
448 07-03-2014 19:10:00 9.6 C 6.87 g/m*3 9.6 C 4.8 km/h
449 07-03-2014 19:30:00 8.9 C 6.66 g/m*3 8.9 C 4.8 km/h
450 07-03-2014 19:35:00 8.9 C 6.66 g/m*3 8.9 C 4.8 km/h
Sensor: Nr:Datum:Temp:Abs-Feuchte:Windchill:Wind:
Aussen-T/F 451 07-03-2014 19:40:00 9.1 C 6.74 g/m*3 9.1 C 4.8 km/h
452 07-03-2014 19:45:00 9.1 C 6.74 g/m*3 9.1 C 3.2 km/h
453 07-03-2014 19:50:00 8.9 C 6.75 g/m*3 8.9 C 3.2 km/h
454 07-03-2014 19:55:00 8.9 C 6.75 g/m*3 8.9 C 3.2 km/h
455 07-03-2014 20:00:00 8.8 C 6.61 g/m*3 8.8 C 4.8 km/h
456 07-03-2014 20:05:00 8.8 C 6.61 g/m*3 8.8 C 4.8 km/h
457 07-03-2014 20:10:00 8.7 C 6.66 g/m*3 8.7 C 3.2 km/h
458 07-03-2014 20:15:00 8.7 C 6.66 g/m*3 8.7 C 3.2 km/h
459 07-03-2014 20:20:00 8.7 C 6.66 g/m*3 8.7 C 4.8 km/h
460 07-03-2014 20:25:00 8.2 C 6.62 g/m*3 8.2 C 4.8 km/h
461 07-03-2014 20:30:00 8.2 C 6.53 g/m*3 8.2 C 3.2 km/h
462 07-03-2014 20:35:00 8.1 C 6.41 g/m*3 8.1 C 3.2 km/h
463 07-03-2014 20:40:00 8.1 C 6.49 g/m*3 8.1 C 1.6 km/h
464 07-03-2014 20:45:00 7.9 C 6.57 g/m*3 7.9 C 1.6 km/h
465 07-03-2014 20:50:00 7.8 C 6.45 g/m*3 6.83 C 6.4 km/h
466 07-03-2014 20:55:00 7.7 C 6.49 g/m*3 6.28 C 8.1 km/h
467 07-03-2014 21:00:00 7.7 C 6.41 g/m*3 6.28 C 8.1 km/h
468 07-03-2014 21:05:00 7.8 C 6.45 g/m*3 6.4 C 8.1 km/h
469 07-03-2014 21:10:00 7.8 C 6.45 g/m*3 6.83 C 6.4 km/h
470 07-03-2014 21:15:00 7.8 C 6.45 g/m*3 7.8 C 4.8 km/h
471 07-03-2014 21:20:00 7.8 C 6.53 g/m*3 6.4 C 8.1 km/h
472 07-03-2014 21:25:00 7.6 C 6.44 g/m*3 6.6 C 6.4 km/h
473 07-03-2014 21:30:00 7.3 C 6.4 g/m*3 6.25 C 6.4 km/h
474 07-03-2014 21:35:00 7.4 C 6.44 g/m*3 6.37 C 6.4 km/h
475 07-03-2014 21:40:00 7.7 C 6.57 g/m*3 6.71 C 6.4 km/h
Sensor: Nr:Datum:Temp:Abs-Feuchte:Windchill:Wind:
Aussen-T/F 476 07-03-2014 21:45:00 7.9 C 6.57 g/m*3 7.9 C 4.8 km/h
477 07-03-2014 21:50:00 8.1 C 6.66 g/m*3 8.1 C 4.8 km/h
478 07-03-2014 21:55:00 8.3 C 6.74 g/m*3 8.3 C 3.2 km/h
479 07-03-2014 22:00:00 8.3 C 6.66 g/m*3 8.3 C 4.8 km/h
480 07-03-2014 22:05:00 8.3 C 6.66 g/m*3 8.3 C 4.8 km/h
481 07-03-2014 22:10:00 8.1 C 6.57 g/m*3 8.1 C 4.8 km/h
482 07-03-2014 22:15:00 7.8 C 6.45 g/m*3 7.8 C 4.8 km/h
483 07-03-2014 22:20:00 7.7 C 6.49 g/m*3 6.71 C 6.4 km/h
484 07-03-2014 22:25:00 7.4 C 6.52 g/m*3 7.4 C 3.2 km/h
485 07-03-2014 22:30:00 7.2 C 6.52 g/m*3 6.13 C 6.4 km/h
486 07-03-2014 22:35:00 6.9 C 6.39 g/m*3 6.9 C 3.2 km/h
487 07-03-2014 22:40:00 6.8 C 6.35 g/m*3 6.8 C 1.6 km/h
488 07-03-2014 22:45:00 6.7 C 6.31 g/m*3 6.7 C 1.6 km/h
489 07-03-2014 22:50:00 6.5 C 6.3 g/m*3 6.5 C 0 km/h
490 07-03-2014 22:55:00 6.3 C 6.29 g/m*3 6.3 C 1.6 km/h
491 07-03-2014 23:00:00 6.2 C 6.25 g/m*3 6.2 C 0 km/h
492 07-03-2014 23:05:00 6.2 C 6.25 g/m*3 6.2 C 0 km/h
493 07-03-2014 23:10:00 5.9 C 6.13 g/m*3 5.9 C 0 km/h
494 07-03-2014 23:15:00 5.8 C 6.09 g/m*3 5.8 C 0 km/h
495 07-03-2014 23:20:00 5.6 C 6.01 g/m*3 5.6 C 0 km/h
496 07-03-2014 23:25:00 5.4 C 6 g/m*3 5.4 C 0 km/h
497 07-03-2014 23:30:00 5.3 C 6.03 g/m*3 5.3 C 1.6 km/h
498 07-03-2014 23:35:00 5.2 C 6.06 g/m*3 5.2 C 1.6 km/h
499 07-03-2014 23:40:00 5.2 C 5.99 g/m*3 5.2 C 1.6 km/h
500 07-03-2014 23:45:00 5.1 C 6.02 g/m*3 5.1 C 1.6 km/h
Sensor: Nr:Datum:Temp:Abs-Feuchte:Windchill:Wind:
Aussen-T/F 501 07-03-2014 23:50:00 4.9 C 5.94 g/m*3 4.9 C 0 km/h
502 07-03-2014 23:55:00 5.1 C 6.16 g/m*3 5.1 C 0 km/h
503 08-03-2014 00:00:00 5.2 C 6.13 g/m*3 5.2 C 3.2 km/h
504 08-03-2014 00:05:00 5.2 C 6.06 g/m*3 5.2 C 0 km/h
505 08-03-2014 00:10:00 5.3 C 6.03 g/m*3 5.3 C 0 km/h
506 08-03-2014 00:15:00 5.2 C 5.99 g/m*3 5.2 C 0 km/h
507 08-03-2014 00:20:00 5.1 C 5.95 g/m*3 5.1 C 0 km/h
508 08-03-2014 00:25:00 4.9 C 5.87 g/m*3 4.9 C 0 km/h
509 08-03-2014 00:30:00 4.7 C 5.8 g/m*3 4.7 C 0 km/h
510 08-03-2014 00:35:00 4.5 C 5.78 g/m*3 4.5 C 0 km/h
511 08-03-2014 00:40:00 4.4 C 5.81 g/m*3 4.4 C 0 km/h
512 08-03-2014 00:45:00 4.4 C 5.81 g/m*3 4.4 C 0 km/h
513 08-03-2014 00:50:00 4.4 C 5.81 g/m*3 4.4 C 1.6 km/h
514 08-03-2014 00:55:00 4.3 C 5.77 g/m*3 4.3 C 1.6 km/h
515 08-03-2014 01:00:00 4.3 C 5.84 g/m*3 4.3 C 0 km/h
516 08-03-2014 01:05:00 4.4 C 5.88 g/m*3 4.4 C 0 km/h
517 08-03-2014 01:10:00 4.4 C 5.88 g/m*3 4.4 C 1.6 km/h
518 08-03-2014 01:15:00 4.4 C 5.88 g/m*3 4.4 C 1.6 km/h
519 08-03-2014 01:20:00 4.5 C 5.85 g/m*3 4.5 C 1.6 km/h
520 08-03-2014 01:25:00 4.5 C 5.85 g/m*3 4.5 C 0 km/h
521 08-03-2014 01:30:00 4.4 C 5.88 g/m*3 4.4 C 1.6 km/h
522 08-03-2014 01:35:00 4.4 C 5.88 g/m*3 4.4 C 1.6 km/h
523 08-03-2014 01:40:00 4.4 C 5.88 g/m*3 4.4 C 0 km/h
524 08-03-2014 01:45:00 4.4 C 5.88 g/m*3 4.4 C 3.2 km/h
525 08-03-2014 01:50:00 4.4 C 5.81 g/m*3 2.9 C 6.4 km/h
Sensor: Nr:Datum:Temp:Abs-Feuchte:Windchill:Wind:
Aussen-T/F 526 08-03-2014 01:55:00 4.4 C 5.81 g/m*3 4.4 C 1.6 km/h
527 08-03-2014 02:00:00 4.4 C 5.81 g/m*3 4.4 C 1.6 km/h
528 08-03-2014 02:05:00 4.3 C 5.84 g/m*3 4.3 C 0 km/h
529 08-03-2014 02:10:00 4.3 C 5.84 g/m*3 4.3 C 0 km/h
530 08-03-2014 02:15:00 4.3 C 5.84 g/m*3 4.3 C 0 km/h
531 08-03-2014 02:20:00 4.3 C 5.84 g/m*3 4.3 C 3.2 km/h
532 08-03-2014 02:25:00 4.3 C 5.84 g/m*3 4.3 C 0 km/h
533 08-03-2014 02:30:00 4.4 C 5.88 g/m*3 4.4 C 0 km/h
534 08-03-2014 02:35:00 4.4 C 5.88 g/m*3 4.4 C 0 km/h
535 08-03-2014 02:40:00 4.4 C 5.88 g/m*3 4.4 C 0 km/h
536 08-03-2014 02:45:00 4.4 C 5.88 g/m*3 4.4 C 0 km/h
537 08-03-2014 02:50:00 4.4 C 5.88 g/m*3 4.4 C 1.6 km/h
538 08-03-2014 02:55:00 4.3 C 5.84 g/m*3 4.3 C 0 km/h
539 08-03-2014 03:00:00 4.2 C 5.8 g/m*3 4.2 C 0 km/h
540 08-03-2014 03:05:00 4.1 C 5.76 g/m*3 4.1 C 0 km/h
541 08-03-2014 03:10:00 4 C 5.72 g/m*3 4 C 0 km/h
542 08-03-2014 03:15:00 3.9 C 5.68 g/m*3 3.9 C 0 km/h
543 08-03-2014 03:20:00 3.7 C 5.61 g/m*3 3.7 C 0 km/h
544 08-03-2014 03:25:00 3.6 C 5.57 g/m*3 3.6 C 0 km/h
545 08-03-2014 03:30:00 3.4 C 5.56 g/m*3 3.4 C 0 km/h
546 08-03-2014 03:35:00 3.4 C 5.56 g/m*3 3.4 C 0 km/h
547 08-03-2014 03:40:00 3.4 C 5.56 g/m*3 3.4 C 0 km/h
548 08-03-2014 03:45:00 3.3 C 5.58 g/m*3 3.3 C 0 km/h
549 08-03-2014 03:50:00 3.3 C 5.58 g/m*3 3.3 C 0 km/h
550 08-03-2014 03:55:00 3.2 C 5.48 g/m*3 3.2 C 0 km/h
Sensor: Nr:Datum:Temp:Abs-Feuchte:Windchill:Wind:
Aussen-T/F 551 08-03-2014 04:00:00 3.2 C 5.54 g/m*3 3.2 C 1.6 km/h
552 08-03-2014 04:05:00 3.1 C 5.51 g/m*3 3.1 C 1.6 km/h
553 08-03-2014 04:10:00 3.1 C 5.51 g/m*3 3.1 C 1.6 km/h
554 08-03-2014 04:15:00 3.1 C 5.57 g/m*3 3.1 C 1.6 km/h
555 08-03-2014 04:20:00 3.2 C 5.6 g/m*3 3.2 C 1.6 km/h
556 08-03-2014 04:25:00 3.3 C 5.64 g/m*3 3.3 C 0 km/h
557 08-03-2014 04:30:00 3.2 C 5.54 g/m*3 3.2 C 0 km/h
558 08-03-2014 04:35:00 3 C 5.47 g/m*3 3 C 0 km/h
559 08-03-2014 04:40:00 2.8 C 5.4 g/m*3 2.8 C 0 km/h
560 08-03-2014 04:45:00 2.8 C 5.4 g/m*3 2.8 C 0 km/h
561 08-03-2014 04:50:00 2.7 C 5.42 g/m*3 2.7 C 0 km/h
562 08-03-2014 04:55:00 2.6 C 5.32 g/m*3 2.6 C 0 km/h
563 08-03-2014 05:00:00 2.4 C 5.31 g/m*3 2.4 C 0 km/h
564 08-03-2014 05:05:00 2.4 C 5.31 g/m*3 2.4 C 0 km/h
565 08-03-2014 05:10:00 2.3 C 5.27 g/m*3 2.3 C 0 km/h
566 08-03-2014 05:15:00 2.3 C 5.27 g/m*3 2.3 C 0 km/h
567 08-03-2014 05:20:00 2.3 C 5.33 g/m*3 2.3 C 0 km/h
568 08-03-2014 05:25:00 2.3 C 5.33 g/m*3 2.3 C 1.6 km/h
569 08-03-2014 05:30:00 2.3 C 5.33 g/m*3 2.3 C 0 km/h
570 08-03-2014 05:35:00 2.3 C 5.33 g/m*3 2.3 C 0 km/h
571 08-03-2014 05:40:00 2.3 C 5.33 g/m*3 2.3 C 0 km/h
572 08-03-2014 05:45:00 2.3 C 5.33 g/m*3 2.3 C 0 km/h
573 08-03-2014 05:50:00 2.2 C 5.29 g/m*3 2.2 C 0 km/h
574 08-03-2014 05:55:00 2.2 C 5.29 g/m*3 2.2 C 1.6 km/h
575 08-03-2014 06:00:00 2.2 C 5.29 g/m*3 2.2 C 0 km/h
Sensor: Nr:Datum:Temp:Abs-Feuchte:Windchill:Wind:
Aussen-T/F 576 08-03-2014 06:05:00 2.2 C 5.29 g/m*3 2.2 C 0 km/h
577 08-03-2014 06:10:00 2.1 C 5.26 g/m*3 2.1 C 0 km/h
578 08-03-2014 06:15:00 2.1 C 5.26 g/m*3 2.1 C 0 km/h
579 08-03-2014 06:20:00 2 C 5.22 g/m*3 2 C 0 km/h
580 08-03-2014 06:25:00 1.9 C 5.19 g/m*3 1.9 C 0 km/h
581 08-03-2014 06:30:00 1.9 C 5.19 g/m*3 1.9 C 0 km/h
582 08-03-2014 06:35:00 1.8 C 5.15 g/m*3 1.8 C 0 km/h
583 08-03-2014 06:40:00 1.8 C 5.15 g/m*3 1.8 C 0 km/h
584 08-03-2014 06:45:00 1.7 C 5.12 g/m*3 1.7 C 1.6 km/h
585 08-03-2014 06:50:00 1.7 C 5.17 g/m*3 1.7 C 1.6 km/h
586 08-03-2014 06:55:00 1.8 C 5.21 g/m*3 1.8 C 0 km/h
587 08-03-2014 07:00:00 1.8 C 5.21 g/m*3 1.8 C 0 km/h
588 08-03-2014 07:05:00 1.8 C 5.21 g/m*3 1.8 C 0 km/h
589 08-03-2014 07:10:00 1.8 C 5.21 g/m*3 1.8 C 1.6 km/h
590 08-03-2014 07:15:00 1.7 C 5.17 g/m*3 1.7 C 1.6 km/h
591 08-03-2014 07:20:00 1.8 C 5.21 g/m*3 1.8 C 0 km/h
592 08-03-2014 07:25:00 1.8 C 5.21 g/m*3 1.8 C 0 km/h
593 08-03-2014 07:30:00 1.7 C 5.17 g/m*3 1.7 C 0 km/h
594 08-03-2014 07:35:00 1.7 C 5.17 g/m*3 1.7 C 0 km/h
595 08-03-2014 07:40:00 1.6 C 5.14 g/m*3 1.6 C 0 km/h
596 08-03-2014 07:45:00 1.6 C 5.14 g/m*3 1.6 C 0 km/h
597 08-03-2014 07:50:00 1.6 C 5.14 g/m*3 1.6 C 0 km/h
598 08-03-2014 07:55:00 1.6 C 5.14 g/m*3 1.6 C 1.6 km/h
599 08-03-2014 08:00:00 1.6 C 5.14 g/m*3 1.6 C 0 km/h
600 08-03-2014 08:05:00 1.7 C 5.17 g/m*3 1.7 C 3.2 km/h
Sensor: Nr:Datum:Temp:Abs-Feuchte:Windchill:Wind:
Aussen-T/F 601 08-03-2014 08:10:00 1.7 C 5.17 g/m*3 1.7 C 1.6 km/h
602 08-03-2014 08:15:00 1.8 C 5.21 g/m*3 1.8 C 0 km/h
603 08-03-2014 08:20:00 1.8 C 5.21 g/m*3 1.8 C 0 km/h
604 08-03-2014 08:25:00 1.8 C 5.21 g/m*3 1.8 C 0 km/h
605 08-03-2014 08:30:00 1.9 C 5.24 g/m*3 1.9 C 0 km/h
606 08-03-2014 08:35:00 1.9 C 5.24 g/m*3 1.9 C 0 km/h
607 08-03-2014 08:40:00 2 C 5.28 g/m*3 2 C 0 km/h
608 08-03-2014 08:45:00 2.1 C 5.31 g/m*3 2.1 C 3.2 km/h
609 08-03-2014 08:50:00 2.2 C 5.41 g/m*3 2.2 C 0 km/h
610 08-03-2014 08:55:00 2.2 C 5.41 g/m*3 2.2 C 0 km/h
611 08-03-2014 09:00:00 2.5 C 5.52 g/m*3 2.5 C 0 km/h
612 08-03-2014 09:05:00 2.5 C 5.52 g/m*3 2.5 C 0 km/h
613 08-03-2014 09:10:00 2.5 C 5.52 g/m*3 2.5 C 0 km/h
614 08-03-2014 09:15:00 2.8 C 5.57 g/m*3 2.8 C 0 km/h
615 08-03-2014 09:20:00 2.8 C 5.57 g/m*3 2.8 C 0 km/h
616 08-03-2014 09:25:00 2.9 C 5.67 g/m*3 2.9 C 0 km/h
617 08-03-2014 09:30:00 3.1 C 5.69 g/m*3 3.1 C 0 km/h
618 08-03-2014 09:35:00 3.2 C 5.72 g/m*3 3.2 C 0 km/h
619 08-03-2014 09:40:00 3.4 C 5.86 g/m*3 3.4 C 0 km/h
620 08-03-2014 09:45:00 3.6 C 5.94 g/m*3 3.6 C 0 km/h
621 08-03-2014 09:50:00 3.8 C 6.02 g/m*3 3.8 C 0 km/h
622 08-03-2014 09:55:00 4 C 6.1 g/m*3 4 C 0 km/h
623 08-03-2014 10:00:00 4.3 C 6.16 g/m*3 4.3 C 0 km/h
624 08-03-2014 10:05:00 4.4 C 6.2 g/m*3 4.4 C 0 km/h
625 08-03-2014 10:10:00 4.4 C 6.2 g/m*3 4.4 C 0 km/h
Sensor: Nr:Datum:Temp:Abs-Feuchte:Windchill:Wind:
Aussen-T/F 626 08-03-2014 10:15:00 5.1 C 6.5 g/m*3 5.1 C 0 km/h
627 08-03-2014 10:20:00 5.3 C 6.58 g/m*3 5.3 C 0 km/h
628 08-03-2014 10:25:00 5.6 C 6.65 g/m*3 5.6 C 0 km/h
629 08-03-2014 10:30:00 5.7 C 6.62 g/m*3 5.7 C 1.6 km/h
630 08-03-2014 10:35:00 6.1 C 6.72 g/m*3 6.1 C 1.6 km/h
631 08-03-2014 10:40:00 6.3 C 6.81 g/m*3 6.3 C 1.6 km/h
632 08-03-2014 10:45:00 6.4 C 6.85 g/m*3 6.4 C 0 km/h
633 08-03-2014 10:50:00 6.4 C 6.85 g/m*3 6.4 C 0 km/h
634 08-03-2014 11:30:00 8.9 C 7.45 g/m*3 8.9 C 0 km/h
635 08-03-2014 11:35:00 9.2 C 7.59 g/m*3 9.2 C 1.6 km/h
636 08-03-2014 11:40:00 9.4 C 7.69 g/m*3 9.4 C 0 km/h
637 08-03-2014 11:45:00 9.7 C 7.74 g/m*3 9.7 C 3.2 km/h
638 08-03-2014 11:50:00 10 C 7.89 g/m*3 10 C 3.2 km/h
639 08-03-2014 11:55:00 10.8 C 7.71 g/m*3 10.8 C 4.8 km/h
640 08-03-2014 12:00:00 11.4 C 8.01 g/m*3 11.4 C 3.2 km/h
641 08-03-2014 12:05:00 11.9 C 7.73 g/m*3 11.9 C 11.3 km/h
642 08-03-2014 12:10:00 12.6 C 7.52 g/m*3 12.6 C 9.7 km/h
643 08-03-2014 12:15:00 13.1 C 7.65 g/m*3 13.1 C 4.8 km/h
644 08-03-2014 12:20:00 13.4 C 7.32 g/m*3 13.4 C 11.3 km/h
645 08-03-2014 12:25:00 13.7 C 7.82 g/m*3 13.7 C 4.8 km/h
646 08-03-2014 12:30:00 14.1 C 7.65 g/m*3 14.1 C 8.1 km/h
647 08-03-2014 12:35:00 14.4 C 7.54 g/m*3 14.4 C 8.1 km/h
648 08-03-2014 12:40:00 14.7 C 7.68 g/m*3 14.7 C 11.3 km/h
649 08-03-2014 12:45:00 14.9 C 7.65 g/m*3 14.9 C 6.4 km/h
650 08-03-2014 12:50:00 15.3 C 7.44 g/m*3 15.3 C 8.1 km/h
Sensor: Nr:Datum:Temp:Abs-Feuchte:Windchill:Wind:
Aussen-T/F 651 08-03-2014 12:55:00 15.4 C 7.75 g/m*3 15.4 C 4.8 km/h
652 08-03-2014 13:00:00 15.4 C 7.36 g/m*3 15.4 C 6.4 km/h
653 08-03-2014 13:05:00 15.5 C 7.27 g/m*3 15.5 C 6.4 km/h
654 08-03-2014 13:10:00 15.7 C 7.36 g/m*3 15.7 C 4.8 km/h
655 08-03-2014 13:15:00 15.8 C 7.4 g/m*3 15.8 C 3.2 km/h
656 08-03-2014 13:20:00 15.6 C 6.92 g/m*3 15.6 C 12.9 km/h
657 08-03-2014 13:25:00 15.4 C 6.83 g/m*3 15.4 C 9.7 km/h
658 08-03-2014 13:30:00 15.4 C 7.23 g/m*3 15.4 C 8.1 km/h
659 08-03-2014 13:35:00 15.4 C 6.83 g/m*3 15.4 C 6.4 km/h
660 08-03-2014 13:40:00 15.4 C 7.09 g/m*3 15.4 C 8.1 km/h
661 08-03-2014 13:45:00 15.3 C 6.92 g/m*3 15.3 C 16.1 km/h
662 08-03-2014 13:50:00 15.3 C 7.05 g/m*3 15.3 C 11.3 km/h
663 08-03-2014 13:55:00 15.3 C 6.92 g/m*3 15.3 C 6.4 km/h
664 08-03-2014 14:00:00 15.4 C 6.83 g/m*3 15.4 C 9.7 km/h
665 08-03-2014 14:05:00 15.5 C 7.14 g/m*3 15.5 C 8.1 km/h
666 08-03-2014 14:10:00 15.7 C 7.09 g/m*3 15.7 C 11.3 km/h
667 08-03-2014 14:15:00 15.8 C 6.87 g/m*3 15.8 C 3.2 km/h
668 08-03-2014 14:20:00 15.9 C 6.91 g/m*3 15.9 C 6.4 km/h
669 08-03-2014 14:25:00 15.9 C 6.77 g/m*3 15.9 C 6.4 km/h
670 08-03-2014 14:30:00 15.9 C 6.91 g/m*3 15.9 C 8.1 km/h
671 08-03-2014 14:35:00 15.9 C 6.64 g/m*3 15.9 C 12.9 km/h
672 08-03-2014 14:40:00 15.8 C 6.73 g/m*3 15.8 C 11.3 km/h
673 08-03-2014 14:45:00 15.9 C 7.04 g/m*3 15.9 C 8.1 km/h
674 08-03-2014 14:50:00 15.9 C 7.04 g/m*3 15.9 C 9.7 km/h
675 08-03-2014 14:55:00 16 C 7.08 g/m*3 16 C 6.4 km/h
Sensor: Nr:Datum:Temp:Abs-Feuchte:Windchill:Wind:
Aussen-T/F 676 08-03-2014 15:00:00 16.2 C 6.9 g/m*3 16.2 C 11.3 km/h
677 08-03-2014 15:05:00 16.1 C 7.13 g/m*3 16.1 C 14.5 km/h
678 08-03-2014 15:10:00 16.2 C 7.03 g/m*3 16.2 C 4.8 km/h
679 08-03-2014 15:15:00 16.2 C 6.9 g/m*3 16.2 C 8.1 km/h
680 08-03-2014 15:20:00 16.3 C 7.08 g/m*3 16.3 C 4.8 km/h
681 08-03-2014 15:25:00 16.2 C 6.76 g/m*3 16.2 C 9.7 km/h
682 08-03-2014 15:30:00 16.1 C 6.85 g/m*3 16.1 C 6.4 km/h
683 08-03-2014 15:35:00 16.2 C 6.76 g/m*3 16.2 C 9.7 km/h
684 08-03-2014 15:40:00 16.2 C 6.76 g/m*3 16.2 C 8.1 km/h
685 08-03-2014 15:45:00 16.2 C 6.9 g/m*3 16.2 C 9.7 km/h
686 08-03-2014 15:50:00 16.2 C 6.62 g/m*3 16.2 C 8.1 km/h
687 08-03-2014 15:55:00 16.1 C 6.85 g/m*3 16.1 C 6.4 km/h
688 08-03-2014 16:00:00 15.9 C 6.91 g/m*3 15.9 C 8.1 km/h
689 08-03-2014 16:05:00 15.8 C 6.73 g/m*3 15.8 C 6.4 km/h
690 08-03-2014 16:10:00 15.8 C 6.73 g/m*3 15.8 C 9.7 km/h
691 08-03-2014 16:15:00 15.7 C 6.69 g/m*3 15.7 C 11.3 km/h
692 08-03-2014 16:20:00 15.6 C 6.52 g/m*3 15.6 C 8.1 km/h
693 08-03-2014 16:25:00 15.5 C 6.61 g/m*3 15.5 C 9.7 km/h
694 08-03-2014 16:30:00 15.4 C 6.57 g/m*3 15.4 C 3.2 km/h
695 08-03-2014 16:35:00 15.4 C 6.57 g/m*3 15.4 C 6.4 km/h
696 08-03-2014 16:40:00 15.3 C 6.92 g/m*3 15.3 C 3.2 km/h
697 08-03-2014 16:45:00 15 C 6.54 g/m*3 15 C 6.4 km/h
698 08-03-2014 16:50:00 14.8 C 6.84 g/m*3 14.8 C 4.8 km/h
699 08-03-2014 16:55:00 14.7 C 6.55 g/m*3 14.7 C 4.8 km/h
700 08-03-2014 17:00:00 14.7 C 7.3 g/m*3 14.7 C 3.2 km/h
Sensor: Nr:Datum:Temp:Abs-Feuchte:Windchill:Wind:
Aussen-T/F 701 08-03-2014 17:05:00 14.6 C 6.51 g/m*3 14.6 C 12.9 km/h
702 08-03-2014 17:10:00 14.7 C 6.55 g/m*3 14.7 C 12.9 km/h
703 08-03-2014 17:15:00 14.7 C 7.05 g/m*3 14.7 C 6.4 km/h
704 08-03-2014 17:20:00 14.6 C 6.88 g/m*3 14.6 C 8.1 km/h
705 08-03-2014 17:25:00 14.3 C 7 g/m*3 14.3 C 6.4 km/h
706 08-03-2014 17:30:00 14.1 C 7.04 g/m*3 14.1 C 4.8 km/h
707 08-03-2014 17:35:00 13.9 C 6.59 g/m*3 13.9 C 11.3 km/h
708 08-03-2014 17:40:00 14 C 7.36 g/m*3 14 C 3.2 km/h
709 08-03-2014 17:45:00 13.5 C 7.25 g/m*3 13.5 C 3.2 km/h
710 08-03-2014 17:50:00 12.9 C 7.33 g/m*3 12.9 C 3.2 km/h
711 08-03-2014 17:55:00 12.3 C 7.17 g/m*3 12.3 C 3.2 km/h
712 08-03-2014 18:00:00 11.8 C 7.16 g/m*3 11.8 C 4.8 km/h
713 08-03-2014 18:05:00 11.3 C 7.04 g/m*3 11.3 C 3.2 km/h
714 08-03-2014 18:10:00 11.1 C 7.05 g/m*3 11.1 C 6.4 km/h
715 08-03-2014 18:15:00 10.8 C 7.02 g/m*3 10.29 C 6.4 km/h
716 08-03-2014 18:20:00 10.5 C 6.89 g/m*3 10.5 C 4.8 km/h
717 08-03-2014 18:25:00 10.3 C 6.9 g/m*3 9.72 C 6.4 km/h
718 08-03-2014 18:30:00 10 C 6.86 g/m*3 9.37 C 6.4 km/h
719 08-03-2014 18:35:00 9.8 C 6.77 g/m*3 9.8 C 4.8 km/h
720 08-03-2014 18:40:00 9.6 C 6.78 g/m*3 8.91 C 6.4 km/h
721 08-03-2014 18:45:00 9.4 C 6.78 g/m*3 8.68 C 6.4 km/h
722 08-03-2014 18:50:00 9.3 C 6.74 g/m*3 8.16 C 8.1 km/h
723 08-03-2014 18:55:00 9.2 C 6.7 g/m*3 8.05 C 8.1 km/h
724 08-03-2014 19:00:00 9.1 C 6.74 g/m*3 9.1 C 4.8 km/h
725 08-03-2014 19:05:00 9 C 6.7 g/m*3 8.21 C 6.4 km/h
Sensor: Nr:Datum:Temp:Abs-Feuchte:Windchill:Wind:
Aussen-T/F 726 08-03-2014 19:10:00 8.8 C 6.7 g/m*3 7.58 C 8.1 km/h
727 08-03-2014 19:15:00 8.8 C 6.79 g/m*3 7.98 C 6.4 km/h
728 08-03-2014 19:20:00 8.6 C 6.62 g/m*3 7.75 C 6.4 km/h
729 08-03-2014 19:25:00 8.6 C 6.62 g/m*3 7.75 C 6.4 km/h
730 08-03-2014 19:30:00 8.6 C 6.62 g/m*3 8.6 C 4.8 km/h
731 08-03-2014 19:35:00 8.6 C 6.7 g/m*3 7.75 C 6.4 km/h
732 08-03-2014 19:40:00 8.4 C 6.62 g/m*3 7.52 C 6.4 km/h
733 08-03-2014 19:45:00 8.3 C 6.66 g/m*3 8.3 C 4.8 km/h
734 08-03-2014 19:50:00 8.2 C 6.62 g/m*3 8.2 C 4.8 km/h
735 08-03-2014 19:55:00 8 C 6.61 g/m*3 8 C 4.8 km/h
736 08-03-2014 20:00:00 7.8 C 6.53 g/m*3 7.8 C 4.8 km/h
737 08-03-2014 20:05:00 7.7 C 6.57 g/m*3 7.7 C 4.8 km/h
738 08-03-2014 20:10:00 7.5 C 6.56 g/m*3 7.5 C 4.8 km/h
739 08-03-2014 20:15:00 7.3 C 6.48 g/m*3 7.3 C 4.8 km/h
740 08-03-2014 20:20:00 7.3 C 6.48 g/m*3 7.3 C 3.2 km/h
741 08-03-2014 20:25:00 7.2 C 6.59 g/m*3 7.2 C 3.2 km/h
742 08-03-2014 20:30:00 7.1 C 6.55 g/m*3 7.1 C 3.2 km/h
743 08-03-2014 20:35:00 6.9 C 6.47 g/m*3 6.9 C 3.2 km/h
744 08-03-2014 20:40:00 6.9 C 6.47 g/m*3 6.9 C 3.2 km/h
745 08-03-2014 20:45:00 6.9 C 6.47 g/m*3 6.9 C 3.2 km/h
746 08-03-2014 20:50:00 6.9 C 6.47 g/m*3 6.9 C 3.2 km/h
747 08-03-2014 20:55:00 6.7 C 6.38 g/m*3 6.7 C 0 km/h
748 08-03-2014 21:00:00 6.6 C 6.42 g/m*3 6.6 C 1.6 km/h
749 08-03-2014 21:05:00 6.4 C 6.33 g/m*3 6.4 C 1.6 km/h
750 08-03-2014 21:10:00 6.3 C 6.29 g/m*3 6.3 C 3.2 km/h
Sensor: Nr:Datum:Temp:Abs-Feuchte:Windchill:Wind:
Aussen-T/F 751 08-03-2014 21:15:00 6.3 C 6.37 g/m*3 6.3 C 0 km/h
752 08-03-2014 21:20:00 6.2 C 6.25 g/m*3 6.2 C 1.6 km/h
753 08-03-2014 21:25:00 6.2 C 6.32 g/m*3 6.2 C 0 km/h
754 08-03-2014 21:30:00 6.2 C 6.32 g/m*3 6.2 C 0 km/h
755 08-03-2014 21:35:00 6.1 C 6.21 g/m*3 6.1 C 0 km/h
756 08-03-2014 21:40:00 5.9 C 6.13 g/m*3 5.9 C 0 km/h
757 08-03-2014 21:45:00 5.8 C 6.09 g/m*3 5.8 C 0 km/h
758 08-03-2014 21:50:00 5.7 C 6.12 g/m*3 5.7 C 0 km/h
759 08-03-2014 21:55:00 5.6 C 6.08 g/m*3 5.6 C 0 km/h
760 08-03-2014 22:00:00 5.4 C 6.07 g/m*3 5.4 C 0 km/h
761 08-03-2014 22:05:00 5.4 C 6.07 g/m*3 5.4 C 0 km/h
762 08-03-2014 22:10:00 5.3 C 6.03 g/m*3 5.3 C 0 km/h
763 08-03-2014 22:15:00 5.3 C 6.03 g/m*3 5.3 C 0 km/h
764 08-03-2014 22:20:00 5.2 C 5.99 g/m*3 5.2 C 0 km/h
765 08-03-2014 22:25:00 5.2 C 6.06 g/m*3 5.2 C 0 km/h
766 08-03-2014 22:30:00 5.1 C 5.95 g/m*3 5.1 C 0 km/h
767 08-03-2014 22:35:00 5.1 C 5.95 g/m*3 5.1 C 0 km/h
768 08-03-2014 22:40:00 5.1 C 5.95 g/m*3 5.1 C 0 km/h
769 08-03-2014 22:45:00 4.8 C 5.83 g/m*3 4.8 C 0 km/h
770 08-03-2014 22:50:00 4.8 C 5.83 g/m*3 4.8 C 0 km/h
771 08-03-2014 22:55:00 4.7 C 5.8 g/m*3 4.7 C 0 km/h
772 08-03-2014 23:00:00 4.7 C 5.8 g/m*3 4.7 C 0 km/h
773 08-03-2014 23:05:00 4.6 C 5.82 g/m*3 4.6 C 0 km/h
774 08-03-2014 23:10:00 4.6 C 5.82 g/m*3 4.6 C 1.6 km/h
775 08-03-2014 23:15:00 4.4 C 5.75 g/m*3 4.4 C 0 km/h
Sensor: Nr:Datum:Temp:Abs-Feuchte:Windchill:Wind:
Aussen-T/F 776 08-03-2014 23:20:00 4.3 C 5.71 g/m*3 4.3 C 0 km/h
777 08-03-2014 23:25:00 4.1 C 5.63 g/m*3 4.1 C 0 km/h
778 08-03-2014 23:30:00 3.9 C 5.56 g/m*3 3.9 C 0 km/h
779 08-03-2014 23:35:00 3.8 C 5.58 g/m*3 3.8 C 0 km/h
780 08-03-2014 23:40:00 3.8 C 5.65 g/m*3 3.8 C 0 km/h
781 08-03-2014 23:45:00 3.8 C 5.65 g/m*3 3.8 C 0 km/h
782 08-03-2014 23:50:00 3.7 C 5.55 g/m*3 3.7 C 0 km/h
783 08-03-2014 23:55:00 3.6 C 5.51 g/m*3 3.6 C 0 km/h
784 09-03-2014 00:00:00 3.5 C 5.53 g/m*3 3.5 C 0 km/h
785 09-03-2014 00:05:00 3.5 C 5.53 g/m*3 3.5 C 0 km/h
786 09-03-2014 00:10:00 3.5 C 5.53 g/m*3 3.5 C 0 km/h
787 09-03-2014 00:15:00 3.4 C 5.5 g/m*3 3.4 C 0 km/h
788 09-03-2014 00:20:00 3.4 C 5.5 g/m*3 3.4 C 0 km/h
789 09-03-2014 00:25:00 3.3 C 5.46 g/m*3 3.3 C 0 km/h
790 09-03-2014 00:30:00 3.2 C 5.42 g/m*3 3.2 C 0 km/h
791 09-03-2014 00:35:00 3.2 C 5.48 g/m*3 3.2 C 0 km/h
792 09-03-2014 00:40:00 3.1 C 5.45 g/m*3 3.1 C 0 km/h
793 09-03-2014 00:45:00 3 C 5.41 g/m*3 3 C 0 km/h
794 09-03-2014 00:50:00 2.9 C 5.37 g/m*3 2.9 C 0 km/h
795 09-03-2014 00:55:00 2.9 C 5.37 g/m*3 2.9 C 0 km/h
796 09-03-2014 01:00:00 2.8 C 5.34 g/m*3 2.8 C 0 km/h
797 09-03-2014 01:05:00 2.8 C 5.4 g/m*3 2.8 C 0 km/h
798 09-03-2014 01:10:00 2.8 C 5.4 g/m*3 2.8 C 0 km/h
799 09-03-2014 01:15:00 2.8 C 5.4 g/m*3 2.8 C 0 km/h
800 09-03-2014 01:20:00 2.8 C 5.4 g/m*3 2.8 C 0 km/h
Sensor: Nr:Datum:Temp:Abs-Feuchte:Windchill:Wind:
Aussen-T/F 801 09-03-2014 01:25:00 2.7 C 5.36 g/m*3 2.7 C 0 km/h
802 09-03-2014 01:30:00 2.7 C 5.36 g/m*3 2.7 C 0 km/h
803 09-03-2014 01:35:00 2.6 C 5.32 g/m*3 2.6 C 0 km/h
804 09-03-2014 01:40:00 2.6 C 5.32 g/m*3 2.6 C 0 km/h
805 09-03-2014 01:45:00 2.5 C 5.29 g/m*3 2.5 C 0 km/h
806 09-03-2014 01:50:00 2.4 C 5.25 g/m*3 2.4 C 0 km/h
807 09-03-2014 01:55:00 2.3 C 5.27 g/m*3 2.3 C 0 km/h
808 09-03-2014 02:00:00 2.3 C 5.27 g/m*3 2.3 C 0 km/h
809 09-03-2014 02:05:00 2.2 C 5.24 g/m*3 2.2 C 0 km/h
810 09-03-2014 02:10:00 2.2 C 5.24 g/m*3 2.2 C 0 km/h
811 09-03-2014 02:15:00 2.1 C 5.2 g/m*3 2.1 C 0 km/h
812 09-03-2014 02:20:00 2.1 C 5.2 g/m*3 2.1 C 0 km/h
813 09-03-2014 02:25:00 2 C 5.17 g/m*3 2 C 0 km/h
814 09-03-2014 02:30:00 2 C 5.17 g/m*3 2 C 0 km/h
815 09-03-2014 02:35:00 1.9 C 5.19 g/m*3 1.9 C 0 km/h
816 09-03-2014 02:40:00 1.9 C 5.19 g/m*3 1.9 C 0 km/h
817 09-03-2014 02:45:00 1.9 C 5.19 g/m*3 1.9 C 0 km/h
818 09-03-2014 02:50:00 1.9 C 5.19 g/m*3 1.9 C 0 km/h
819 09-03-2014 02:55:00 1.9 C 5.19 g/m*3 1.9 C 0 km/h
820 09-03-2014 03:00:00 1.9 C 5.19 g/m*3 1.9 C 0 km/h
821 09-03-2014 03:05:00 1.8 C 5.15 g/m*3 1.8 C 0 km/h
822 09-03-2014 03:10:00 1.8 C 5.15 g/m*3 1.8 C 0 km/h
823 09-03-2014 03:15:00 1.8 C 5.15 g/m*3 1.8 C 0 km/h
824 09-03-2014 03:20:00 1.8 C 5.15 g/m*3 1.8 C 0 km/h
825 09-03-2014 03:25:00 1.7 C 5.12 g/m*3 1.7 C 0 km/h
Sensor: Nr:Datum:Temp:Abs-Feuchte:Windchill:Wind:
Aussen-T/F 826 09-03-2014 03:30:00 1.6 C 5.08 g/m*3 1.6 C 0 km/h
827 09-03-2014 03:35:00 1.6 C 5.08 g/m*3 1.6 C 0 km/h
828 09-03-2014 03:40:00 1.6 C 5.08 g/m*3 1.6 C 0 km/h
829 09-03-2014 03:45:00 1.5 C 5.05 g/m*3 1.5 C 0 km/h
830 09-03-2014 03:50:00 1.5 C 5.05 g/m*3 1.5 C 0 km/h
831 09-03-2014 03:55:00 1.4 C 5.01 g/m*3 1.4 C 0 km/h
832 09-03-2014 04:00:00 1.4 C 5.01 g/m*3 1.4 C 0 km/h
833 09-03-2014 04:05:00 1.3 C 4.98 g/m*3 1.3 C 0 km/h
834 09-03-2014 04:10:00 1.3 C 4.98 g/m*3 1.3 C 0 km/h
835 09-03-2014 04:15:00 1.3 C 4.98 g/m*3 1.3 C 0 km/h
836 09-03-2014 04:20:00 1.2 C 4.95 g/m*3 1.2 C 0 km/h
837 09-03-2014 04:25:00 1.2 C 5 g/m*3 1.2 C 0 km/h
838 09-03-2014 04:30:00 1.2 C 5 g/m*3 1.2 C 0 km/h
839 09-03-2014 04:35:00 1.1 C 4.96 g/m*3 1.1 C 0 km/h
840 09-03-2014 04:40:00 1.2 C 5 g/m*3 1.2 C 0 km/h
841 09-03-2014 04:45:00 1.2 C 5 g/m*3 1.2 C 0 km/h
842 09-03-2014 04:50:00 1.2 C 5 g/m*3 1.2 C 0 km/h
843 09-03-2014 04:55:00 1.2 C 5 g/m*3 1.2 C 0 km/h
844 09-03-2014 05:00:00 1.2 C 5 g/m*3 1.2 C 0 km/h
845 09-03-2014 05:05:00 1.1 C 4.96 g/m*3 1.1 C 0 km/h
846 09-03-2014 05:10:00 1.1 C 4.96 g/m*3 1.1 C 0 km/h
847 09-03-2014 05:15:00 1.1 C 4.96 g/m*3 1.1 C 0 km/h
848 09-03-2014 05:20:00 1 C 4.93 g/m*3 1 C 0 km/h
849 09-03-2014 05:25:00 0.9 C 4.9 g/m*3 0.9 C 0 km/h
850 09-03-2014 05:30:00 0.9 C 4.9 g/m*3 0.9 C 0 km/h
Sensor: Nr:Datum:Temp:Abs-Feuchte:Windchill:Wind:
Aussen-T/F 851 09-03-2014 05:35:00 0.8 C 4.86 g/m*3 0.8 C 0 km/h
852 09-03-2014 05:40:00 0.8 C 4.86 g/m*3 0.8 C 0 km/h
853 09-03-2014 05:45:00 0.7 C 4.83 g/m*3 0.7 C 0 km/h
854 09-03-2014 05:50:00 0.7 C 4.83 g/m*3 0.7 C 0 km/h
855 09-03-2014 05:55:00 0.6 C 4.8 g/m*3 0.6 C 0 km/h
856 09-03-2014 06:00:00 0.6 C 4.8 g/m*3 0.6 C 0 km/h
857 09-03-2014 06:05:00 0.5 C 4.76 g/m*3 0.5 C 0 km/h
858 09-03-2014 06:10:00 0.4 C 4.73 g/m*3 0.4 C 0 km/h
859 09-03-2014 06:15:00 0.4 C 4.73 g/m*3 0.4 C 0 km/h
860 09-03-2014 06:20:00 0.3 C 4.7 g/m*3 0.3 C 0 km/h
861 09-03-2014 06:25:00 0.3 C 4.7 g/m*3 0.3 C 0 km/h
862 09-03-2014 06:30:00 0.3 C 4.7 g/m*3 0.3 C 0 km/h
863 09-03-2014 06:35:00 0.2 C 4.67 g/m*3 0.2 C 0 km/h
864 09-03-2014 06:40:00 0.2 C 4.67 g/m*3 0.2 C 0 km/h
865 09-03-2014 06:45:00 0.1 C 4.63 g/m*3 0.1 C 0 km/h
866 09-03-2014 06:50:00 0.1 C 4.63 g/m*3 0.1 C 0 km/h
867 09-03-2014 06:55:00 0.1 C 4.68 g/m*3 0.1 C 0 km/h
868 09-03-2014 07:00:00 0.1 C 4.68 g/m*3 0.1 C 0 km/h
869 09-03-2014 07:05:00 0.1 C 4.68 g/m*3 0.1 C 0 km/h
870 09-03-2014 07:10:00 0.1 C 4.68 g/m*3 0.1 C 0 km/h
871 09-03-2014 07:15:00 0.1 C 4.68 g/m*3 0.1 C 0 km/h
872 09-03-2014 07:20:00 0.1 C 4.68 g/m*3 0.1 C 0 km/h
873 09-03-2014 07:25:00 0.1 C 4.68 g/m*3 0.1 C 0 km/h
874 09-03-2014 07:30:00 0.1 C 4.68 g/m*3 0.1 C 0 km/h
875 09-03-2014 07:35:00 0.1 C 4.68 g/m*3 0.1 C 0 km/h
Sensor: Nr:Datum:Temp:Abs-Feuchte:Windchill:Wind:
Aussen-T/F 876 09-03-2014 07:40:00 0.1 C 4.68 g/m*3 0.1 C 0 km/h
877 09-03-2014 07:45:00 0.1 C 4.68 g/m*3 0.1 C 0 km/h
878 09-03-2014 07:50:00 0.1 C 4.68 g/m*3 0.1 C 0 km/h
879 09-03-2014 07:55:00 0.1 C 4.68 g/m*3 0.1 C 0 km/h
880 09-03-2014 08:00:00 0.1 C 4.68 g/m*3 0.1 C 0 km/h
881 09-03-2014 08:05:00 0.1 C 4.68 g/m*3 0.1 C 0 km/h
882 09-03-2014 08:10:00 0.1 C 4.68 g/m*3 0.1 C 1.6 km/h
883 09-03-2014 08:15:00 0.2 C 4.72 g/m*3 0.2 C 0 km/h
884 09-03-2014 08:20:00 0.2 C 4.72 g/m*3 0.2 C 0 km/h
885 09-03-2014 08:25:00 0.2 C 4.72 g/m*3 0.2 C 0 km/h
886 09-03-2014 08:30:00 0.2 C 4.72 g/m*3 0.2 C 0 km/h
887 09-03-2014 08:35:00 0.2 C 4.72 g/m*3 0.2 C 0 km/h
888 09-03-2014 08:40:00 0.2 C 4.72 g/m*3 0.2 C 0 km/h
889 09-03-2014 08:45:00 0.2 C 4.72 g/m*3 0.2 C 0 km/h
890 09-03-2014 08:50:00 0.2 C 4.72 g/m*3 0.2 C 0 km/h
891 09-03-2014 08:55:00 0.2 C 4.72 g/m*3 0.2 C 0 km/h
892 09-03-2014 09:00:00 0.3 C 4.75 g/m*3 0.3 C 0 km/h
893 09-03-2014 09:05:00 0.4 C 4.78 g/m*3 0.4 C 0 km/h
894 09-03-2014 09:10:00 0.5 C 4.81 g/m*3 0.5 C 0 km/h
895 09-03-2014 09:15:00 0.6 C 4.9 g/m*3 0.6 C 0 km/h
896 09-03-2014 09:20:00 0.7 C 4.93 g/m*3 0.7 C 0 km/h
897 09-03-2014 09:25:00 0.8 C 4.97 g/m*3 0.8 C 0 km/h
898 09-03-2014 09:30:00 0.9 C 5 g/m*3 0.9 C 0 km/h
899 09-03-2014 09:35:00 1 C 5.03 g/m*3 1 C 1.6 km/h
900 09-03-2014 09:40:00 1.2 C 5.1 g/m*3 1.2 C 0 km/h
Sensor: Nr:Datum:Temp:Abs-Feuchte:Windchill:Wind:
Aussen-T/F 901 09-03-2014 09:45:00 1.4 C 5.17 g/m*3 1.4 C 0 km/h
902 09-03-2014 09:50:00 1.7 C 5.28 g/m*3 1.7 C 0 km/h
903 09-03-2014 09:55:00 2 C 5.39 g/m*3 2 C 0 km/h
904 09-03-2014 10:00:00 2.2 C 5.46 g/m*3 2.2 C 1.6 km/h
905 09-03-2014 10:05:00 2.5 C 5.58 g/m*3 2.5 C 3.2 km/h
906 09-03-2014 10:10:00 2.8 C 5.69 g/m*3 2.8 C 0 km/h
907 09-03-2014 10:15:00 2.8 C 5.69 g/m*3 2.8 C 0 km/h
908 09-03-2014 10:20:00 2.8 C 5.69 g/m*3 2.8 C 0 km/h
909 09-03-2014 10:40:00 4.2 C 6.19 g/m*3 4.2 C 0 km/h
910 09-03-2014 10:45:00 4.5 C 6.31 g/m*3 4.5 C 1.6 km/h
911 09-03-2014 10:50:00 4.8 C 6.37 g/m*3 4.8 C 0 km/h
912 09-03-2014 10:55:00 5.1 C 6.5 g/m*3 5.1 C 0 km/h
913 09-03-2014 11:00:00 5.4 C 6.56 g/m*3 5.4 C 1.6 km/h
914 09-03-2014 11:05:00 5.7 C 6.62 g/m*3 5.7 C 1.6 km/h
915 09-03-2014 11:10:00 6.1 C 6.72 g/m*3 6.1 C 0 km/h
916 09-03-2014 11:15:00 6.4 C 6.78 g/m*3 6.4 C 0 km/h
917 09-03-2014 11:20:00 6.7 C 6.91 g/m*3 6.7 C 0 km/h
918 09-03-2014 11:25:00 6.9 C 6.93 g/m*3 6.9 C 0 km/h
919 09-03-2014 11:30:00 7.3 C 7.03 g/m*3 7.3 C 0 km/h
920 09-03-2014 11:35:00 7.6 C 7.09 g/m*3 7.6 C 0 km/h
921 09-03-2014 11:40:00 7.9 C 7.15 g/m*3 7.9 C 0 km/h
922 09-03-2014 11:45:00 8.3 C 7.16 g/m*3 8.3 C 3.2 km/h
923 09-03-2014 11:50:00 8.8 C 7.05 g/m*3 8.8 C 3.2 km/h
924 09-03-2014 11:55:00 9.3 C 7.28 g/m*3 9.3 C 4.8 km/h
925 09-03-2014 12:00:00 9.7 C 7.38 g/m*3 9.7 C 4.8 km/h
Sensor: Nr:Datum:Temp:Abs-Feuchte:Windchill:Wind:
Aussen-T/F 926 09-03-2014 12:05:00 9.9 C 7.38 g/m*3 9.9 C 3.2 km/h
927 09-03-2014 12:10:00 10.2 C 7.42 g/m*3 10.2 C 3.2 km/h
928 09-03-2014 12:15:00 10.6 C 7.61 g/m*3 10.6 C 1.6 km/h
929 09-03-2014 12:20:00 11.1 C 7.86 g/m*3 11.1 C 3.2 km/h
930 09-03-2014 12:25:00 11.7 C 7.74 g/m*3 11.7 C 3.2 km/h
931 09-03-2014 12:30:00 12.1 C 7.83 g/m*3 12.1 C 3.2 km/h
932 09-03-2014 12:35:00 12.4 C 7.76 g/m*3 12.4 C 3.2 km/h
933 09-03-2014 12:40:00 12.7 C 7.79 g/m*3 12.7 C 3.2 km/h
934 09-03-2014 12:45:00 13.1 C 7.76 g/m*3 13.1 C 3.2 km/h
935 09-03-2014 12:50:00 13.3 C 7.74 g/m*3 13.3 C 3.2 km/h
936 09-03-2014 12:55:00 13.7 C 7.7 g/m*3 13.7 C 3.2 km/h
937 09-03-2014 13:00:00 14.1 C 8.01 g/m*3 14.1 C 1.6 km/h
938 09-03-2014 13:05:00 14.3 C 7.74 g/m*3 14.3 C 3.2 km/h
939 09-03-2014 13:10:00 14.8 C 6.08 g/m*3 14.8 C 3.2 km/h
940 09-03-2014 13:15:00 15.8 C 7 g/m*3 15.8 C 4.8 km/h
941 09-03-2014 13:20:00 16.7 C 5.68 g/m*3 16.7 C 3.2 km/h
942 09-03-2014 13:25:00 17.4 C 5.93 g/m*3 17.4 C 3.2 km/h
943 09-03-2014 13:30:00 18 C 5.68 g/m*3 18 C 3.2 km/h
944 09-03-2014 13:35:00 18.1 C 5.56 g/m*3 18.1 C 6.4 km/h
945 09-03-2014 13:40:00 18.2 C 4.97 g/m*3 18.2 C 8.1 km/h
946 09-03-2014 13:45:00 18.3 C 5.16 g/m*3 18.3 C 8.1 km/h
947 09-03-2014 13:50:00 18.4 C 5.19 g/m*3 18.4 C 6.4 km/h
948 09-03-2014 13:55:00 18.6 C 5.25 g/m*3 18.6 C 8.1 km/h
949 09-03-2014 14:00:00 18.6 C 5.57 g/m*3 18.6 C 3.2 km/h
950 09-03-2014 14:05:00 18.7 C 4.32 g/m*3 18.7 C 4.8 km/h
Sensor: Nr:Datum:Temp:Abs-Feuchte:Windchill:Wind:
Aussen-T/F 951 09-03-2014 14:10:00 18.8 C 5.15 g/m*3 18.8 C 8.1 km/h
952 09-03-2014 14:15:00 18.8 C 4.35 g/m*3 18.8 C 6.4 km/h
953 09-03-2014 14:20:00 18.9 C 5.67 g/m*3 18.9 C 6.4 km/h
954 09-03-2014 14:25:00 19.1 C 4.59 g/m*3 19.1 C 4.8 km/h
955 09-03-2014 14:30:00 19.3 C 4.98 g/m*3 19.3 C 6.4 km/h
956 09-03-2014 14:35:00 19.4 C 4.67 g/m*3 19.4 C 6.4 km/h
957 09-03-2014 14:40:00 19.6 C 5.23 g/m*3 19.6 C 6.4 km/h
958 09-03-2014 14:45:00 19.7 C 5.26 g/m*3 19.7 C 8.1 km/h
959 09-03-2014 14:50:00 19.7 C 5.43 g/m*3 19.7 C 6.4 km/h
960 09-03-2014 14:55:00 19.7 C 4.42 g/m*3 19.7 C 4.8 km/h
961 09-03-2014 15:00:00 19.8 C 4.27 g/m*3 19.8 C 6.4 km/h
962 09-03-2014 15:05:00 20 C 3.97 g/m*3 20 C 6.4 km/h
963 09-03-2014 15:10:00 20 C 3.97 g/m*3 20 C 6.4 km/h
964 09-03-2014 15:15:00 20.3 C 5.28 g/m*3 20.3 C 6.4 km/h
965 09-03-2014 15:20:00 20.1 C 3.82 g/m*3 20.1 C 8.1 km/h
966 09-03-2014 15:25:00 20.3 C 4.22 g/m*3 20.3 C 9.7 km/h
967 09-03-2014 15:30:00 20.4 C 5.66 g/m*3 20.4 C 3.2 km/h
968 09-03-2014 15:35:00 20.3 C 5.45 g/m*3 20.3 C 4.8 km/h
969 09-03-2014 15:40:00 20.5 C 4.63 g/m*3 20.5 C 4.8 km/h
970 09-03-2014 15:45:00 20.5 C 5.69 g/m*3 20.5 C 4.8 km/h
971 09-03-2014 15:50:00 20 C 4.84 g/m*3 20 C 3.2 km/h
972 09-03-2014 15:55:00 19.3 C 5.81 g/m*3 19.3 C 3.2 km/h
973 09-03-2014 16:00:00 18.4 C 6.29 g/m*3 18.4 C 4.8 km/h
974 09-03-2014 16:05:00 18.1 C 5.41 g/m*3 18.1 C 6.4 km/h
975 09-03-2014 16:10:00 18.1 C 5.87 g/m*3 18.1 C 8.1 km/h
Sensor: Nr:Datum:Temp:Abs-Feuchte:Windchill:Wind:
Aussen-T/F 976 09-03-2014 16:15:00 18 C 5.22 g/m*3 18 C 4.8 km/h
977 09-03-2014 16:20:00 18.2 C 5.28 g/m*3 18.2 C 4.8 km/h
978 09-03-2014 16:25:00 17.9 C 6.41 g/m*3 17.9 C 3.2 km/h
979 09-03-2014 16:30:00 17.1 C 6.55 g/m*3 17.1 C 1.6 km/h
980 09-03-2014 16:35:00 16.8 C 7.01 g/m*3 16.8 C 4.8 km/h
981 09-03-2014 16:40:00 16.5 C 6.74 g/m*3 16.5 C 3.2 km/h
982 09-03-2014 16:45:00 16.3 C 6.66 g/m*3 16.3 C 3.2 km/h
983 09-03-2014 16:50:00 16.2 C 6.76 g/m*3 16.2 C 1.6 km/h
984 09-03-2014 16:55:00 16.1 C 6.72 g/m*3 16.1 C 3.2 km/h
985 09-03-2014 17:00:00 16 C 6.95 g/m*3 16 C 4.8 km/h
986 09-03-2014 17:05:00 15.8 C 6.87 g/m*3 15.8 C 3.2 km/h
987 09-03-2014 17:10:00 15.7 C 6.82 g/m*3 15.7 C 4.8 km/h
988 09-03-2014 17:15:00 15.4 C 6.7 g/m*3 15.4 C 4.8 km/h
989 09-03-2014 17:20:00 15.3 C 6.79 g/m*3 15.3 C 4.8 km/h
990 09-03-2014 17:25:00 15.1 C 6.84 g/m*3 15.1 C 6.4 km/h
991 09-03-2014 17:30:00 15 C 6.8 g/m*3 15 C 6.4 km/h
992 09-03-2014 17:35:00 14.8 C 6.59 g/m*3 14.8 C 4.8 km/h
993 09-03-2014 17:40:00 14.8 C 6.71 g/m*3 14.8 C 4.8 km/h
994 09-03-2014 17:45:00 14.7 C 6.8 g/m*3 14.7 C 6.4 km/h
995 09-03-2014 17:50:00 14.4 C 6.8 g/m*3 14.4 C 6.4 km/h
996 09-03-2014 17:55:00 14.2 C 6.72 g/m*3 14.2 C 4.8 km/h
997 09-03-2014 18:00:00 14 C 6.75 g/m*3 14 C 6.4 km/h
998 09-03-2014 18:05:00 13.7 C 6.63 g/m*3 13.7 C 4.8 km/h
999 09-03-2014 18:10:00 13.5 C 6.67 g/m*3 13.5 C 6.4 km/h
1000 09-03-2014 18:15:00 13.1 C 6.62 g/m*3 13.1 C 6.4 km/h
Sensor: Nr:Datum:Temp:Abs-Feuchte:Windchill:Wind:
Aussen-T/F 1001 09-03-2014 18:20:00 12.9 C 6.54 g/m*3 12.9 C 6.4 km/h
1002 09-03-2014 18:25:00 12.6 C 6.53 g/m*3 12.6 C 6.4 km/h
1003 09-03-2014 18:30:00 12.3 C 6.52 g/m*3 12.3 C 6.4 km/h
1004 09-03-2014 18:35:00 12.2 C 6.47 g/m*3 12.2 C 6.4 km/h
1005 09-03-2014 18:40:00 12 C 6.39 g/m*3 12 C 6.4 km/h
1006 09-03-2014 18:45:00 11.8 C 6.42 g/m*3 11.8 C 6.4 km/h
1007 09-03-2014 18:50:00 11.6 C 6.34 g/m*3 11.6 C 6.4 km/h
1008 09-03-2014 18:55:00 11.4 C 6.47 g/m*3 11.4 C 6.4 km/h
1009 09-03-2014 19:00:00 11.2 C 6.39 g/m*3 11.2 C 6.4 km/h
1010 09-03-2014 19:05:00 11.2 C 6.39 g/m*3 11.2 C 4.8 km/h
1011 09-03-2014 19:10:00 11.1 C 6.45 g/m*3 11.1 C 4.8 km/h
1012 09-03-2014 19:15:00 10.9 C 6.37 g/m*3 10.41 C 6.4 km/h
1013 09-03-2014 19:20:00 10.8 C 6.52 g/m*3 10.29 C 6.4 km/h
1014 09-03-2014 19:25:00 10.7 C 6.48 g/m*3 10.7 C 4.8 km/h
1015 09-03-2014 19:30:00 10.4 C 6.55 g/m*3 10.4 C 4.8 km/h
1016 09-03-2014 19:35:00 10.1 C 6.52 g/m*3 10.1 C 4.8 km/h
1017 09-03-2014 19:40:00 9.9 C 6.63 g/m*3 9.9 C 4.8 km/h
1018 09-03-2014 19:45:00 9.7 C 6.55 g/m*3 9.7 C 4.8 km/h
1019 09-03-2014 19:50:00 9.5 C 6.64 g/m*3 9.5 C 4.8 km/h
1020 09-03-2014 19:55:00 9.3 C 6.56 g/m*3 9.3 C 4.8 km/h
1021 09-03-2014 20:00:00 9.2 C 6.52 g/m*3 9.2 C 4.8 km/h
1022 09-03-2014 20:05:00 9.2 C 6.52 g/m*3 9.2 C 4.8 km/h
1023 09-03-2014 20:10:00 9.1 C 6.57 g/m*3 9.1 C 3.2 km/h
1024 09-03-2014 20:15:00 8.8 C 6.53 g/m*3 8.8 C 4.8 km/h
1025 09-03-2014 20:20:00 8.8 C 6.53 g/m*3 8.8 C 4.8 km/h
Sensor: Nr:Datum:Temp:Abs-Feuchte:Windchill:Wind:
Aussen-T/F 1026 09-03-2014 20:25:00 8.7 C 6.49 g/m*3 8.7 C 1.6 km/h
1027 09-03-2014 20:30:00 8.6 C 6.53 g/m*3 8.6 C 1.6 km/h
1028 09-03-2014 20:35:00 8.4 C 6.45 g/m*3 8.4 C 1.6 km/h
1029 09-03-2014 20:40:00 8.4 C 6.36 g/m*3 8.4 C 0 km/h
1030 09-03-2014 20:45:00 8.2 C 6.36 g/m*3 8.2 C 1.6 km/h
1031 09-03-2014 20:50:00 8.1 C 6.41 g/m*3 8.1 C 3.2 km/h
1032 09-03-2014 20:55:00 7.9 C 6.41 g/m*3 7.9 C 0 km/h
1033 09-03-2014 21:00:00 7.9 C 6.41 g/m*3 7.9 C 0 km/h
1034 09-03-2014 21:05:00 7.8 C 6.28 g/m*3 7.8 C 1.6 km/h
1035 09-03-2014 21:10:00 7.8 C 6.2 g/m*3 7.8 C 1.6 km/h
1036 09-03-2014 21:15:00 7.7 C 6.08 g/m*3 7.7 C 0 km/h
1037 09-03-2014 21:20:00 7.6 C 6.04 g/m*3 7.6 C 0 km/h
1038 09-03-2014 21:25:00 7.4 C 5.96 g/m*3 7.4 C 0 km/h
1039 09-03-2014 21:30:00 7.3 C 6 g/m*3 7.3 C 0 km/h
1040 09-03-2014 21:35:00 7.1 C 6.01 g/m*3 7.1 C 0 km/h
1041 09-03-2014 21:40:00 7 C 5.97 g/m*3 7 C 0 km/h
1042 09-03-2014 21:45:00 6.8 C 6.04 g/m*3 6.8 C 0 km/h
1043 09-03-2014 21:50:00 6.6 C 6.04 g/m*3 6.6 C 0 km/h
1044 09-03-2014 21:55:00 6.5 C 6 g/m*3 6.5 C 0 km/h
1045 09-03-2014 22:00:00 6.5 C 5.92 g/m*3 6.5 C 0 km/h
1046 09-03-2014 22:05:00 6.6 C 5.96 g/m*3 6.6 C 0 km/h
1047 09-03-2014 22:10:00 6.6 C 6.04 g/m*3 6.6 C 0 km/h
1048 09-03-2014 22:15:00 6.4 C 5.89 g/m*3 6.4 C 0 km/h
1049 09-03-2014 22:20:00 6.3 C 5.85 g/m*3 6.3 C 0 km/h
1050 09-03-2014 22:25:00 6 C 5.73 g/m*3 6 C 0 km/h
Sensor: Nr:Datum:Temp:Abs-Feuchte:Windchill:Wind:
Aussen-T/F 1051 09-03-2014 22:30:00 5.8 C 5.66 g/m*3 5.8 C 0 km/h
1052 09-03-2014 22:35:00 5.6 C 5.59 g/m*3 5.6 C 0 km/h
1053 09-03-2014 22:40:00 5.4 C 5.65 g/m*3 5.4 C 0 km/h
1054 09-03-2014 22:45:00 5.3 C 5.68 g/m*3 5.3 C 0 km/h
1055 09-03-2014 22:50:00 5.2 C 5.65 g/m*3 5.2 C 0 km/h
1056 09-03-2014 22:55:00 5 C 5.57 g/m*3 5 C 0 km/h
1057 09-03-2014 23:00:00 4.8 C 5.5 g/m*3 4.8 C 0 km/h
1058 09-03-2014 23:05:00 4.8 C 5.57 g/m*3 4.8 C 0 km/h
1059 09-03-2014 23:10:00 4.7 C 5.53 g/m*3 4.7 C 0 km/h
1060 09-03-2014 23:15:00 4.7 C 5.6 g/m*3 4.7 C 0 km/h
1061 09-03-2014 23:20:00 4.7 C 5.6 g/m*3 4.7 C 0 km/h
1062 09-03-2014 23:25:00 4.5 C 5.52 g/m*3 4.5 C 0 km/h
1063 09-03-2014 23:30:00 4.4 C 5.55 g/m*3 4.4 C 0 km/h
1064 09-03-2014 23:35:00 4.3 C 5.51 g/m*3 4.3 C 0 km/h
1065 09-03-2014 23:40:00 4.3 C 5.51 g/m*3 4.3 C 0 km/h
1066 09-03-2014 23:45:00 4.3 C 5.51 g/m*3 4.3 C 0 km/h
1067 09-03-2014 23:50:00 4.3 C 5.51 g/m*3 4.3 C 0 km/h
1068 09-03-2014 23:55:00 4.3 C 5.58 g/m*3 4.3 C 0 km/h
1069 10-03-2014 00:00:00 4.3 C 5.58 g/m*3 4.3 C 0 km/h
1070 10-03-2014 00:05:00 4.2 C 5.48 g/m*3 4.2 C 0 km/h
1071 10-03-2014 00:10:00 4.1 C 5.44 g/m*3 4.1 C 0 km/h
1072 10-03-2014 00:15:00 4 C 5.4 g/m*3 4 C 0 km/h
1073 10-03-2014 00:20:00 3.9 C 5.37 g/m*3 3.9 C 0 km/h
1074 10-03-2014 00:25:00 3.8 C 5.33 g/m*3 3.8 C 0 km/h
1075 10-03-2014 00:30:00 3.7 C 5.36 g/m*3 3.7 C 0 km/h
Sensor: Nr:Datum:Temp:Abs-Feuchte:Windchill:Wind:
Aussen-T/F 1076 10-03-2014 00:35:00 3.5 C 5.29 g/m*3 3.5 C 0 km/h
1077 10-03-2014 00:40:00 3.3 C 5.22 g/m*3 3.3 C 0 km/h
1078 10-03-2014 00:45:00 3.3 C 5.28 g/m*3 3.3 C 0 km/h
1079 10-03-2014 00:50:00 3.2 C 5.24 g/m*3 3.2 C 0 km/h
1080 10-03-2014 00:55:00 3.2 C 5.3 g/m*3 3.2 C 0 km/h
1081 10-03-2014 01:00:00 3.1 C 5.27 g/m*3 3.1 C 0 km/h
1082 10-03-2014 01:05:00 2.9 C 5.2 g/m*3 2.9 C 0 km/h
1083 10-03-2014 01:10:00 2.9 C 5.26 g/m*3 2.9 C 0 km/h
1084 10-03-2014 01:15:00 2.9 C 5.26 g/m*3 2.9 C 0 km/h
1085 10-03-2014 01:20:00 2.8 C 5.22 g/m*3 2.8 C 0 km/h
1086 10-03-2014 01:25:00 2.8 C 5.22 g/m*3 2.8 C 0 km/h
1087 10-03-2014 01:30:00 2.7 C 5.19 g/m*3 2.7 C 0 km/h
1088 10-03-2014 01:35:00 2.7 C 5.19 g/m*3 2.7 C 0 km/h
1089 10-03-2014 01:40:00 2.7 C 5.19 g/m*3 2.7 C 0 km/h
1090 10-03-2014 01:45:00 2.6 C 5.15 g/m*3 2.6 C 0 km/h
1091 10-03-2014 01:50:00 2.6 C 5.15 g/m*3 2.6 C 0 km/h
1092 10-03-2014 01:55:00 2.6 C 5.21 g/m*3 2.6 C 0 km/h
1093 10-03-2014 02:00:00 2.4 C 5.14 g/m*3 2.4 C 0 km/h
1094 10-03-2014 02:05:00 2.4 C 5.14 g/m*3 2.4 C 0 km/h
1095 10-03-2014 02:10:00 2.3 C 5.1 g/m*3 2.3 C 0 km/h
1096 10-03-2014 02:15:00 2.2 C 5.07 g/m*3 2.2 C 0 km/h
1097 10-03-2014 02:20:00 2.2 C 5.07 g/m*3 2.2 C 0 km/h
1098 10-03-2014 02:25:00 2.1 C 5.04 g/m*3 2.1 C 0 km/h
1099 10-03-2014 02:30:00 2.1 C 5.09 g/m*3 2.1 C 0 km/h
1100 10-03-2014 02:35:00 2.1 C 5.09 g/m*3 2.1 C 0 km/h
Sensor: Nr:Datum:Temp:Abs-Feuchte:Windchill:Wind:
Aussen-T/F 1101 10-03-2014 02:40:00 2.1 C 5.09 g/m*3 2.1 C 0 km/h
1102 10-03-2014 02:45:00 2.1 C 5.09 g/m*3 2.1 C 0 km/h
1103 10-03-2014 02:50:00 2.1 C 5.09 g/m*3 2.1 C 0 km/h
1104 10-03-2014 02:55:00 2.1 C 5.09 g/m*3 2.1 C 0 km/h
1105 10-03-2014 03:00:00 1.9 C 5.02 g/m*3 1.9 C 0 km/h
1106 10-03-2014 03:05:00 1.9 C 5.02 g/m*3 1.9 C 0 km/h
1107 10-03-2014 03:10:00 1.9 C 5.08 g/m*3 1.9 C 0 km/h
1108 10-03-2014 03:15:00 1.9 C 5.02 g/m*3 1.9 C 0 km/h
1109 10-03-2014 03:20:00 1.8 C 4.99 g/m*3 1.8 C 0 km/h
1110 10-03-2014 03:25:00 1.8 C 5.04 g/m*3 1.8 C 0 km/h
1111 10-03-2014 03:30:00 1.8 C 5.04 g/m*3 1.8 C 0 km/h
1112 10-03-2014 03:35:00 1.7 C 5.01 g/m*3 1.7 C 0 km/h
1113 10-03-2014 03:40:00 1.7 C 5.01 g/m*3 1.7 C 0 km/h
1114 10-03-2014 03:45:00 1.7 C 5.01 g/m*3 1.7 C 0 km/h
1115 10-03-2014 03:50:00 1.6 C 4.97 g/m*3 1.6 C 0 km/h
1116 10-03-2014 03:55:00 1.6 C 4.97 g/m*3 1.6 C 0 km/h
1117 10-03-2014 04:00:00 1.6 C 4.97 g/m*3 1.6 C 0 km/h
1118 10-03-2014 04:05:00 1.4 C 4.91 g/m*3 1.4 C 0 km/h
1119 10-03-2014 04:10:00 1.4 C 4.91 g/m*3 1.4 C 0 km/h
1120 10-03-2014 04:15:00 1.3 C 4.87 g/m*3 1.3 C 0 km/h
1121 10-03-2014 04:20:00 1.3 C 4.87 g/m*3 1.3 C 0 km/h
1122 10-03-2014 04:25:00 1.2 C 4.84 g/m*3 1.2 C 0 km/h
1123 10-03-2014 04:30:00 1.2 C 4.84 g/m*3 1.2 C 0 km/h
1124 10-03-2014 04:35:00 1.2 C 4.89 g/m*3 1.2 C 0 km/h
1125 10-03-2014 04:40:00 1.3 C 4.93 g/m*3 1.3 C 1.6 km/h
Sensor: Nr:Datum:Temp:Abs-Feuchte:Windchill:Wind:
Aussen-T/F 1126 10-03-2014 04:45:00 1.4 C 5.01 g/m*3 1.4 C 0 km/h
1127 10-03-2014 04:50:00 1.4 C 4.96 g/m*3 1.4 C 0 km/h
1128 10-03-2014 04:55:00 1.4 C 4.96 g/m*3 1.4 C 0 km/h
1129 10-03-2014 05:00:00 1.4 C 4.96 g/m*3 1.4 C 0 km/h
1130 10-03-2014 05:05:00 1.4 C 4.96 g/m*3 1.4 C 0 km/h
1131 10-03-2014 05:10:00 1.3 C 4.93 g/m*3 1.3 C 0 km/h
1132 10-03-2014 05:15:00 1.3 C 4.93 g/m*3 1.3 C 0 km/h
1133 10-03-2014 05:20:00 1.3 C 4.93 g/m*3 1.3 C 0 km/h
1134 10-03-2014 05:25:00 1.3 C 4.93 g/m*3 1.3 C 0 km/h
1135 10-03-2014 05:30:00 1.2 C 4.89 g/m*3 1.2 C 0 km/h
1136 10-03-2014 05:35:00 1.1 C 4.86 g/m*3 1.1 C 0 km/h
1137 10-03-2014 05:40:00 1 C 4.83 g/m*3 1 C 0 km/h
1138 10-03-2014 05:45:00 1 C 4.83 g/m*3 1 C 0 km/h
1139 10-03-2014 05:50:00 1 C 4.83 g/m*3 1 C 0 km/h
1140 10-03-2014 05:55:00 0.9 C 4.79 g/m*3 0.9 C 1.6 km/h
1141 10-03-2014 06:00:00 1 C 4.88 g/m*3 1 C 1.6 km/h
1142 10-03-2014 06:05:00 1.1 C 4.91 g/m*3 1.1 C 0 km/h
1143 10-03-2014 06:10:00 1.1 C 4.91 g/m*3 1.1 C 0 km/h
1144 10-03-2014 06:15:00 1.1 C 4.91 g/m*3 1.1 C 1.6 km/h
1145 10-03-2014 06:20:00 1.1 C 4.91 g/m*3 1.1 C 0 km/h
1146 10-03-2014 06:25:00 1 C 4.88 g/m*3 1 C 0 km/h
1147 10-03-2014 06:30:00 0.9 C 4.85 g/m*3 0.9 C 0 km/h
1148 10-03-2014 06:35:00 0.8 C 4.81 g/m*3 0.8 C 0 km/h
1149 10-03-2014 06:40:00 0.8 C 4.76 g/m*3 0.8 C 0 km/h
1150 10-03-2014 06:45:00 0.7 C 4.73 g/m*3 0.7 C 0 km/h
Sensor: Nr:Datum:Temp:Abs-Feuchte:Windchill:Wind:
Aussen-T/F 1151 10-03-2014 06:50:00 0.7 C 4.78 g/m*3 0.7 C 0 km/h
1152 10-03-2014 06:55:00 0.7 C 4.78 g/m*3 0.7 C 0 km/h
1153 10-03-2014 07:00:00 0.7 C 4.78 g/m*3 0.7 C 0 km/h
1154 10-03-2014 07:05:00 0.6 C 4.75 g/m*3 0.6 C 0 km/h
1155 10-03-2014 07:10:00 0.6 C 4.75 g/m*3 0.6 C 0 km/h
1156 10-03-2014 07:15:00 0.6 C 4.75 g/m*3 0.6 C 0 km/h
1157 10-03-2014 07:20:00 0.6 C 4.75 g/m*3 0.6 C 0 km/h
1158 10-03-2014 07:25:00 0.5 C 4.71 g/m*3 0.5 C 0 km/h
1159 10-03-2014 07:30:00 0.6 C 4.75 g/m*3 0.6 C 0 km/h
1160 10-03-2014 07:35:00 0.6 C 4.75 g/m*3 0.6 C 0 km/h
1161 10-03-2014 07:40:00 0.6 C 4.8 g/m*3 0.6 C 1.6 km/h
1162 10-03-2014 07:45:00 0.6 C 4.8 g/m*3 0.6 C 0 km/h
1163 10-03-2014 07:50:00 0.7 C 4.83 g/m*3 0.7 C 0 km/h
1164 10-03-2014 07:55:00 0.7 C 4.83 g/m*3 0.7 C 0 km/h
1165 10-03-2014 08:00:00 0.7 C 4.83 g/m*3 0.7 C 0 km/h
1166 10-03-2014 08:05:00 0.7 C 4.83 g/m*3 0.7 C 0 km/h
1167 10-03-2014 08:10:00 0.7 C 4.83 g/m*3 0.7 C 0 km/h
1168 10-03-2014 08:15:00 0.8 C 4.86 g/m*3 0.8 C 1.6 km/h
1169 10-03-2014 08:20:00 0.9 C 4.9 g/m*3 0.9 C 0 km/h
1170 10-03-2014 08:25:00 0.9 C 4.9 g/m*3 0.9 C 0 km/h
1171 10-03-2014 08:30:00 0.9 C 4.9 g/m*3 0.9 C 0 km/h
1172 10-03-2014 08:35:00 1.1 C 4.96 g/m*3 1.1 C 0 km/h
1173 10-03-2014 08:40:00 1.2 C 5 g/m*3 1.2 C 0 km/h
1174 10-03-2014 08:45:00 1.2 C 5 g/m*3 1.2 C 0 km/h
1175 10-03-2014 08:50:00 1.3 C 5.03 g/m*3 1.3 C 0 km/h
Sensor: Nr:Datum:Temp:Abs-Feuchte:Windchill:Wind:
Aussen-T/F 1176 10-03-2014 08:55:00 1.3 C 5.03 g/m*3 1.3 C 0 km/h
1177 10-03-2014 09:00:00 1.6 C 5.14 g/m*3 1.6 C 0 km/h
1178 10-03-2014 09:05:00 1.7 C 5.17 g/m*3 1.7 C 0 km/h
1179 10-03-2014 09:10:00 1.7 C 5.17 g/m*3 1.7 C 0 km/h
1180 10-03-2014 09:15:00 1.8 C 5.21 g/m*3 1.8 C 0 km/h
1181 10-03-2014 09:20:00 1.9 C 5.24 g/m*3 1.9 C 0 km/h
1182 10-03-2014 09:25:00 2.2 C 5.35 g/m*3 2.2 C 0 km/h
1183 10-03-2014 09:30:00 2.3 C 5.39 g/m*3 2.3 C 0 km/h
1184 10-03-2014 09:35:00 2.4 C 5.42 g/m*3 2.4 C 0 km/h
1185 10-03-2014 09:40:00 2.8 C 5.57 g/m*3 2.8 C 3.2 km/h
1186 10-03-2014 09:45:00 3.3 C 5.7 g/m*3 3.3 C 1.6 km/h
1187 10-03-2014 09:50:00 3.7 C 5.8 g/m*3 3.7 C 0 km/h
1188 10-03-2014 09:55:00 3.9 C 5.87 g/m*3 3.9 C 1.6 km/h
1189 10-03-2014 10:00:00 4.2 C 5.93 g/m*3 4.2 C 0 km/h
1190 10-03-2014 10:05:00 4.3 C 5.9 g/m*3 4.3 C 0 km/h
1191 10-03-2014 10:10:00 4.5 C 5.98 g/m*3 4.5 C 0 km/h
1192 10-03-2014 10:15:00 4.8 C 6.1 g/m*3 4.8 C 0 km/h
1193 10-03-2014 10:20:00 5 C 6.12 g/m*3 5 C 0 km/h
1194 10-03-2014 10:25:00 5.1 C 6.16 g/m*3 5.1 C 0 km/h
1195 10-03-2014 10:30:00 5.2 C 6.2 g/m*3 5.2 C 0 km/h
1196 10-03-2014 10:35:00 5.4 C 6.28 g/m*3 5.4 C 0 km/h
1197 10-03-2014 10:40:00 5.6 C 6.36 g/m*3 5.6 C 0 km/h
1198 10-03-2014 10:45:00 5.8 C 6.45 g/m*3 5.8 C 0 km/h
1199 10-03-2014 10:50:00 5.9 C 6.42 g/m*3 5.9 C 0 km/h
1200 10-03-2014 10:55:00 6.2 C 6.55 g/m*3 6.2 C 1.6 km/h
Sensor: Nr:Datum:Temp:Abs-Feuchte:Windchill:Wind:
Aussen-T/F 1201 10-03-2014 11:00:00 6.4 C 6.56 g/m*3 6.4 C 0 km/h
1202 10-03-2014 11:05:00 6.6 C 6.64 g/m*3 6.6 C 0 km/h
1203 10-03-2014 11:10:00 6.8 C 6.73 g/m*3 6.8 C 0 km/h
1204 10-03-2014 11:15:00 7.1 C 6.79 g/m*3 7.1 C 0 km/h
1205 10-03-2014 11:20:00 7.4 C 6.84 g/m*3 7.4 C 1.6 km/h
1206 10-03-2014 11:25:00 7.8 C 7.02 g/m*3 7.8 C 1.6 km/h
1207 10-03-2014 11:30:00 8.1 C 6.99 g/m*3 8.1 C 0 km/h
1208 10-03-2014 11:35:00 8.5 C 7.09 g/m*3 8.5 C 1.6 km/h
1209 10-03-2014 11:40:00 8.8 C 7.22 g/m*3 8.8 C 1.6 km/h
1210 10-03-2014 11:45:00 9.2 C 7.32 g/m*3 9.2 C 1.6 km/h
1211 10-03-2014 11:50:00 9.6 C 7.33 g/m*3 9.6 C 1.6 km/h
1212 10-03-2014 11:55:00 10.1 C 7.47 g/m*3 10.1 C 0 km/h
1213 10-03-2014 12:00:00 10.4 C 7.52 g/m*3 10.4 C 0 km/h
1214 10-03-2014 12:05:00 10.7 C 7.66 g/m*3 10.7 C 1.6 km/h
1215 10-03-2014 12:10:00 11.1 C 7.66 g/m*3 11.1 C 1.6 km/h
1216 10-03-2014 12:15:00 11.6 C 7.48 g/m*3 11.6 C 3.2 km/h
1217 10-03-2014 12:20:00 12.1 C 7.61 g/m*3 12.1 C 0 km/h
1218 10-03-2014 12:25:00 12.7 C 7.46 g/m*3 12.7 C 1.6 km/h
1219 10-03-2014 12:30:00 13.4 C 7.44 g/m*3 13.4 C 1.6 km/h
1220 10-03-2014 12:35:00 14 C 7.24 g/m*3 14 C 1.6 km/h
1221 10-03-2014 12:40:00 14.8 C 7.6 g/m*3 14.8 C 1.6 km/h
1222 10-03-2014 12:45:00 15.4 C 7.62 g/m*3 15.4 C 0 km/h
1223 10-03-2014 12:50:00 15.9 C 7.31 g/m*3 15.9 C 3.2 km/h
1224 10-03-2014 12:55:00 16.3 C 7.08 g/m*3 16.3 C 6.4 km/h
1225 10-03-2014 13:00:00 16.7 C 7.67 g/m*3 16.7 C 6.4 km/h
Sensor: Nr:Datum:Temp:Abs-Feuchte:Windchill:Wind:
Aussen-T/F 1226 10-03-2014 13:05:00 17 C 6.95 g/m*3 17 C 4.8 km/h
1227 10-03-2014 13:10:00 17.2 C 7.32 g/m*3 17.2 C 6.4 km/h
1228 10-03-2014 13:15:00 17.2 C 6.44 g/m*3 17.2 C 3.2 km/h
1229 10-03-2014 13:20:00 17.1 C 6.55 g/m*3 17.1 C 4.8 km/h
1230 10-03-2014 13:25:00 17 C 7.52 g/m*3 17 C 4.8 km/h
1231 10-03-2014 13:30:00 17.1 C 6.4 g/m*3 17.1 C 8.1 km/h
1232 10-03-2014 13:35:00 17.1 C 6.99 g/m*3 17.1 C 3.2 km/h
1233 10-03-2014 13:40:00 17 C 6.37 g/m*3 17 C 3.2 km/h
1234 10-03-2014 13:45:00 16.9 C 6.76 g/m*3 16.9 C 4.8 km/h
1235 10-03-2014 13:50:00 16.8 C 6.29 g/m*3 16.8 C 4.8 km/h
1236 10-03-2014 13:55:00 16.8 C 7.01 g/m*3 16.8 C 1.6 km/h
1237 10-03-2014 14:00:00 16.8 C 6 g/m*3 16.8 C 4.8 km/h
1238 10-03-2014 14:05:00 16.8 C 6.43 g/m*3 16.8 C 3.2 km/h
1239 10-03-2014 14:10:00 16.9 C 6.9 g/m*3 16.9 C 3.2 km/h
1240 10-03-2014 14:15:00 17.1 C 6.55 g/m*3 17.1 C 1.6 km/h
1241 10-03-2014 14:20:00 17.2 C 6.3 g/m*3 17.2 C 3.2 km/h
1242 10-03-2014 14:25:00 17.3 C 6.78 g/m*3 17.3 C 4.8 km/h
1243 10-03-2014 14:30:00 17.4 C 6.22 g/m*3 17.4 C 0 km/h
1244 10-03-2014 14:35:00 17.4 C 6.82 g/m*3 17.4 C 3.2 km/h
1245 10-03-2014 14:40:00 17.3 C 6.48 g/m*3 17.3 C 3.2 km/h
1246 10-03-2014 14:45:00 17.4 C 7.11 g/m*3 17.4 C 0 km/h
1247 10-03-2014 14:50:00 17.2 C 6.74 g/m*3 17.2 C 3.2 km/h
1248 10-03-2014 14:55:00 17 C 6.66 g/m*3 17 C 3.2 km/h
1249 10-03-2014 15:00:00 17.1 C 5.82 g/m*3 17.1 C 3.2 km/h
1250 10-03-2014 15:05:00 17.5 C 6.56 g/m*3 17.5 C 3.2 km/h
Sensor: Nr:Datum:Temp:Abs-Feuchte:Windchill:Wind:
Aussen-T/F 1251 10-03-2014 15:10:00 17.8 C 6.07 g/m*3 17.8 C 3.2 km/h
1252 10-03-2014 15:15:00 18 C 6.91 g/m*3 18 C 3.2 km/h
1253 10-03-2014 15:20:00 17.8 C 6.07 g/m*3 17.8 C 3.2 km/h
1254 10-03-2014 15:25:00 17.9 C 7.02 g/m*3 17.9 C 0 km/h
1255 10-03-2014 15:30:00 17.8 C 7.13 g/m*3 17.8 C 3.2 km/h
1256 10-03-2014 15:35:00 18.1 C 6.8 g/m*3 18.1 C 3.2 km/h
1257 10-03-2014 15:40:00 18.4 C 6.29 g/m*3 18.4 C 3.2 km/h
1258 10-03-2014 15:45:00 18.2 C 6.99 g/m*3 18.2 C 3.2 km/h
1259 10-03-2014 15:50:00 17.7 C 6.94 g/m*3 17.7 C 1.6 km/h
1260 10-03-2014 15:55:00 17.6 C 5.85 g/m*3 17.6 C 4.8 km/h
1261 10-03-2014 16:00:00 17.5 C 6.41 g/m*3 17.5 C 4.8 km/h
1262 10-03-2014 16:05:00 17.4 C 5.34 g/m*3 17.4 C 4.8 km/h
1263 10-03-2014 16:10:00 17.3 C 6.92 g/m*3 17.3 C 3.2 km/h
1264 10-03-2014 16:15:00 16.7 C 6.68 g/m*3 16.7 C 3.2 km/h
1265 10-03-2014 16:20:00 16.3 C 6.66 g/m*3 16.3 C 3.2 km/h
1266 10-03-2014 16:25:00 16 C 6.68 g/m*3 16 C 3.2 km/h
1267 10-03-2014 16:30:00 15.8 C 7 g/m*3 15.8 C 6.4 km/h
1268 10-03-2014 16:35:00 15.6 C 6.38 g/m*3 15.6 C 0 km/h
1269 10-03-2014 16:40:00 15.6 C 6.78 g/m*3 15.6 C 1.6 km/h
1270 10-03-2014 16:45:00 15.4 C 6.83 g/m*3 15.4 C 1.6 km/h
1271 10-03-2014 16:50:00 15.3 C 6.92 g/m*3 15.3 C 4.8 km/h
1272 10-03-2014 16:55:00 15.3 C 6.53 g/m*3 15.3 C 3.2 km/h
1273 10-03-2014 17:00:00 15.1 C 6.71 g/m*3 15.1 C 4.8 km/h
1274 10-03-2014 17:05:00 15.1 C 6.45 g/m*3 15.1 C 6.4 km/h
1275 10-03-2014 17:10:00 15.2 C 6.75 g/m*3 15.2 C 6.4 km/h
Sensor: Nr:Datum:Temp:Abs-Feuchte:Windchill:Wind:
Aussen-T/F 1276 10-03-2014 17:15:00 15.1 C 7.1 g/m*3 15.1 C 3.2 km/h
1277 10-03-2014 17:20:00 14.8 C 6.97 g/m*3 14.8 C 4.8 km/h
1278 10-03-2014 17:25:00 14.7 C 6.92 g/m*3 14.7 C 4.8 km/h
1279 10-03-2014 17:30:00 14.5 C 6.59 g/m*3 14.5 C 6.4 km/h
1280 10-03-2014 17:35:00 14.4 C 6.68 g/m*3 14.4 C 4.8 km/h
1281 10-03-2014 17:40:00 14.2 C 6.59 g/m*3 14.2 C 6.4 km/h
1282 10-03-2014 17:45:00 14.1 C 6.55 g/m*3 14.1 C 4.8 km/h
1283 10-03-2014 17:50:00 13.8 C 6.43 g/m*3 13.8 C 6.4 km/h
1284 10-03-2014 17:55:00 13.7 C 6.51 g/m*3 13.7 C 6.4 km/h
1285 10-03-2014 18:00:00 13.4 C 6.39 g/m*3 13.4 C 6.4 km/h
1286 10-03-2014 18:05:00 13.2 C 6.32 g/m*3 13.2 C 6.4 km/h
1287 10-03-2014 18:10:00 13 C 6.24 g/m*3 13 C 6.4 km/h
1288 10-03-2014 18:15:00 12.8 C 6.27 g/m*3 12.8 C 6.4 km/h
1289 10-03-2014 18:20:00 12.6 C 6.31 g/m*3 12.6 C 8.1 km/h
1290 10-03-2014 18:25:00 12.3 C 6.19 g/m*3 12.3 C 6.4 km/h
1291 10-03-2014 18:30:00 12.2 C 6.15 g/m*3 12.2 C 6.4 km/h
1292 10-03-2014 18:35:00 12.1 C 6.22 g/m*3 12.1 C 6.4 km/h
1293 10-03-2014 18:40:00 12 C 6.18 g/m*3 12 C 6.4 km/h
1294 10-03-2014 18:45:00 11.8 C 6.1 g/m*3 11.8 C 6.4 km/h
1295 10-03-2014 18:50:00 11.7 C 6.07 g/m*3 11.7 C 6.4 km/h
1296 10-03-2014 18:55:00 11.6 C 6.13 g/m*3 11.6 C 4.8 km/h
1297 10-03-2014 19:00:00 11.5 C 6.09 g/m*3 11.5 C 6.4 km/h
1298 10-03-2014 19:05:00 11.3 C 6.32 g/m*3 11.3 C 6.4 km/h
1299 10-03-2014 19:10:00 10.8 C 6.33 g/m*3 10.8 C 3.2 km/h
1300 10-03-2014 19:15:00 10.8 C 6.13 g/m*3 10.29 C 6.4 km/h
Sensor: Nr:Datum:Temp:Abs-Feuchte:Windchill:Wind:
Aussen-T/F 1301 10-03-2014 19:20:00 10.8 C 6.13 g/m*3 9.93 C 8.1 km/h
1302 10-03-2014 19:25:00 10.5 C 6.4 g/m*3 10.5 C 4.8 km/h
1303 10-03-2014 19:30:00 10.2 C 6.38 g/m*3 10.2 C 4.8 km/h
1304 10-03-2014 19:35:00 10.1 C 6.24 g/m*3 10.1 C 4.8 km/h
1305 10-03-2014 19:40:00 10.2 C 6.09 g/m*3 10.2 C 3.2 km/h
1306 10-03-2014 19:45:00 10 C 6.11 g/m*3 10 C 3.2 km/h
1307 10-03-2014 19:50:00 9.8 C 6.12 g/m*3 9.8 C 3.2 km/h
1308 10-03-2014 19:55:00 9.6 C 6.05 g/m*3 9.6 C 1.6 km/h
1309 10-03-2014 20:00:00 9.4 C 6.06 g/m*3 9.4 C 1.6 km/h
1310 10-03-2014 20:05:00 9.2 C 5.98 g/m*3 9.2 C 3.2 km/h
1311 10-03-2014 20:10:00 9.2 C 5.98 g/m*3 9.2 C 1.6 km/h
1312 10-03-2014 20:15:00 9.1 C 6.03 g/m*3 9.1 C 1.6 km/h
1313 10-03-2014 20:20:00 8.9 C 5.87 g/m*3 8.9 C 1.6 km/h
1314 10-03-2014 20:25:00 8.9 C 6.04 g/m*3 8.9 C 0 km/h
1315 10-03-2014 20:30:00 8.8 C 6.09 g/m*3 8.8 C 0 km/h
1316 10-03-2014 20:35:00 8.7 C 5.97 g/m*3 8.7 C 1.6 km/h
1317 10-03-2014 20:40:00 8.5 C 6.06 g/m*3 8.5 C 1.6 km/h
1318 10-03-2014 20:45:00 8.4 C 6.02 g/m*3 8.4 C 0 km/h
1319 10-03-2014 20:50:00 8.3 C 5.98 g/m*3 8.3 C 0 km/h
1320 10-03-2014 20:55:00 8.2 C 5.95 g/m*3 8.2 C 0 km/h
1321 10-03-2014 21:00:00 8.2 C 5.86 g/m*3 8.2 C 1.6 km/h
1322 10-03-2014 21:05:00 8.2 C 5.95 g/m*3 8.2 C 1.6 km/h
1323 10-03-2014 21:10:00 8 C 5.79 g/m*3 8 C 0 km/h
1324 10-03-2014 21:15:00 7.8 C 5.71 g/m*3 7.8 C 0 km/h
1325 10-03-2014 21:20:00 7.7 C 5.76 g/m*3 7.7 C 1.6 km/h
Sensor: Nr:Datum:Temp:Abs-Feuchte:Windchill:Wind:
Aussen-T/F 1326 10-03-2014 21:25:00 7.6 C 5.72 g/m*3 7.6 C 0 km/h
1327 10-03-2014 21:30:00 7.6 C 5.72 g/m*3 7.6 C 0 km/h
1328 10-03-2014 21:35:00 7.5 C 5.52 g/m*3 7.5 C 3.2 km/h
1329 10-03-2014 21:40:00 7.4 C 5.65 g/m*3 7.4 C 1.6 km/h
1330 10-03-2014 21:45:00 7.3 C 5.77 g/m*3 7.3 C 0 km/h
1331 10-03-2014 21:50:00 7.1 C 5.85 g/m*3 7.1 C 0 km/h
1332 10-03-2014 21:55:00 7 C 5.81 g/m*3 7 C 0 km/h
1333 10-03-2014 22:00:00 6.9 C 5.62 g/m*3 6.9 C 0 km/h
1334 10-03-2014 22:05:00 6.9 C 5.62 g/m*3 6.9 C 0 km/h
1335 10-03-2014 22:10:00 6.9 C 5.7 g/m*3 6.9 C 0 km/h
1336 10-03-2014 22:15:00 6.9 C 5.7 g/m*3 6.9 C 0 km/h
1337 10-03-2014 22:20:00 6.8 C 5.66 g/m*3 6.8 C 0 km/h
1338 10-03-2014 22:25:00 6.8 C 5.74 g/m*3 6.8 C 0 km/h
1339 10-03-2014 22:30:00 6.7 C 5.7 g/m*3 6.7 C 3.2 km/h
1340 10-03-2014 22:35:00 6.6 C 5.66 g/m*3 6.6 C 1.6 km/h
1341 10-03-2014 22:40:00 6.4 C 5.66 g/m*3 6.4 C 0 km/h
1342 10-03-2014 22:45:00 6.3 C 5.7 g/m*3 6.3 C 0 km/h
1343 10-03-2014 22:50:00 6.3 C 5.7 g/m*3 6.3 C 0 km/h
1344 10-03-2014 22:55:00 6.3 C 5.63 g/m*3 6.3 C 3.2 km/h
1345 10-03-2014 23:00:00 6.2 C 5.59 g/m*3 6.2 C 0 km/h
1346 10-03-2014 23:05:00 6.2 C 5.59 g/m*3 6.2 C 0 km/h
1347 10-03-2014 23:10:00 6.2 C 5.59 g/m*3 6.2 C 1.6 km/h
1348 10-03-2014 23:15:00 6.1 C 5.55 g/m*3 6.1 C 1.6 km/h
1349 10-03-2014 23:20:00 6 C 5.59 g/m*3 6 C 0 km/h
1350 10-03-2014 23:25:00 5.9 C 5.55 g/m*3 5.9 C 0 km/h
Sensor: Nr:Datum:Temp:Abs-Feuchte:Windchill:Wind:
Aussen-T/F 1351 10-03-2014 23:30:00 5.8 C 5.59 g/m*3 5.8 C 1.6 km/h
1352 10-03-2014 23:35:00 5.6 C 5.51 g/m*3 5.6 C 0 km/h
1353 10-03-2014 23:40:00 5.4 C 5.51 g/m*3 5.4 C 1.6 km/h
1354 10-03-2014 23:45:00 5.3 C 5.54 g/m*3 5.3 C 0 km/h
1355 10-03-2014 23:50:00 5.1 C 5.47 g/m*3 5.1 C 0 km/h
1356 10-03-2014 23:55:00 4.8 C 5.5 g/m*3 4.8 C 0 km/h
1357 11-03-2014 00:00:00 4.8 C 5.57 g/m*3 4.8 C 0 km/h
1358 11-03-2014 00:05:00 4.8 C 5.63 g/m*3 4.8 C 0 km/h
1359 11-03-2014 00:10:00 4.9 C 5.6 g/m*3 4.9 C 0 km/h
1360 11-03-2014 00:15:00 4.9 C 5.6 g/m*3 4.9 C 0 km/h
1361 11-03-2014 00:20:00 4.8 C 5.57 g/m*3 4.8 C 0 km/h
1362 11-03-2014 00:25:00 4.8 C 5.57 g/m*3 4.8 C 0 km/h
1363 11-03-2014 00:30:00 4.8 C 5.57 g/m*3 4.8 C 0 km/h
1364 11-03-2014 00:35:00 4.7 C 5.53 g/m*3 4.7 C 0 km/h
1365 11-03-2014 00:40:00 4.6 C 5.56 g/m*3 4.6 C 0 km/h
1366 11-03-2014 00:45:00 4.6 C 5.49 g/m*3 4.6 C 0 km/h
1367 11-03-2014 00:50:00 4.6 C 5.49 g/m*3 4.6 C 0 km/h
1368 11-03-2014 00:55:00 4.6 C 5.49 g/m*3 4.6 C 0 km/h
1369 11-03-2014 01:00:00 4.5 C 5.46 g/m*3 4.5 C 0 km/h
1370 11-03-2014 01:05:00 4.3 C 5.38 g/m*3 4.3 C 0 km/h
1371 11-03-2014 01:10:00 4.2 C 5.48 g/m*3 4.2 C 0 km/h
1372 11-03-2014 01:15:00 4.1 C 5.44 g/m*3 4.1 C 0 km/h
1373 11-03-2014 01:20:00 3.9 C 5.37 g/m*3 3.9 C 0 km/h
1374 11-03-2014 01:25:00 3.8 C 5.33 g/m*3 3.8 C 0 km/h
1375 11-03-2014 01:30:00 3.8 C 5.33 g/m*3 3.8 C 0 km/h
Sensor: Nr:Datum:Temp:Abs-Feuchte:Windchill:Wind:
Aussen-T/F 1376 11-03-2014 01:35:00 3.7 C 5.36 g/m*3 3.7 C 0 km/h
1377 11-03-2014 01:40:00 3.7 C 5.42 g/m*3 3.7 C 1.6 km/h
1378 11-03-2014 01:45:00 3.8 C 5.52 g/m*3 3.8 C 0 km/h
1379 11-03-2014 01:50:00 3.9 C 5.49 g/m*3 3.9 C 1.6 km/h
1380 11-03-2014 01:55:00 3.9 C 5.43 g/m*3 3.9 C 0 km/h
1381 11-03-2014 02:00:00 3.9 C 5.43 g/m*3 3.9 C 0 km/h
1382 11-03-2014 02:05:00 3.9 C 5.37 g/m*3 3.9 C 0 km/h
1383 11-03-2014 02:10:00 3.8 C 5.4 g/m*3 3.8 C 0 km/h
1384 11-03-2014 02:15:00 3.6 C 5.32 g/m*3 3.6 C 0 km/h
1385 11-03-2014 02:20:00 3.5 C 5.35 g/m*3 3.5 C 1.6 km/h
1386 11-03-2014 02:25:00 3.5 C 5.41 g/m*3 3.5 C 1.6 km/h
1387 11-03-2014 02:30:00 3.6 C 5.51 g/m*3 3.6 C 0 km/h
1388 11-03-2014 02:35:00 3.6 C 5.51 g/m*3 3.6 C 1.6 km/h
1389 11-03-2014 02:40:00 3.6 C 5.45 g/m*3 3.6 C 0 km/h
1390 11-03-2014 02:45:00 3.6 C 5.45 g/m*3 3.6 C 0 km/h
1391 11-03-2014 02:50:00 3.6 C 5.45 g/m*3 3.6 C 0 km/h
1392 11-03-2014 02:55:00 3.6 C 5.51 g/m*3 3.6 C 0 km/h
1393 11-03-2014 03:00:00 3.6 C 5.51 g/m*3 3.6 C 0 km/h
1394 11-03-2014 03:05:00 3.6 C 5.51 g/m*3 3.6 C 0 km/h
1395 11-03-2014 03:10:00 3.6 C 5.51 g/m*3 3.6 C 1.6 km/h
1396 11-03-2014 03:15:00 3.5 C 5.47 g/m*3 3.5 C 0 km/h
1397 11-03-2014 03:20:00 3.4 C 5.44 g/m*3 3.4 C 0 km/h
1398 11-03-2014 03:25:00 3.4 C 5.37 g/m*3 3.4 C 0 km/h
1399 11-03-2014 03:30:00 3.3 C 5.34 g/m*3 3.3 C 0 km/h
1400 11-03-2014 03:35:00 3.3 C 5.4 g/m*3 3.3 C 0 km/h
Sensor: Nr:Datum:Temp:Abs-Feuchte:Windchill:Wind:
Aussen-T/F 1401 11-03-2014 03:40:00 3.3 C 5.4 g/m*3 3.3 C 3.2 km/h
1402 11-03-2014 03:45:00 3.3 C 5.4 g/m*3 3.3 C 0 km/h
1403 11-03-2014 03:50:00 3.3 C 5.4 g/m*3 3.3 C 1.6 km/h
1404 11-03-2014 03:55:00 3.3 C 5.46 g/m*3 3.3 C 0 km/h
1405 11-03-2014 04:00:00 3.3 C 5.4 g/m*3 3.3 C 0 km/h
1406 11-03-2014 04:05:00 3.3 C 5.4 g/m*3 3.3 C 0 km/h
1407 11-03-2014 04:10:00 3.3 C 5.46 g/m*3 3.3 C 0 km/h
1408 11-03-2014 04:15:00 3.2 C 5.36 g/m*3 3.2 C 0 km/h
1409 11-03-2014 04:20:00 3.2 C 5.36 g/m*3 3.2 C 0 km/h
1410 11-03-2014 04:25:00 3.1 C 5.39 g/m*3 3.1 C 0 km/h
1411 11-03-2014 04:30:00 3.1 C 5.39 g/m*3 3.1 C 0 km/h
1412 11-03-2014 04:35:00 3.1 C 5.39 g/m*3 3.1 C 0 km/h
1413 11-03-2014 04:40:00 2.9 C 5.26 g/m*3 2.9 C 0 km/h
1414 11-03-2014 04:45:00 2.9 C 5.32 g/m*3 2.9 C 0 km/h
1415 11-03-2014 04:50:00 3 C 5.35 g/m*3 3 C 0 km/h
1416 11-03-2014 04:55:00 3.1 C 5.39 g/m*3 3.1 C 0 km/h
1417 11-03-2014 05:00:00 3.1 C 5.39 g/m*3 3.1 C 1.6 km/h
1418 11-03-2014 05:05:00 3.2 C 5.42 g/m*3 3.2 C 0 km/h
1419 11-03-2014 05:10:00 3.3 C 5.46 g/m*3 3.3 C 3.2 km/h
1420 11-03-2014 05:15:00 3.4 C 5.5 g/m*3 3.4 C 4.8 km/h
1421 11-03-2014 05:20:00 3.4 C 5.44 g/m*3 3.4 C 0 km/h
1422 11-03-2014 05:25:00 3.3 C 5.4 g/m*3 3.3 C 0 km/h
1423 11-03-2014 05:30:00 3.2 C 5.36 g/m*3 3.2 C 0 km/h
1424 11-03-2014 05:35:00 3.1 C 5.33 g/m*3 3.1 C 0 km/h
1425 11-03-2014 05:40:00 2.9 C 5.26 g/m*3 2.9 C 0 km/h
Sensor: Nr:Datum:Temp:Abs-Feuchte:Windchill:Wind:
Aussen-T/F 1426 11-03-2014 05:45:00 2.7 C 5.19 g/m*3 2.7 C 0 km/h
1427 11-03-2014 05:50:00 2.6 C 5.21 g/m*3 2.6 C 0 km/h
1428 11-03-2014 05:55:00 2.6 C 5.21 g/m*3 2.6 C 0 km/h
1429 11-03-2014 06:00:00 2.6 C 5.27 g/m*3 2.6 C 0 km/h
1430 11-03-2014 06:05:00 2.5 C 5.17 g/m*3 2.5 C 0 km/h
1431 11-03-2014 06:10:00 2.4 C 5.14 g/m*3 2.4 C 0 km/h
1432 11-03-2014 06:15:00 2.3 C 5.16 g/m*3 2.3 C 0 km/h
1433 11-03-2014 06:20:00 2.3 C 5.22 g/m*3 2.3 C 0 km/h
1434 11-03-2014 06:25:00 2.4 C 5.25 g/m*3 2.4 C 0 km/h
1435 11-03-2014 06:30:00 2.3 C 5.22 g/m*3 2.3 C 0 km/h
1436 11-03-2014 06:35:00 2.3 C 5.22 g/m*3 2.3 C 0 km/h
1437 11-03-2014 06:40:00 2.3 C 5.22 g/m*3 2.3 C 0 km/h
1438 11-03-2014 06:45:00 2.3 C 5.22 g/m*3 2.3 C 0 km/h
1439 11-03-2014 06:50:00 2.2 C 5.13 g/m*3 2.2 C 0 km/h
1440 11-03-2014 06:55:00 2.2 C 5.18 g/m*3 2.2 C 0 km/h
1441 11-03-2014 07:00:00 2.2 C 5.18 g/m*3 2.2 C 0 km/h
1442 11-03-2014 07:05:00 2.3 C 5.22 g/m*3 2.3 C 0 km/h
1443 11-03-2014 07:10:00 2.3 C 5.22 g/m*3 2.3 C 0 km/h
1444 11-03-2014 07:15:00 2.2 C 5.18 g/m*3 2.2 C 0 km/h
1445 11-03-2014 07:20:00 2.2 C 5.18 g/m*3 2.2 C 0 km/h
1446 11-03-2014 07:25:00 2.2 C 5.18 g/m*3 2.2 C 0 km/h
1447 11-03-2014 07:30:00 2.3 C 5.27 g/m*3 2.3 C 0 km/h
1448 11-03-2014 07:35:00 2.4 C 5.31 g/m*3 2.4 C 0 km/h
1449 11-03-2014 07:40:00 2.4 C 5.31 g/m*3 2.4 C 0 km/h
1450 11-03-2014 07:45:00 2.4 C 5.31 g/m*3 2.4 C 0 km/h
Sensor: Nr:Datum:Temp:Abs-Feuchte:Windchill:Wind:
Aussen-T/F 1451 11-03-2014 07:50:00 2.4 C 5.31 g/m*3 2.4 C 0 km/h
1452 11-03-2014 07:55:00 2.4 C 5.31 g/m*3 2.4 C 0 km/h
1453 11-03-2014 08:00:00 2.4 C 5.31 g/m*3 2.4 C 0 km/h
1454 11-03-2014 08:05:00 2.4 C 5.31 g/m*3 2.4 C 0 km/h
1455 11-03-2014 08:10:00 2.5 C 5.35 g/m*3 2.5 C 0 km/h
1456 11-03-2014 08:15:00 2.6 C 5.38 g/m*3 2.6 C 0 km/h
1457 11-03-2014 08:20:00 2.7 C 5.42 g/m*3 2.7 C 0 km/h
1458 11-03-2014 08:25:00 2.7 C 5.42 g/m*3 2.7 C 0 km/h
1459 11-03-2014 08:30:00 2.8 C 5.46 g/m*3 2.8 C 0 km/h
1460 11-03-2014 08:35:00 2.8 C 5.46 g/m*3 2.8 C 0 km/h
1461 11-03-2014 08:40:00 2.9 C 5.49 g/m*3 2.9 C 3.2 km/h
1462 11-03-2014 08:45:00 3 C 5.53 g/m*3 3 C 0 km/h
1463 11-03-2014 08:50:00 3.1 C 5.57 g/m*3 3.1 C 3.2 km/h
1464 11-03-2014 08:55:00 3.7 C 5.92 g/m*3 3.7 C 1.6 km/h
1465 11-03-2014 09:00:00 4.2 C 6.12 g/m*3 4.2 C 1.6 km/h
1466 11-03-2014 09:05:00 4.4 C 6.14 g/m*3 4.4 C 3.2 km/h
1467 11-03-2014 09:10:00 4.7 C 6.26 g/m*3 4.7 C 3.2 km/h
1468 11-03-2014 09:15:00 4.9 C 6.28 g/m*3 4.9 C 3.2 km/h
1469 11-03-2014 09:20:00 5.2 C 6.33 g/m*3 5.2 C 3.2 km/h
1470 11-03-2014 09:25:00 5.4 C 6.42 g/m*3 5.4 C 3.2 km/h
1471 11-03-2014 09:30:00 5.7 C 6.48 g/m*3 5.7 C 0 km/h
1472 11-03-2014 09:35:00 5.9 C 6.49 g/m*3 5.9 C 3.2 km/h
1473 11-03-2014 09:40:00 6.2 C 6.62 g/m*3 6.2 C 3.2 km/h
1474 11-03-2014 09:45:00 6.4 C 6.63 g/m*3 6.4 C 3.2 km/h
1475 11-03-2014 09:50:00 6.6 C 6.72 g/m*3 6.6 C 4.8 km/h
Sensor: Nr:Datum:Temp:Abs-Feuchte:Windchill:Wind:
Aussen-T/F 1476 11-03-2014 09:55:00 6.7 C 6.76 g/m*3 6.7 C 0 km/h
1477 11-03-2014 10:00:00 6.8 C 6.81 g/m*3 6.8 C 0 km/h
1478 11-03-2014 10:05:00 6.7 C 6.69 g/m*3 6.7 C 1.6 km/h
1479 11-03-2014 10:10:00 6.8 C 6.81 g/m*3 6.8 C 3.2 km/h
1480 11-03-2014 10:15:00 6.9 C 6.85 g/m*3 6.9 C 4.8 km/h
1481 11-03-2014 10:20:00 7.1 C 6.86 g/m*3 7.1 C 3.2 km/h
1482 11-03-2014 10:25:00 7.2 C 6.91 g/m*3 7.2 C 1.6 km/h
1483 11-03-2014 10:30:00 7.5 C 6.96 g/m*3 7.5 C 1.6 km/h
1484 11-03-2014 10:35:00 7.7 C 6.97 g/m*3 7.7 C 1.6 km/h
1485 11-03-2014 10:40:00 7.8 C 7.02 g/m*3 7.8 C 1.6 km/h
1486 11-03-2014 10:45:00 7.9 C 7.06 g/m*3 7.9 C 3.2 km/h
1487 11-03-2014 10:50:00 8.1 C 7.16 g/m*3 8.1 C 1.6 km/h
1488 11-03-2014 10:55:00 8.3 C 7.16 g/m*3 8.3 C 3.2 km/h
1489 11-03-2014 11:00:00 8.4 C 7.13 g/m*3 8.4 C 1.6 km/h
1490 11-03-2014 11:05:00 8.7 C 7.35 g/m*3 8.7 C 3.2 km/h
1491 11-03-2014 11:10:00 8.9 C 7.27 g/m*3 8.9 C 4.8 km/h
1492 11-03-2014 11:15:00 9.2 C 7.23 g/m*3 9.2 C 3.2 km/h
1493 11-03-2014 11:20:00 9.3 C 7.28 g/m*3 9.3 C 1.6 km/h
1494 11-03-2014 11:25:00 9.6 C 7.24 g/m*3 9.6 C 1.6 km/h
1495 11-03-2014 11:30:00 9.7 C 7.28 g/m*3 9.7 C 3.2 km/h
1496 11-03-2014 11:35:00 9.9 C 7.28 g/m*3 9.9 C 4.8 km/h
1497 11-03-2014 11:40:00 10.1 C 7.47 g/m*3 10.1 C 0 km/h
1498 11-03-2014 11:45:00 10.3 C 7.47 g/m*3 10.3 C 3.2 km/h
1499 11-03-2014 11:50:00 10.6 C 7.42 g/m*3 10.6 C 1.6 km/h
1500 11-03-2014 11:55:00 10.8 C 7.41 g/m*3 10.8 C 1.6 km/h
Sensor: Nr:Datum:Temp:Abs-Feuchte:Windchill:Wind:
Aussen-T/F 1501 11-03-2014 12:00:00 11 C 7.61 g/m*3 11 C 3.2 km/h
1502 11-03-2014 12:05:00 11.2 C 7.7 g/m*3 11.2 C 4.8 km/h
1503 11-03-2014 12:10:00 11.5 C 7.75 g/m*3 11.5 C 3.2 km/h
1504 11-03-2014 12:15:00 11.8 C 7.79 g/m*3 11.8 C 4.8 km/h
1505 11-03-2014 12:20:00 12.1 C 7.72 g/m*3 12.1 C 1.6 km/h
1506 11-03-2014 12:25:00 12.6 C 7.97 g/m*3 12.6 C 4.8 km/h
1507 11-03-2014 12:30:00 13 C 8.05 g/m*3 13 C 3.2 km/h
1508 11-03-2014 12:35:00 13.3 C 7.86 g/m*3 13.3 C 4.8 km/h
1509 11-03-2014 12:40:00 13.7 C 8.05 g/m*3 13.7 C 3.2 km/h
1510 11-03-2014 12:45:00 14.1 C 8.01 g/m*3 14.1 C 3.2 km/h
1511 11-03-2014 12:50:00 14.3 C 8.35 g/m*3 14.3 C 3.2 km/h
1512 11-03-2014 12:55:00 14.6 C 8.01 g/m*3 14.6 C 1.6 km/h
1513 11-03-2014 13:00:00 14.9 C 8.28 g/m*3 14.9 C 4.8 km/h
1514 11-03-2014 13:05:00 14.9 C 7.65 g/m*3 14.9 C 3.2 km/h
1515 11-03-2014 13:10:00 14.9 C 7.65 g/m*3 14.9 C 4.8 km/h
1516 11-03-2014 13:15:00 15.1 C 8 g/m*3 15.1 C 4.8 km/h
1517 11-03-2014 13:20:00 15.3 C 7.97 g/m*3 15.3 C 3.2 km/h
1518 11-03-2014 13:25:00 15.4 C 7.88 g/m*3 15.4 C 4.8 km/h
1519 11-03-2014 13:30:00 15.4 C 8.01 g/m*3 15.4 C 3.2 km/h
1520 11-03-2014 13:35:00 15.4 C 8.15 g/m*3 15.4 C 3.2 km/h
1521 11-03-2014 13:40:00 15.5 C 8.46 g/m*3 15.5 C 3.2 km/h
1522 11-03-2014 13:45:00 15.6 C 7.71 g/m*3 15.6 C 1.6 km/h
1523 11-03-2014 13:50:00 15.5 C 7.93 g/m*3 15.5 C 1.6 km/h
1524 11-03-2014 13:55:00 15.6 C 7.98 g/m*3 15.6 C 1.6 km/h
1525 11-03-2014 14:00:00 15.6 C 7.85 g/m*3 15.6 C 4.8 km/h
Sensor: Nr:Datum:Temp:Abs-Feuchte:Windchill:Wind:
Aussen-T/F 1526 11-03-2014 14:05:00 15.7 C 7.89 g/m*3 15.7 C 3.2 km/h
1527 11-03-2014 14:10:00 15.8 C 7.81 g/m*3 15.8 C 3.2 km/h
1528 11-03-2014 14:15:00 15.9 C 7.72 g/m*3 15.9 C 1.6 km/h
1529 11-03-2014 14:20:00 16 C 7.63 g/m*3 16 C 8.1 km/h
1530 11-03-2014 14:25:00 16.2 C 7.86 g/m*3 16.2 C 4.8 km/h
1531 11-03-2014 14:30:00 16.3 C 8.05 g/m*3 16.3 C 4.8 km/h
1532 11-03-2014 14:35:00 16.4 C 7.68 g/m*3 16.4 C 4.8 km/h
1533 11-03-2014 14:40:00 16.6 C 7.77 g/m*3 16.6 C 6.4 km/h
1534 11-03-2014 14:45:00 16.8 C 7.58 g/m*3 16.8 C 3.2 km/h
1535 11-03-2014 14:50:00 17.1 C 7.86 g/m*3 17.1 C 6.4 km/h
1536 11-03-2014 14:55:00 17.3 C 7.66 g/m*3 17.3 C 3.2 km/h
1537 11-03-2014 15:00:00 17.5 C 7.9 g/m*3 17.5 C 9.7 km/h
1538 11-03-2014 15:05:00 17.6 C 7.95 g/m*3 17.6 C 4.8 km/h
1539 11-03-2014 15:10:00 17.7 C 7.69 g/m*3 17.7 C 4.8 km/h
1540 11-03-2014 15:15:00 17.7 C 7.39 g/m*3 17.7 C 3.2 km/h
1541 11-03-2014 15:20:00 17.9 C 7.94 g/m*3 17.9 C 4.8 km/h
1542 11-03-2014 15:25:00 17.9 C 7.48 g/m*3 17.9 C 8.1 km/h
1543 11-03-2014 15:30:00 18 C 7.68 g/m*3 18 C 6.4 km/h
1544 11-03-2014 15:35:00 18.1 C 7.57 g/m*3 18.1 C 6.4 km/h
1545 11-03-2014 15:40:00 18.1 C 7.42 g/m*3 18.1 C 0 km/h
1546 11-03-2014 15:45:00 18.2 C 7.62 g/m*3 18.2 C 4.8 km/h
1547 11-03-2014 15:50:00 18.2 C 7.62 g/m*3 18.2 C 6.4 km/h
1548 11-03-2014 15:55:00 17.9 C 7.79 g/m*3 17.9 C 4.8 km/h
1549 11-03-2014 16:00:00 17.6 C 7.8 g/m*3 17.6 C 6.4 km/h
1550 11-03-2014 16:05:00 17.4 C 7.85 g/m*3 17.4 C 6.4 km/h
Sensor: Nr:Datum:Temp:Abs-Feuchte:Windchill:Wind:
Aussen-T/F 1551 11-03-2014 16:10:00 17.3 C 7.66 g/m*3 17.3 C 6.4 km/h
1552 11-03-2014 16:15:00 17.3 C 8.1 g/m*3 17.3 C 6.4 km/h
1553 11-03-2014 16:20:00 17.2 C 7.76 g/m*3 17.2 C 4.8 km/h
1554 11-03-2014 16:25:00 17.2 C 7.91 g/m*3 17.2 C 8.1 km/h
1555 11-03-2014 16:30:00 17.1 C 8.15 g/m*3 17.1 C 11.3 km/h
1556 11-03-2014 16:35:00 16.9 C 8.05 g/m*3 16.9 C 9.7 km/h
1557 11-03-2014 16:40:00 16.8 C 8.15 g/m*3 16.8 C 6.4 km/h
1558 11-03-2014 16:45:00 16.8 C 8.15 g/m*3 16.8 C 4.8 km/h
1559 11-03-2014 16:50:00 16.7 C 8.38 g/m*3 16.7 C 9.7 km/h
1560 11-03-2014 16:55:00 16.6 C 8.19 g/m*3 16.6 C 4.8 km/h
1561 11-03-2014 17:00:00 16.5 C 8.14 g/m*3 16.5 C 6.4 km/h
1562 11-03-2014 17:05:00 16.4 C 8.1 g/m*3 16.4 C 4.8 km/h
1563 11-03-2014 17:10:00 16.3 C 8.32 g/m*3 16.3 C 4.8 km/h
1564 11-03-2014 17:15:00 15.8 C 8.35 g/m*3 15.8 C 3.2 km/h
1565 11-03-2014 17:20:00 15.3 C 8.23 g/m*3 15.3 C 3.2 km/h
1566 11-03-2014 17:25:00 15.2 C 8.18 g/m*3 15.2 C 3.2 km/h
1567 11-03-2014 17:30:00 14.9 C 8.28 g/m*3 14.9 C 1.6 km/h
1568 11-03-2014 17:35:00 14.6 C 8.26 g/m*3 14.6 C 3.2 km/h
1569 11-03-2014 17:40:00 14 C 8.2 g/m*3 14 C 4.8 km/h
1570 11-03-2014 17:45:00 13.7 C 8.29 g/m*3 13.7 C 3.2 km/h
1571 11-03-2014 17:50:00 13.5 C 8.3 g/m*3 13.5 C 1.6 km/h
1572 11-03-2014 17:55:00 13.2 C 8.15 g/m*3 13.2 C 4.8 km/h
1573 11-03-2014 18:00:00 12.9 C 8.11 g/m*3 12.9 C 4.8 km/h
1574 11-03-2014 18:05:00 12.7 C 8.13 g/m*3 12.7 C 4.8 km/h
1575 11-03-2014 18:10:00 12.4 C 8.09 g/m*3 12.4 C 4.8 km/h
Sensor: Nr:Datum:Temp:Abs-Feuchte:Windchill:Wind:
Aussen-T/F 1576 11-03-2014 18:15:00 12.2 C 8.09 g/m*3 12.2 C 4.8 km/h
1577 11-03-2014 18:20:00 12 C 7.99 g/m*3 12 C 4.8 km/h
1578 11-03-2014 18:25:00 11.9 C 8.05 g/m*3 11.9 C 4.8 km/h
1579 11-03-2014 18:30:00 11.8 C 8 g/m*3 11.8 C 6.4 km/h
1580 11-03-2014 18:35:00 11.9 C 8.05 g/m*3 11.9 C 6.4 km/h
1581 11-03-2014 18:40:00 11.8 C 8 g/m*3 11.8 C 6.4 km/h
1582 11-03-2014 18:45:00 11.7 C 8.05 g/m*3 11.7 C 6.4 km/h
1583 11-03-2014 18:50:00 11.6 C 7.9 g/m*3 11.6 C 3.2 km/h
1584 11-03-2014 18:55:00 11.6 C 7.9 g/m*3 11.6 C 3.2 km/h
1585 11-03-2014 19:00:00 11.5 C 7.95 g/m*3 11.5 C 4.8 km/h
1586 11-03-2014 19:05:00 11.2 C 7.8 g/m*3 11.2 C 6.4 km/h
1587 11-03-2014 19:10:00 10.9 C 7.86 g/m*3 10.41 C 6.4 km/h
1588 11-03-2014 19:15:00 10.8 C 7.81 g/m*3 10.8 C 4.8 km/h
1589 11-03-2014 19:20:00 10.6 C 7.81 g/m*3 10.06 C 6.4 km/h
1590 11-03-2014 19:25:00 10.5 C 7.76 g/m*3 10.5 C 4.8 km/h
1591 11-03-2014 19:30:00 10.4 C 7.81 g/m*3 9.83 C 6.4 km/h
1592 11-03-2014 19:35:00 10.3 C 7.76 g/m*3 10.3 C 4.8 km/h
1593 11-03-2014 19:40:00 10.2 C 7.71 g/m*3 10.2 C 4.8 km/h
1594 11-03-2014 19:45:00 10.1 C 7.75 g/m*3 10.1 C 4.8 km/h
1595 11-03-2014 19:50:00 9.8 C 7.61 g/m*3 9.8 C 4.8 km/h
1596 11-03-2014 19:55:00 9.7 C 7.56 g/m*3 9.7 C 3.2 km/h
1597 11-03-2014 20:00:00 9.6 C 7.51 g/m*3 9.6 C 1.6 km/h
1598 11-03-2014 20:05:00 9.4 C 7.33 g/m*3 9.4 C 1.6 km/h
1599 11-03-2014 20:10:00 9.3 C 7.28 g/m*3 9.3 C 3.2 km/h
1600 11-03-2014 20:15:00 9.2 C 7.23 g/m*3 9.2 C 4.8 km/h
Sensor: Nr:Datum:Temp:Abs-Feuchte:Windchill:Wind:
Aussen-T/F 1601 11-03-2014 20:20:00 9.2 C 7.14 g/m*3 9.2 C 3.2 km/h
1602 11-03-2014 20:25:00 8.9 C 7.1 g/m*3 8.9 C 4.8 km/h
1603 11-03-2014 20:30:00 8.8 C 7.05 g/m*3 8.8 C 3.2 km/h
1604 11-03-2014 20:35:00 8.7 C 6.92 g/m*3 8.7 C 3.2 km/h
1605 11-03-2014 20:40:00 8.7 C 6.92 g/m*3 8.7 C 1.6 km/h
1606 11-03-2014 20:45:00 8.8 C 6.88 g/m*3 8.8 C 1.6 km/h
1607 11-03-2014 20:50:00 8.8 C 6.79 g/m*3 8.8 C 0 km/h
1608 11-03-2014 20:55:00 8.7 C 6.75 g/m*3 8.7 C 3.2 km/h
1609 11-03-2014 21:00:00 8.6 C 6.79 g/m*3 8.6 C 3.2 km/h
1610 11-03-2014 21:05:00 8.6 C 6.87 g/m*3 8.6 C 4.8 km/h
1611 11-03-2014 21:10:00 8.5 C 6.74 g/m*3 8.5 C 0 km/h
1612 11-03-2014 21:15:00 8.4 C 6.7 g/m*3 8.4 C 1.6 km/h
1613 11-03-2014 21:20:00 8.3 C 6.66 g/m*3 8.3 C 0 km/h
1614 11-03-2014 21:25:00 8.3 C 6.66 g/m*3 8.3 C 1.6 km/h
1615 11-03-2014 21:30:00 8.3 C 6.57 g/m*3 8.3 C 4.8 km/h
1616 11-03-2014 21:35:00 8.4 C 6.7 g/m*3 8.4 C 4.8 km/h
1617 11-03-2014 21:40:00 8.5 C 6.66 g/m*3 8.5 C 4.8 km/h
1618 11-03-2014 21:45:00 8.4 C 6.7 g/m*3 8.4 C 1.6 km/h
1619 11-03-2014 21:50:00 8.3 C 6.74 g/m*3 8.3 C 0 km/h
1620 11-03-2014 21:55:00 8.1 C 6.66 g/m*3 8.1 C 0 km/h
1621 11-03-2014 22:00:00 7.9 C 6.57 g/m*3 7.9 C 1.6 km/h
1622 11-03-2014 22:05:00 7.9 C 6.57 g/m*3 7.9 C 1.6 km/h
1623 11-03-2014 22:10:00 7.9 C 6.57 g/m*3 7.9 C 3.2 km/h
1624 11-03-2014 22:15:00 7.8 C 6.53 g/m*3 7.8 C 1.6 km/h
1625 11-03-2014 22:20:00 7.8 C 6.53 g/m*3 7.8 C 1.6 km/h
Sensor: Nr:Datum:Temp:Abs-Feuchte:Windchill:Wind:
Aussen-T/F 1626 11-03-2014 22:25:00 7.7 C 6.49 g/m*3 7.7 C 4.8 km/h
1627 11-03-2014 22:30:00 7.7 C 6.49 g/m*3 7.7 C 1.6 km/h
1628 11-03-2014 22:35:00 7.7 C 6.57 g/m*3 7.7 C 3.2 km/h
1629 11-03-2014 22:40:00 7.6 C 6.44 g/m*3 7.6 C 1.6 km/h
1630 11-03-2014 22:45:00 7.6 C 6.36 g/m*3 7.6 C 3.2 km/h
1631 11-03-2014 22:50:00 7.7 C 6.49 g/m*3 7.7 C 3.2 km/h
1632 11-03-2014 22:55:00 7.7 C 6.41 g/m*3 7.7 C 4.8 km/h
1633 11-03-2014 23:00:00 7.8 C 6.37 g/m*3 7.8 C 3.2 km/h
1634 11-03-2014 23:05:00 7.8 C 6.37 g/m*3 7.8 C 4.8 km/h
1635 11-03-2014 23:10:00 7.8 C 6.28 g/m*3 7.8 C 3.2 km/h
1636 11-03-2014 23:15:00 7.9 C 6.24 g/m*3 7.9 C 4.8 km/h
1637 11-03-2014 23:20:00 8.1 C 6.24 g/m*3 8.1 C 4.8 km/h
1638 11-03-2014 23:25:00 8.3 C 6.24 g/m*3 8.3 C 4.8 km/h
1639 11-03-2014 23:30:00 8.4 C 6.28 g/m*3 8.4 C 4.8 km/h
1640 11-03-2014 23:35:00 8.4 C 6.19 g/m*3 7.11 C 8.1 km/h
1641 11-03-2014 23:40:00 8.3 C 6.24 g/m*3 8.3 C 4.8 km/h
1642 11-03-2014 23:45:00 8.2 C 6.11 g/m*3 8.2 C 3.2 km/h
1643 11-03-2014 23:50:00 8.2 C 6.36 g/m*3 8.2 C 3.2 km/h
1644 11-03-2014 23:55:00 8 C 6.28 g/m*3 7.06 C 6.4 km/h
1645 12-03-2014 00:00:00 7.9 C 6.24 g/m*3 7.9 C 4.8 km/h
1646 12-03-2014 00:05:00 7.6 C 6.2 g/m*3 7.6 C 4.8 km/h
1647 12-03-2014 00:10:00 7.6 C 6.2 g/m*3 7.6 C 4.8 km/h
1648 12-03-2014 00:15:00 7.5 C 6.16 g/m*3 7.5 C 4.8 km/h
1649 12-03-2014 00:20:00 7.4 C 6.12 g/m*3 6.37 C 6.4 km/h
1650 12-03-2014 00:25:00 7.3 C 6.16 g/m*3 7.3 C 4.8 km/h
Sensor: Nr:Datum:Temp:Abs-Feuchte:Windchill:Wind:
Aussen-T/F 1651 12-03-2014 00:30:00 7.2 C 6.12 g/m*3 7.2 C 4.8 km/h
1652 12-03-2014 00:35:00 7.2 C 6.12 g/m*3 7.2 C 4.8 km/h
1653 12-03-2014 00:40:00 7.2 C 6.2 g/m*3 7.2 C 4.8 km/h
1654 12-03-2014 00:45:00 7.2 C 6.2 g/m*3 7.2 C 4.8 km/h
1655 12-03-2014 00:50:00 7.1 C 6.16 g/m*3 7.1 C 4.8 km/h
1656 12-03-2014 00:55:00 7.1 C 6.24 g/m*3 6.02 C 6.4 km/h
1657 12-03-2014 01:00:00 7.1 C 6.16 g/m*3 6.02 C 6.4 km/h
1658 12-03-2014 01:05:00 7 C 6.2 g/m*3 5.9 C 6.4 km/h
1659 12-03-2014 01:10:00 7 C 6.2 g/m*3 7 C 4.8 km/h
1660 12-03-2014 01:15:00 6.9 C 6.16 g/m*3 5.79 C 6.4 km/h
1661 12-03-2014 01:20:00 6.7 C 6.15 g/m*3 6.7 C 4.8 km/h
1662 12-03-2014 01:25:00 6.8 C 6.27 g/m*3 6.8 C 4.8 km/h
1663 12-03-2014 01:30:00 6.7 C 6.23 g/m*3 5.56 C 6.4 km/h
1664 12-03-2014 01:35:00 6.7 C 6.23 g/m*3 5.56 C 6.4 km/h
1665 12-03-2014 01:40:00 6.7 C 6.23 g/m*3 6.7 C 4.8 km/h
1666 12-03-2014 01:45:00 6.7 C 6.23 g/m*3 6.7 C 4.8 km/h
1667 12-03-2014 01:50:00 6.7 C 6.23 g/m*3 6.7 C 4.8 km/h
1668 12-03-2014 01:55:00 6.7 C 6.31 g/m*3 6.7 C 4.8 km/h
1669 12-03-2014 02:00:00 6.6 C 6.34 g/m*3 6.6 C 4.8 km/h
1670 12-03-2014 02:05:00 6.6 C 6.27 g/m*3 6.6 C 4.8 km/h
1671 12-03-2014 02:10:00 6.4 C 6.26 g/m*3 4.75 C 8.1 km/h
1672 12-03-2014 02:15:00 6.4 C 6.26 g/m*3 4.75 C 8.1 km/h
1673 12-03-2014 02:20:00 6.4 C 6.26 g/m*3 6.4 C 4.8 km/h
1674 12-03-2014 02:25:00 6.4 C 6.26 g/m*3 5.21 C 6.4 km/h
1675 12-03-2014 02:30:00 6.4 C 6.26 g/m*3 5.21 C 6.4 km/h
Sensor: Nr:Datum:Temp:Abs-Feuchte:Windchill:Wind:
Aussen-T/F 1676 12-03-2014 02:35:00 6.3 C 6.22 g/m*3 5.1 C 6.4 km/h
1677 12-03-2014 02:40:00 6.3 C 6.29 g/m*3 6.3 C 4.8 km/h
1678 12-03-2014 02:45:00 6.2 C 6.25 g/m*3 4.98 C 6.4 km/h
1679 12-03-2014 02:50:00 6.1 C 6.21 g/m*3 6.1 C 4.8 km/h
1680 12-03-2014 02:55:00 5.9 C 6.2 g/m*3 5.9 C 3.2 km/h
1681 12-03-2014 03:00:00 5.9 C 6.2 g/m*3 5.9 C 4.8 km/h
1682 12-03-2014 03:05:00 5.8 C 6.16 g/m*3 4.52 C 6.4 km/h
1683 12-03-2014 03:10:00 5.8 C 6.16 g/m*3 5.8 C 4.8 km/h
1684 12-03-2014 03:15:00 5.7 C 6.19 g/m*3 4.4 C 6.4 km/h
1685 12-03-2014 03:20:00 5.7 C 6.19 g/m*3 5.7 C 4.8 km/h
1686 12-03-2014 03:25:00 5.7 C 6.19 g/m*3 5.7 C 4.8 km/h
1687 12-03-2014 03:30:00 5.7 C 6.19 g/m*3 4.4 C 6.4 km/h
1688 12-03-2014 03:35:00 5.6 C 6.15 g/m*3 4.29 C 6.4 km/h
1689 12-03-2014 03:40:00 5.5 C 6.11 g/m*3 5.5 C 4.8 km/h
1690 12-03-2014 03:45:00 5.4 C 6.14 g/m*3 4.06 C 6.4 km/h
1691 12-03-2014 03:50:00 5.3 C 6.1 g/m*3 5.3 C 3.2 km/h
1692 12-03-2014 03:55:00 5.2 C 6.13 g/m*3 5.2 C 1.6 km/h
1693 12-03-2014 04:00:00 5 C 6.05 g/m*3 5 C 1.6 km/h
1694 12-03-2014 04:05:00 4.9 C 6.08 g/m*3 4.9 C 1.6 km/h
1695 12-03-2014 04:10:00 4.9 C 6.08 g/m*3 4.9 C 4.8 km/h
1696 12-03-2014 04:15:00 4.9 C 6.01 g/m*3 4.9 C 3.2 km/h
1697 12-03-2014 04:20:00 4.8 C 5.97 g/m*3 4.8 C 3.2 km/h
1698 12-03-2014 04:25:00 4.7 C 5.86 g/m*3 4.7 C 0 km/h
1699 12-03-2014 04:30:00 4.4 C 5.81 g/m*3 4.4 C 0 km/h
1700 12-03-2014 04:35:00 4.3 C 5.84 g/m*3 4.3 C 0 km/h
Sensor: Nr:Datum:Temp:Abs-Feuchte:Windchill:Wind:
Aussen-T/F 1701 12-03-2014 04:40:00 4.2 C 5.8 g/m*3 4.2 C 0 km/h
1702 12-03-2014 04:45:00 4.2 C 5.86 g/m*3 4.2 C 1.6 km/h
1703 12-03-2014 04:50:00 4.2 C 5.86 g/m*3 4.2 C 0 km/h
1704 12-03-2014 04:55:00 4.2 C 5.86 g/m*3 4.2 C 1.6 km/h
1705 12-03-2014 05:00:00 4.2 C 5.86 g/m*3 4.2 C 1.6 km/h
1706 12-03-2014 05:05:00 4.2 C 5.86 g/m*3 4.2 C 0 km/h
1707 12-03-2014 05:10:00 4.1 C 5.82 g/m*3 4.1 C 0 km/h
1708 12-03-2014 05:15:00 3.9 C 5.75 g/m*3 3.9 C 0 km/h
1709 12-03-2014 05:20:00 3.9 C 5.81 g/m*3 3.9 C 0 km/h
1710 12-03-2014 05:25:00 3.9 C 5.81 g/m*3 3.9 C 0 km/h
1711 12-03-2014 05:30:00 3.8 C 5.77 g/m*3 3.8 C 0 km/h
1712 12-03-2014 05:35:00 3.7 C 5.73 g/m*3 3.7 C 0 km/h
1713 12-03-2014 05:40:00 3.6 C 5.69 g/m*3 3.6 C 1.6 km/h
1714 12-03-2014 05:45:00 3.4 C 5.62 g/m*3 3.4 C 1.6 km/h
1715 12-03-2014 05:50:00 3.3 C 5.58 g/m*3 3.3 C 0 km/h
1716 12-03-2014 05:55:00 3.3 C 5.58 g/m*3 3.3 C 0 km/h
1717 12-03-2014 06:00:00 3.2 C 5.54 g/m*3 3.2 C 0 km/h
1718 12-03-2014 06:05:00 3.1 C 5.57 g/m*3 3.1 C 0 km/h
1719 12-03-2014 06:10:00 3.1 C 5.57 g/m*3 3.1 C 0 km/h
1720 12-03-2014 06:15:00 3.1 C 5.57 g/m*3 3.1 C 0 km/h
1721 12-03-2014 06:20:00 3.1 C 5.57 g/m*3 3.1 C 0 km/h
1722 12-03-2014 06:25:00 3 C 5.53 g/m*3 3 C 0 km/h
1723 12-03-2014 06:30:00 3 C 5.59 g/m*3 3 C 0 km/h
1724 12-03-2014 06:35:00 2.9 C 5.55 g/m*3 2.9 C 0 km/h
1725 12-03-2014 06:40:00 2.8 C 5.51 g/m*3 2.8 C 1.6 km/h
Sensor: Nr:Datum:Temp:Abs-Feuchte:Windchill:Wind:
Aussen-T/F 1726 12-03-2014 06:45:00 2.8 C 5.51 g/m*3 2.8 C 0 km/h
1727 12-03-2014 06:50:00 2.8 C 5.51 g/m*3 2.8 C 0 km/h
1728 12-03-2014 06:55:00 2.8 C 5.51 g/m*3 2.8 C 0 km/h
1729 12-03-2014 07:00:00 2.7 C 5.48 g/m*3 2.7 C 0 km/h
1730 12-03-2014 07:05:00 2.7 C 5.48 g/m*3 2.7 C 0 km/h
1731 12-03-2014 07:10:00 2.7 C 5.48 g/m*3 2.7 C 0 km/h
1732 12-03-2014 07:15:00 2.6 C 5.44 g/m*3 2.6 C 0 km/h
1733 12-03-2014 07:20:00 2.7 C 5.54 g/m*3 2.7 C 0 km/h
1734 12-03-2014 07:25:00 2.7 C 5.54 g/m*3 2.7 C 0 km/h
1735 12-03-2014 07:30:00 2.6 C 5.5 g/m*3 2.6 C 0 km/h
1736 12-03-2014 07:35:00 2.6 C 5.5 g/m*3 2.6 C 0 km/h
1737 12-03-2014 07:40:00 2.6 C 5.5 g/m*3 2.6 C 0 km/h
1738 12-03-2014 07:45:00 2.6 C 5.5 g/m*3 2.6 C 0 km/h
1739 12-03-2014 07:50:00 2.7 C 5.54 g/m*3 2.7 C 0 km/h
1740 12-03-2014 07:55:00 2.8 C 5.57 g/m*3 2.8 C 0 km/h
1741 12-03-2014 08:00:00 2.9 C 5.61 g/m*3 2.9 C 1.6 km/h
1742 12-03-2014 08:05:00 2.9 C 5.61 g/m*3 2.9 C 0 km/h
1743 12-03-2014 08:10:00 2.9 C 5.61 g/m*3 2.9 C 0 km/h
1744 12-03-2014 08:15:00 2.9 C 5.61 g/m*3 2.9 C 0 km/h
1745 12-03-2014 08:20:00 2.9 C 5.61 g/m*3 2.9 C 1.6 km/h
1746 12-03-2014 08:25:00 2.9 C 5.61 g/m*3 2.9 C 0 km/h
1747 12-03-2014 08:30:00 2.9 C 5.61 g/m*3 2.9 C 0 km/h
1748 12-03-2014 08:35:00 3 C 5.65 g/m*3 3 C 0 km/h
1749 12-03-2014 08:40:00 3.1 C 5.69 g/m*3 3.1 C 0 km/h
1750 12-03-2014 08:45:00 3.1 C 5.69 g/m*3 3.1 C 0 km/h
Sensor: Nr:Datum:Temp:Abs-Feuchte:Windchill:Wind:
Aussen-T/F 1751 12-03-2014 08:50:00 3.2 C 5.79 g/m*3 3.2 C 0 km/h
1752 12-03-2014 08:55:00 3.3 C 5.82 g/m*3 3.3 C 0 km/h
1753 12-03-2014 09:00:00 3.4 C 5.86 g/m*3 3.4 C 0 km/h
1754 12-03-2014 09:05:00 3.5 C 5.9 g/m*3 3.5 C 0 km/h
1755 12-03-2014 09:10:00 3.6 C 5.94 g/m*3 3.6 C 0 km/h
1756 12-03-2014 09:15:00 3.7 C 5.98 g/m*3 3.7 C 0 km/h
1757 12-03-2014 09:20:00 3.8 C 6.02 g/m*3 3.8 C 0 km/h
1758 12-03-2014 09:25:00 3.9 C 6.06 g/m*3 3.9 C 0 km/h
1759 12-03-2014 09:30:00 4.2 C 6.19 g/m*3 4.2 C 0 km/h
1760 12-03-2014 09:35:00 4.3 C 6.23 g/m*3 4.3 C 0 km/h
1761 12-03-2014 09:40:00 4.8 C 6.44 g/m*3 4.8 C 0 km/h
1762 12-03-2014 09:45:00 5.2 C 6.68 g/m*3 5.2 C 0 km/h
1763 12-03-2014 09:50:00 5.5 C 6.81 g/m*3 5.5 C 0 km/h
1764 12-03-2014 09:55:00 5.8 C 6.95 g/m*3 5.8 C 0 km/h
1765 12-03-2014 10:00:00 6 C 6.97 g/m*3 6 C 0 km/h
1766 12-03-2014 10:05:00 6.2 C 7.06 g/m*3 6.2 C 0 km/h
1767 12-03-2014 10:10:00 6.4 C 7.15 g/m*3 6.4 C 0 km/h
1768 12-03-2014 10:15:00 6.7 C 7.22 g/m*3 6.7 C 0 km/h
1769 12-03-2014 10:20:00 7 C 7.36 g/m*3 7 C 0 km/h
1770 12-03-2014 10:25:00 7.2 C 7.3 g/m*3 7.2 C 0 km/h
1771 12-03-2014 10:30:00 7.4 C 7.32 g/m*3 7.4 C 1.6 km/h
1772 12-03-2014 10:35:00 7.6 C 7.41 g/m*3 7.6 C 0 km/h
1773 12-03-2014 10:40:00 7.8 C 7.43 g/m*3 7.8 C 0 km/h
1774 12-03-2014 10:45:00 7.9 C 7.39 g/m*3 7.9 C 0 km/h
1775 12-03-2014 10:50:00 8.2 C 7.45 g/m*3 8.2 C 0 km/h
Sensor: Nr:Datum:Temp:Abs-Feuchte:Windchill:Wind:
Aussen-T/F 1776 12-03-2014 10:55:00 8.4 C 7.47 g/m*3 8.4 C 0 km/h
1777 12-03-2014 11:00:00 8.7 C 7.52 g/m*3 8.7 C 3.2 km/h
1778 12-03-2014 11:05:00 8.9 C 7.62 g/m*3 8.9 C 1.6 km/h
1779 12-03-2014 11:10:00 9.2 C 7.5 g/m*3 9.2 C 1.6 km/h
1780 12-03-2014 11:15:00 9.5 C 7.55 g/m*3 9.5 C 1.6 km/h
1781 12-03-2014 11:20:00 9.8 C 7.33 g/m*3 9.8 C 3.2 km/h
1782 12-03-2014 11:25:00 10.2 C 7.52 g/m*3 10.2 C 1.6 km/h
1783 12-03-2014 11:30:00 10.6 C 7.61 g/m*3 10.6 C 3.2 km/h
1784 12-03-2014 11:35:00 10.8 C 7.22 g/m*3 10.8 C 4.8 km/h
1785 12-03-2014 11:40:00 11.3 C 7.34 g/m*3 11.3 C 4.8 km/h
1786 12-03-2014 11:45:00 11.8 C 7.16 g/m*3 11.8 C 3.2 km/h
1787 12-03-2014 11:50:00 12.2 C 7.01 g/m*3 12.2 C 3.2 km/h
1788 12-03-2014 11:55:00 12.6 C 7.08 g/m*3 12.6 C 3.2 km/h
1789 12-03-2014 12:00:00 12.9 C 7.33 g/m*3 12.9 C 3.2 km/h
1790 12-03-2014 12:05:00 13.2 C 7.58 g/m*3 13.2 C 3.2 km/h
1791 12-03-2014 12:10:00 13.5 C 7.37 g/m*3 13.5 C 6.4 km/h
1792 12-03-2014 12:15:00 13.9 C 7.67 g/m*3 13.9 C 3.2 km/h
1793 12-03-2014 12:20:00 14.3 C 7.37 g/m*3 14.3 C 3.2 km/h
1794 12-03-2014 12:25:00 14.7 C 7.43 g/m*3 14.7 C 4.8 km/h
1795 12-03-2014 12:30:00 15.2 C 7.53 g/m*3 15.2 C 3.2 km/h
1796 12-03-2014 12:35:00 15.7 C 8.03 g/m*3 15.7 C 3.2 km/h
1797 12-03-2014 12:40:00 16 C 7.9 g/m*3 16 C 3.2 km/h
1798 12-03-2014 12:45:00 16.2 C 7.31 g/m*3 16.2 C 3.2 km/h
1799 12-03-2014 12:50:00 16.5 C 7.3 g/m*3 16.5 C 6.4 km/h
1800 12-03-2014 12:55:00 16.6 C 7.35 g/m*3 16.6 C 8.1 km/h
Sensor: Nr:Datum:Temp:Abs-Feuchte:Windchill:Wind:
Aussen-T/F 1801 12-03-2014 13:00:00 16.7 C 7.11 g/m*3 16.7 C 8.1 km/h
1802 12-03-2014 13:05:00 16.8 C 7.15 g/m*3 16.8 C 6.4 km/h
1803 12-03-2014 13:10:00 17 C 7.09 g/m*3 17 C 6.4 km/h
1804 12-03-2014 13:15:00 17.2 C 7.18 g/m*3 17.2 C 4.8 km/h
1805 12-03-2014 13:20:00 17.3 C 7.22 g/m*3 17.3 C 6.4 km/h
1806 12-03-2014 13:25:00 17.3 C 7.07 g/m*3 17.3 C 4.8 km/h
1807 12-03-2014 13:30:00 17.3 C 6.63 g/m*3 17.3 C 4.8 km/h
1808 12-03-2014 13:35:00 17.3 C 6.78 g/m*3 17.3 C 4.8 km/h
1809 12-03-2014 13:40:00 17.3 C 6.78 g/m*3 17.3 C 3.2 km/h
1810 12-03-2014 13:45:00 17.3 C 6.63 g/m*3 17.3 C 6.4 km/h
1811 12-03-2014 13:50:00 17.3 C 6.63 g/m*3 17.3 C 3.2 km/h
1812 12-03-2014 13:55:00 17.3 C 6.48 g/m*3 17.3 C 4.8 km/h
1813 12-03-2014 14:00:00 17.3 C 6.48 g/m*3 17.3 C 6.4 km/h
1814 12-03-2014 14:05:00 17.3 C 6.78 g/m*3 17.3 C 6.4 km/h
1815 12-03-2014 14:10:00 17.4 C 6.67 g/m*3 17.4 C 6.4 km/h
1816 12-03-2014 14:15:00 17.4 C 6.22 g/m*3 17.4 C 6.4 km/h
1817 12-03-2014 14:20:00 17.4 C 6.37 g/m*3 17.4 C 8.1 km/h
1818 12-03-2014 14:25:00 17.5 C 6.56 g/m*3 17.5 C 6.4 km/h
1819 12-03-2014 14:30:00 17.6 C 6.6 g/m*3 17.6 C 4.8 km/h
1820 12-03-2014 14:35:00 17.7 C 6.49 g/m*3 17.7 C 4.8 km/h
1821 12-03-2014 14:40:00 17.8 C 6.98 g/m*3 17.8 C 4.8 km/h
1822 12-03-2014 14:45:00 17.9 C 6.11 g/m*3 17.9 C 4.8 km/h
1823 12-03-2014 14:50:00 18.1 C 6.33 g/m*3 18.1 C 6.4 km/h
1824 12-03-2014 14:55:00 18.3 C 6.88 g/m*3 18.3 C 8.1 km/h
1825 12-03-2014 15:00:00 18.4 C 6.45 g/m*3 18.4 C 4.8 km/h
Sensor: Nr:Datum:Temp:Abs-Feuchte:Windchill:Wind:
Aussen-T/F 1826 12-03-2014 15:05:00 18.6 C 6.53 g/m*3 18.6 C 6.4 km/h
1827 12-03-2014 15:10:00 18.7 C 6.24 g/m*3 18.7 C 8.1 km/h
1828 12-03-2014 15:15:00 18.7 C 5.92 g/m*3 18.7 C 6.4 km/h
1829 12-03-2014 15:20:00 18.7 C 5.92 g/m*3 18.7 C 9.7 km/h
1830 12-03-2014 15:25:00 18.8 C 6.12 g/m*3 18.8 C 6.4 km/h
1831 12-03-2014 15:30:00 19 C 5.87 g/m*3 19 C 6.4 km/h
1832 12-03-2014 15:35:00 19.1 C 5.74 g/m*3 19.1 C 9.7 km/h
1833 12-03-2014 15:40:00 19.2 C 6.43 g/m*3 19.2 C 4.8 km/h
1834 12-03-2014 15:45:00 19.2 C 6.1 g/m*3 19.2 C 6.4 km/h
1835 12-03-2014 15:50:00 19.2 C 5.94 g/m*3 19.2 C 6.4 km/h
1836 12-03-2014 15:55:00 19.1 C 5.74 g/m*3 19.1 C 3.2 km/h
1837 12-03-2014 16:00:00 18.9 C 5.83 g/m*3 18.9 C 8.1 km/h
1838 12-03-2014 16:05:00 18.7 C 6.24 g/m*3 18.7 C 3.2 km/h
1839 12-03-2014 16:10:00 18.3 C 5.94 g/m*3 18.3 C 3.2 km/h
1840 12-03-2014 16:15:00 18.2 C 5.6 g/m*3 18.2 C 3.2 km/h
1841 12-03-2014 16:20:00 18.1 C 6.8 g/m*3 18.1 C 1.6 km/h
1842 12-03-2014 16:25:00 17.4 C 6.52 g/m*3 17.4 C 1.6 km/h
1843 12-03-2014 16:30:00 17.1 C 6.11 g/m*3 17.1 C 3.2 km/h
1844 12-03-2014 16:35:00 17 C 6.66 g/m*3 17 C 1.6 km/h
1845 12-03-2014 16:40:00 16.7 C 5.68 g/m*3 16.7 C 3.2 km/h
1846 12-03-2014 16:45:00 16.7 C 6.82 g/m*3 16.7 C 3.2 km/h
1847 12-03-2014 16:50:00 16.4 C 5.86 g/m*3 16.4 C 6.4 km/h
1848 12-03-2014 16:55:00 16.6 C 6.36 g/m*3 16.6 C 4.8 km/h
1849 12-03-2014 17:00:00 16.4 C 6.42 g/m*3 16.4 C 3.2 km/h
1850 12-03-2014 17:05:00 16.4 C 6.84 g/m*3 16.4 C 3.2 km/h
Sensor: Nr:Datum:Temp:Abs-Feuchte:Windchill:Wind:
Aussen-T/F 1851 12-03-2014 17:10:00 16.1 C 6.85 g/m*3 16.1 C 1.6 km/h
1852 12-03-2014 17:15:00 15.7 C 6.69 g/m*3 15.7 C 4.8 km/h
1853 12-03-2014 17:20:00 15.4 C 6.57 g/m*3 15.4 C 4.8 km/h
1854 12-03-2014 17:25:00 15.2 C 6.88 g/m*3 15.2 C 6.4 km/h
1855 12-03-2014 17:30:00 14.9 C 7.01 g/m*3 14.9 C 6.4 km/h
1856 12-03-2014 17:35:00 14.7 C 6.92 g/m*3 14.7 C 6.4 km/h
1857 12-03-2014 17:40:00 14.5 C 6.84 g/m*3 14.5 C 4.8 km/h
1858 12-03-2014 17:45:00 14.2 C 6.84 g/m*3 14.2 C 4.8 km/h
1859 12-03-2014 17:50:00 14.1 C 6.92 g/m*3 14.1 C 4.8 km/h
1860 12-03-2014 17:55:00 13.8 C 6.67 g/m*3 13.8 C 6.4 km/h
1861 12-03-2014 18:00:00 13.7 C 6.63 g/m*3 13.7 C 6.4 km/h
1862 12-03-2014 18:05:00 13.4 C 6.63 g/m*3 13.4 C 6.4 km/h
1863 12-03-2014 18:10:00 13.2 C 6.54 g/m*3 13.2 C 6.4 km/h
1864 12-03-2014 18:15:00 12.9 C 6.42 g/m*3 12.9 C 6.4 km/h
1865 12-03-2014 18:20:00 12.6 C 6.42 g/m*3 12.6 C 6.4 km/h
1866 12-03-2014 18:25:00 12.4 C 6.45 g/m*3 12.4 C 6.4 km/h
1867 12-03-2014 18:30:00 12.2 C 6.47 g/m*3 12.2 C 8.1 km/h
1868 12-03-2014 18:35:00 12 C 6.39 g/m*3 12 C 8.1 km/h
1869 12-03-2014 18:40:00 11.9 C 6.35 g/m*3 11.9 C 8.1 km/h
1870 12-03-2014 18:45:00 11.7 C 6.38 g/m*3 11.7 C 8.1 km/h
1871 12-03-2014 18:50:00 11.5 C 6.4 g/m*3 11.5 C 6.4 km/h
1872 12-03-2014 18:55:00 11.4 C 6.36 g/m*3 11.4 C 8.1 km/h
1873 12-03-2014 19:00:00 11.2 C 6.28 g/m*3 11.2 C 6.4 km/h
1874 12-03-2014 19:05:00 11.2 C 6.39 g/m*3 11.2 C 8.1 km/h
1875 12-03-2014 19:10:00 11.1 C 6.75 g/m*3 11.1 C 8.1 km/h
Sensor: Nr:Datum:Temp:Abs-Feuchte:Windchill:Wind:
Aussen-T/F 1876 12-03-2014 19:15:00 10.8 C 6.42 g/m*3 10.8 C 4.8 km/h
1877 12-03-2014 19:20:00 10.6 C 6.44 g/m*3 10.06 C 6.4 km/h
1878 12-03-2014 19:25:00 10.5 C 6.5 g/m*3 9.95 C 6.4 km/h
1879 12-03-2014 19:30:00 10.4 C 6.46 g/m*3 9.46 C 8.1 km/h
1880 12-03-2014 19:35:00 10.3 C 6.51 g/m*3 9.72 C 6.4 km/h
1881 12-03-2014 19:40:00 10.3 C 6.42 g/m*3 10.3 C 4.8 km/h
1882 12-03-2014 19:45:00 10.2 C 6.47 g/m*3 10.2 C 4.8 km/h
1883 12-03-2014 19:50:00 9.9 C 6.54 g/m*3 9.9 C 4.8 km/h
1884 12-03-2014 19:55:00 9.8 C 6.4 g/m*3 9.8 C 4.8 km/h
1885 12-03-2014 20:00:00 9.7 C 6.36 g/m*3 9.7 C 4.8 km/h
1886 12-03-2014 20:05:00 9.6 C 6.32 g/m*3 9.6 C 4.8 km/h
1887 12-03-2014 20:10:00 9.5 C 6.28 g/m*3 9.5 C 4.8 km/h
1888 12-03-2014 20:15:00 9.4 C 6.24 g/m*3 9.4 C 4.8 km/h
1889 12-03-2014 20:20:00 9.2 C 6.43 g/m*3 9.2 C 4.8 km/h
1890 12-03-2014 20:25:00 9 C 6.44 g/m*3 9 C 3.2 km/h
1891 12-03-2014 20:30:00 8.9 C 6.39 g/m*3 8.9 C 3.2 km/h
1892 12-03-2014 20:35:00 8.8 C 6.35 g/m*3 8.8 C 4.8 km/h
1893 12-03-2014 20:40:00 8.8 C 6.35 g/m*3 8.8 C 3.2 km/h
1894 12-03-2014 20:45:00 8.8 C 6.35 g/m*3 8.8 C 3.2 km/h
1895 12-03-2014 20:50:00 8.7 C 6.23 g/m*3 8.7 C 1.6 km/h
1896 12-03-2014 20:55:00 8.6 C 6.44 g/m*3 8.6 C 1.6 km/h
1897 12-03-2014 21:00:00 8.4 C 6.28 g/m*3 8.4 C 0 km/h
1898 12-03-2014 21:05:00 8.2 C 6.28 g/m*3 8.2 C 3.2 km/h
1899 12-03-2014 21:10:00 8 C 6.28 g/m*3 8 C 1.6 km/h
1900 12-03-2014 21:15:00 7.9 C 6.32 g/m*3 7.9 C 0 km/h
Sensor: Nr:Datum:Temp:Abs-Feuchte:Windchill:Wind:
Aussen-T/F 1901 12-03-2014 21:20:00 7.8 C 6.28 g/m*3 7.8 C 1.6 km/h
1902 12-03-2014 21:25:00 7.8 C 6.28 g/m*3 7.8 C 3.2 km/h
1903 12-03-2014 21:30:00 7.7 C 6.24 g/m*3 7.7 C 0 km/h
1904 12-03-2014 21:35:00 7.6 C 6.04 g/m*3 7.6 C 0 km/h
1905 12-03-2014 21:40:00 7.4 C 6.04 g/m*3 7.4 C 1.6 km/h
1906 12-03-2014 21:45:00 7.3 C 6.08 g/m*3 7.3 C 0 km/h
1907 12-03-2014 21:50:00 7.2 C 6.12 g/m*3 7.2 C 0 km/h
1908 12-03-2014 21:55:00 7.1 C 6.08 g/m*3 7.1 C 0 km/h
1909 12-03-2014 22:00:00 6.9 C 6 g/m*3 6.9 C 0 km/h
1910 12-03-2014 22:05:00 6.8 C 5.97 g/m*3 6.8 C 0 km/h
1911 12-03-2014 22:10:00 6.7 C 5.93 g/m*3 6.7 C 0 km/h
1912 12-03-2014 22:15:00 6.5 C 5.85 g/m*3 6.5 C 0 km/h
1913 12-03-2014 22:20:00 6.3 C 5.92 g/m*3 6.3 C 0 km/h
1914 12-03-2014 22:25:00 6.3 C 5.92 g/m*3 6.3 C 0 km/h
1915 12-03-2014 22:30:00 6.2 C 5.88 g/m*3 6.2 C 0 km/h
1916 12-03-2014 22:35:00 6.2 C 5.96 g/m*3 6.2 C 0 km/h
1917 12-03-2014 22:40:00 6.1 C 5.99 g/m*3 6.1 C 0 km/h
1918 12-03-2014 22:45:00 6.1 C 5.99 g/m*3 6.1 C 1.6 km/h
1919 12-03-2014 22:50:00 6 C 5.95 g/m*3 6 C 0 km/h
1920 12-03-2014 22:55:00 5.9 C 5.91 g/m*3 5.9 C 0 km/h
1921 12-03-2014 23:00:00 5.9 C 5.91 g/m*3 5.9 C 0 km/h
1922 12-03-2014 23:05:00 5.8 C 5.87 g/m*3 5.8 C 0 km/h
1923 12-03-2014 23:10:00 5.8 C 5.87 g/m*3 5.8 C 0 km/h
1924 12-03-2014 23:15:00 5.8 C 5.87 g/m*3 5.8 C 0 km/h
1925 12-03-2014 23:20:00 5.7 C 5.91 g/m*3 5.7 C 0 km/h
Sensor: Nr:Datum:Temp:Abs-Feuchte:Windchill:Wind:
Aussen-T/F 1926 12-03-2014 23:25:00 5.6 C 5.87 g/m*3 5.6 C 0 km/h
1927 12-03-2014 23:30:00 5.6 C 5.87 g/m*3 5.6 C 0 km/h
1928 12-03-2014 23:35:00 5.4 C 5.79 g/m*3 5.4 C 0 km/h
1929 12-03-2014 23:40:00 5.3 C 5.75 g/m*3 5.3 C 0 km/h
1930 12-03-2014 23:45:00 5.2 C 5.71 g/m*3 5.2 C 0 km/h
1931 12-03-2014 23:50:00 5.1 C 5.75 g/m*3 5.1 C 0 km/h
1932 12-03-2014 23:55:00 4.9 C 5.67 g/m*3 4.9 C 0 km/h

Legende:
   Min
   Max


Maximal/Minimal-Werte vom 06.03.2014 - 12.03.2014

Sensor Min Max Avg
Temp
(Aussen-T/F)
-0.9 °C
07-03-2014  07:55:00
20.5 °C
09-03-2014  15:40:00
7.13 °C
Abs-Feuchte
(Aussen-T/F)
3.82 g/m*3
09-03-2014  15:20:00
8.46 g/m*3
11-03-2014  13:40:00
6.03 g/m*3
Windchill
(Aussen-T/F)
-0.9 C
07-03-2014  07:55:00
20.5 C
09-03-2014  15:40:00
7.09 C

Die Daten stammen von einer Davis Vantage Pro 2 Wetter-Station und werden unter Linux mit der Software wview2wettercgi und aufbereitet. Alle Angaben erfolgen ohne Gewähr für ihre Vollständigkeit oder Richtigkeit.
Kontakt: Rainer Krienke krienke@uni-koblenz.de . Meine Webseiten an der Uni Koblenz oder privat.
Version: $Revision: 0.78 $